U28274 / G-EZDN 7700 Squawk Report (5th of August, 2022)

Aircraft A319 Reg No. G-EZDN Age 14 years old
Model A319 Jet engines 2 First flight 24-07-08
Registered 08-08-08 Rollout 07-08 Delivered 08-08-08
Construction No. 3608 Line No. N/A Series 111
ADSHEX 405B67 Airline name easyJet Owner N/A
Airfield based Luton~Beds~G First tracked N/A

Flight history for G-EZDN

Route Flight No Date Playback
Munich Airport (MUC) - Gatwick (LGW) U28986 2022-08-11 23:41:00
Gatwick (LGW) - Munich Airport (MUC) U28985 2022-08-11 19:49:00
Glasgow (GLA) - Gatwick (LGW) U2880 2022-08-11 17:06:00
Gatwick (LGW) - Glasgow (GLA) U2881 2022-08-11 14:26:00
Bologna (BLQ) - Gatwick (LGW) U28990 2022-08-11 11:08:00
Gatwick (LGW) - Bologna (BLQ) U28989 2022-08-11 09:12:00
Dionysios Solomos (ZTH) - Gatwick (LGW) U28750 2022-08-10 20:44:00
Gatwick (LGW) - Dionysios Solomos (ZTH) U28749 2022-08-10 15:56:00
Malaga (AGP) - Gatwick (LGW) U28600 2022-08-10 11:35:00
Gatwick (LGW) - Malaga (AGP) U28599 2022-08-10 08:50:00
Charles De Gaulle (CDG) - Gatwick (LGW) U28326 2022-08-10 05:18:00
Gatwick (LGW) - Charles De Gaulle (CDG) U28327 2022-08-09 19:09:00
Venezia Tessera (VCE) - Gatwick (LGW) U28068 2022-08-09 16:29:00
Gatwick (LGW) - Venezia Tessera (VCE) U28067 2022-08-09 13:42:00
Almeria (LEI) - Gatwick (LGW) U28164 2022-08-09 11:36:00
Gatwick (LGW) - Almeria (LEI) U28163 2022-08-09 08:06:00
Charles De Gaulle (CDG) - Gatwick (LGW) U28326 2022-08-09 04:39:00
Gatwick (LGW) - Charles De Gaulle (CDG) U28327 2022-08-08 19:55:00
Son Sant Joan (PMI) - Gatwick (LGW) U28626 2022-08-08 17:49:00
???? N/A 2022-08-08 14:45:00
Time Lat Lon Altitude Heading Speed Vertical Rate
2022-08-05 08:51:20 GMT 51.155891 -0.178223 0 345 0 0
2022-08-05 08:51:19 GMT 51.155891 -0.178231 0 345 0 0
2022-08-05 08:51:15 GMT 51.155884 -0.178223 0 345 0 0
2022-08-05 08:51:08 GMT 51.155869 -0.178223 0 345 0 0
2022-08-05 08:51:04 GMT 51.155869 -0.178242 0 345 0 0
2022-08-05 08:50:54 GMT 51.155823 -0.178231 0 345 0 0
2022-08-05 08:50:44 GMT 51.155823 -0.178231 0 345 0 0
2022-08-05 08:50:27 GMT 51.155800 -0.178204 0 345 0 0
2022-08-05 08:50:25 GMT 51.155811 -0.178212 0 348 0 0
2022-08-05 08:50:21 GMT 51.155823 -0.178223 0 348 0 0
2022-08-05 08:50:15 GMT 51.155846 -0.178223 0 345 0 0
2022-08-05 08:50:12 GMT 51.155869 -0.178231 0 348 0 0
2022-08-05 08:50:05 GMT 51.155884 -0.178223 0 345 2 0
2022-08-05 08:50:01 GMT 51.155846 -0.178212 0 345 0 0
2022-08-05 08:49:59 GMT 51.155857 -0.178212 0 345 0 0
2022-08-05 08:49:55 GMT 51.155453 -0.178089 0 345 5 0
2022-08-05 08:49:45 GMT 51.155216 -0.177994 0 11 7 0
2022-08-05 08:49:42 GMT 51.155102 -0.177994 0 33 7 0
2022-08-05 08:49:40 GMT 51.155045 -0.178008 0 50 7 0
2022-08-05 08:49:36 GMT 51.154953 -0.178157 0 78 7 0
2022-08-05 08:49:35 GMT 51.154930 -0.178231 0 78 7 0
2022-08-05 08:49:34 GMT 51.154938 -0.178261 0 78 7 0
2022-08-05 08:49:31 GMT 51.154915 -0.178413 0 78 9 0
2022-08-05 08:49:28 GMT 51.154896 -0.178621 0 78 11 0
2022-08-05 08:49:25 GMT 51.154861 -0.178843 0 78 14 0
2022-08-05 08:49:24 GMT 51.154839 -0.178992 0 78 15 0
2022-08-05 08:49:23 GMT 51.154827 -0.179103 0 78 15 0
2022-08-05 08:49:22 GMT 51.154812 -0.179195 0 78 15 0
2022-08-05 08:49:21 GMT 51.154770 -0.179493 0 78 14 0
2022-08-05 08:49:17 GMT 51.154758 -0.179586 0 78 14 0
2022-08-05 08:49:05 GMT 51.154598 -0.180773 0 75 14 0
2022-08-05 08:49:00 GMT 51.154530 -0.181237 0 78 13 0
2022-08-05 08:48:58 GMT 51.154507 -0.181408 0 78 12 0
2022-08-05 08:48:56 GMT 51.154472 -0.181664 0 78 11 0
2022-08-05 08:48:53 GMT 51.154438 -0.181923 0 75 10 0
2022-08-05 08:48:51 GMT 51.154427 -0.181999 0 75 9 0
2022-08-05 08:48:50 GMT 51.154427 -0.182072 0 73 9 0
2022-08-05 08:48:48 GMT 51.154404 -0.182190 0 70 9 0
2022-08-05 08:48:47 GMT 51.154404 -0.182247 0 67 9 0
2022-08-05 08:48:45 GMT 51.154358 -0.182444 0 47 9 0
2022-08-05 08:48:43 GMT 51.154335 -0.182499 0 42 10 0
2022-08-05 08:48:41 GMT 51.154285 -0.182590 0 33 10 0
2022-08-05 08:48:40 GMT 51.154243 -0.182648 0 22 10 0
2022-08-05 08:48:39 GMT 51.154209 -0.182685 0 16 10 0
2022-08-05 08:48:38 GMT 51.154171 -0.182724 0 11 10 0
2022-08-05 08:48:37 GMT 51.154037 -0.182778 0 357 10 0
2022-08-05 08:48:35 GMT 51.154037 -0.182778 0 357 10 0
2022-08-05 08:48:34 GMT 51.154003 -0.182778 0 354 11 0
2022-08-05 08:48:32 GMT 51.153915 -0.182762 0 348 12 0
2022-08-05 08:48:29 GMT 51.153751 -0.182703 0 348 11 0
2022-08-05 08:48:27 GMT 51.153683 -0.182686 0 348 11 0
2022-08-05 08:48:26 GMT 51.153603 -0.182667 0 348 11 0
2022-08-05 08:48:25 GMT 51.153553 -0.182648 0 348 11 0
2022-08-05 08:48:23 GMT 51.153454 -0.182611 0 345 11 0
2022-08-05 08:48:15 GMT 51.152996 -0.182444 0 348 11 0
2022-08-05 08:48:13 GMT 51.152996 -0.182444 0 348 11 0
2022-08-05 08:48:10 GMT 51.152889 -0.182419 0 348 11 0
2022-08-05 08:48:08 GMT 51.152687 -0.182351 0 348 11 0
2022-08-05 08:48:06 GMT 51.152687 -0.182351 0 348 11 0
2022-08-05 08:48:05 GMT 51.152645 -0.182323 0 348 11 0
2022-08-05 08:48:03 GMT 51.152542 -0.182285 0 351 11 0
2022-08-05 08:48:02 GMT 51.152496 -0.182285 0 354 11 0
2022-08-05 08:48:00 GMT 51.152378 -0.182258 0 0 11 0
2022-08-05 08:47:59 GMT 51.152344 -0.182258 0 5 11 0
2022-08-05 08:47:58 GMT 51.152298 -0.182239 0 11 11 0
2022-08-05 08:47:57 GMT 51.152252 -0.182239 0 16 11 0
2022-08-05 08:47:55 GMT 51.152145 -0.182285 0 30 11 0
2022-08-05 08:47:54 GMT 51.152088 -0.182304 0 39 11 0
2022-08-05 08:47:53 GMT 51.152000 -0.182388 0 53 11 0
2022-08-05 08:47:51 GMT 51.151966 -0.182444 0 59 11 0
2022-08-05 08:47:47 GMT 51.151863 -0.182722 0 75 11 0
2022-08-05 08:47:46 GMT 51.151855 -0.182819 0 81 12 0
2022-08-05 08:47:44 GMT 51.151840 -0.182982 0 84 14 0
2022-08-05 08:47:42 GMT 51.151821 -0.183220 0 81 14 0
2022-08-05 08:47:40 GMT 51.151810 -0.183372 0 78 16 0
2022-08-05 08:47:38 GMT 51.151783 -0.183594 0 78 16 0
2022-08-05 08:47:37 GMT 51.151772 -0.183706 0 78 16 0
2022-08-05 08:47:36 GMT 51.151737 -0.183984 0 78 16 0
2022-08-05 08:47:34 GMT 51.151726 -0.184040 0 78 17 0
2022-08-05 08:47:30 GMT 51.151669 -0.184536 0 75 19 0
2022-08-05 08:47:29 GMT 51.151646 -0.184708 0 75 20 0
2022-08-05 08:47:28 GMT 51.151623 -0.184838 0 75 21 0
2022-08-05 08:47:26 GMT 51.151577 -0.185165 0 75 22 0
2022-08-05 08:47:25 GMT 51.151566 -0.185280 0 78 23 0
2022-08-05 08:47:23 GMT 51.151493 -0.185795 0 75 25 0
2022-08-05 08:47:20 GMT 51.151451 -0.186137 0 78 25 0
2022-08-05 08:47:18 GMT 51.151394 -0.186508 0 75 25 0
2022-08-05 08:47:16 GMT 51.151325 -0.187027 0 75 25 0
2022-08-05 08:47:15 GMT 51.151325 -0.187027 0 75 25 0
2022-08-05 08:47:13 GMT 51.151272 -0.187378 0 75 25 0
2022-08-05 08:47:11 GMT 51.151215 -0.187798 0 75 25 0
2022-08-05 08:47:08 GMT 51.151142 -0.188326 0 75 25 0
2022-08-05 08:47:06 GMT 51.151108 -0.188512 0 78 25 0
2022-08-05 08:47:03 GMT 51.151051 -0.188957 0 75 25 0
2022-08-05 08:47:01 GMT 51.150993 -0.189419 0 78 25 0
2022-08-05 08:47:00 GMT 51.150970 -0.189590 0 78 25 0
2022-08-05 08:46:55 GMT 51.150845 -0.190498 0 78 25 0
2022-08-05 08:46:54 GMT 51.150818 -0.190697 0 78 25 0
2022-08-05 08:46:52 GMT 51.150776 -0.191036 0 75 25 0
2022-08-05 08:46:50 GMT 51.150742 -0.191277 0 78 24 0
2022-08-05 08:46:47 GMT 51.150658 -0.191860 0 78 24 0
2022-08-05 08:46:43 GMT 51.150570 -0.192483 0 78 24 0
2022-08-05 08:46:36 GMT 51.150398 -0.193782 0 78 23 0
2022-08-05 08:46:34 GMT 51.150364 -0.194035 0 78 23 0
2022-08-05 08:46:33 GMT 51.150330 -0.194302 0 78 23 0
2022-08-05 08:46:31 GMT 51.150261 -0.194778 0 78 23 0
2022-08-05 08:46:29 GMT 51.150238 -0.194933 0 78 23 0
2022-08-05 08:46:26 GMT 51.150181 -0.195389 0 78 23 0
2022-08-05 08:46:24 GMT 51.150146 -0.195694 0 75 23 0
2022-08-05 08:46:23 GMT 51.150124 -0.195842 0 75 22 0
2022-08-05 08:46:21 GMT 51.150055 -0.196343 0 75 22 0
2022-08-05 08:46:16 GMT 51.149960 -0.196972 0 78 22 0
2022-08-05 08:46:15 GMT 51.149937 -0.197124 0 75 21 0
2022-08-05 08:46:06 GMT 51.149746 -0.198515 0 75 20 0
2022-08-05 08:46:04 GMT 51.149723 -0.198737 0 78 20 0
2022-08-05 08:45:59 GMT 51.149620 -0.199480 0 78 19 0
2022-08-05 08:45:57 GMT 51.149597 -0.199665 0 75 19 0
2022-08-05 08:45:54 GMT 51.149540 -0.200074 0 75 19 0
2022-08-05 08:45:52 GMT 51.149506 -0.200315 0 78 19 0
2022-08-05 08:45:49 GMT 51.149445 -0.200729 0 75 18 0
2022-08-05 08:45:47 GMT 51.149414 -0.200983 0 78 18 0
2022-08-05 08:45:45 GMT 51.149391 -0.201169 0 78 18 0
2022-08-05 08:45:44 GMT 51.149376 -0.201283 0 78 17 0
2022-08-05 08:45:41 GMT 51.149311 -0.201707 0 75 17 0
2022-08-05 08:45:40 GMT 51.149284 -0.201950 0 75 17 0
2022-08-05 08:45:38 GMT 51.149261 -0.202084 0 75 17 0
2022-08-05 08:45:37 GMT 51.149246 -0.202198 0 75 16 0
2022-08-05 08:45:35 GMT 51.149208 -0.202431 0 75 16 0
2022-08-05 08:45:32 GMT 51.149162 -0.202802 0 75 16 0
2022-08-05 08:45:29 GMT 51.149094 -0.203266 0 78 15 0
2022-08-05 08:45:27 GMT 51.149094 -0.203266 0 78 15 0
2022-08-05 08:45:26 GMT 51.149075 -0.203438 0 78 15 0
2022-08-05 08:45:24 GMT 51.149014 -0.203859 0 75 14 0
2022-08-05 08:45:22 GMT 51.149014 -0.203859 0 75 14 0
2022-08-05 08:45:20 GMT 51.148991 -0.204029 0 78 14 0
2022-08-05 08:45:19 GMT 51.148933 -0.204449 0 78 14 0
2022-08-05 08:45:16 GMT 51.148933 -0.204449 0 78 14 0
2022-08-05 08:45:15 GMT 51.148922 -0.204546 0 78 13 0
2022-08-05 08:45:14 GMT 51.148899 -0.204657 0 78 13 0
2022-08-05 08:45:10 GMT 51.148815 -0.205307 0 78 13 0
2022-08-05 08:45:07 GMT 51.148808 -0.205400 0 78 13 0
2022-08-05 08:45:01 GMT 51.148762 -0.205752 0 70 13 0
2022-08-05 08:44:58 GMT 51.148705 -0.206012 0 56 13 0
2022-08-05 08:44:57 GMT 51.148598 -0.206242 0 33 13 0
2022-08-05 08:44:55 GMT 51.148598 -0.206242 0 30 13 0
2022-08-05 08:44:54 GMT 51.148560 -0.206299 0 22 13 0
2022-08-05 08:44:51 GMT 51.148396 -0.206420 0 0 12 0
2022-08-05 08:44:49 GMT 51.148315 -0.206439 0 348 12 0
2022-08-05 08:44:47 GMT 51.148178 -0.206420 0 331 13 0
2022-08-05 08:44:45 GMT 51.148064 -0.206328 0 317 14 0
2022-08-05 08:44:44 GMT 51.148018 -0.206272 0 309 15 0
2022-08-05 08:44:42 GMT 51.147911 -0.206089 0 298 15 0
2022-08-05 08:44:40 GMT 51.147850 -0.205898 0 286 16 0
2022-08-05 08:44:37 GMT 51.147789 -0.205530 0 284 18 0
2022-08-05 08:44:35 GMT 51.147770 -0.205345 0 284 18 0
2022-08-05 08:44:34 GMT 51.147747 -0.205212 0 284 19 0
2022-08-05 08:44:33 GMT 51.147720 -0.205010 0 284 18 0
2022-08-05 08:44:30 GMT 51.147678 -0.204716 0 281 18 0
2022-08-05 08:44:28 GMT 51.147480 -0.203358 0 281 23 0
2022-08-05 08:44:20 GMT 51.147480 -0.203358 0 281 23 0
2022-08-05 08:44:19 GMT 51.147469 -0.203229 0 284 24 0
2022-08-05 08:44:17 GMT 51.147411 -0.202839 0 284 26 0
2022-08-05 08:44:13 GMT 51.147293 -0.202045 0 284 30 0
2022-08-05 08:44:11 GMT 51.147236 -0.201626 0 284 33 0
2022-08-05 08:44:09 GMT 51.147160 -0.201113 0 284 34 0
2022-08-05 08:44:06 GMT 51.147091 -0.200463 0 278 38 0
2022-08-05 08:44:04 GMT 51.147057 -0.199888 0 275 40 0
2022-08-05 08:44:02 GMT 51.147045 -0.199424 0 272 41 0
2022-08-05 08:44:00 GMT 51.147057 -0.198589 0 267 43 0
2022-08-05 08:43:59 GMT 51.147068 -0.198274 0 264 45 0
2022-08-05 08:43:57 GMT 51.147106 -0.197811 0 261 48 0
2022-08-05 08:43:56 GMT 51.147175 -0.197277 0 261 50 0
2022-08-05 08:43:47 GMT 51.147678 -0.193501 0 258 74 0
2022-08-05 08:43:41 GMT 51.148064 -0.190776 0 258 82 0
2022-08-05 08:43:30 GMT 51.149223 -0.182190 -75 258 131 -640
2022-08-05 08:43:23 GMT 51.149971 -0.176849 -75 258 131 -640
2022-08-05 08:43:21 GMT 51.150146 -0.175633 -75 258 131 -640
2022-08-05 08:43:18 GMT 51.150604 -0.172367 -25 258 131 -640
2022-08-05 08:43:17 GMT 51.150742 -0.171402 0 258 131 -640
2022-08-05 08:43:16 GMT 51.151016 -0.169397 25 258 131 -640
2022-08-05 08:43:14 GMT 51.151154 -0.168507 25 258 132 -640
2022-08-05 08:43:12 GMT 51.151428 -0.166576 50 258 132 -768
2022-08-05 08:43:11 GMT 51.151550 -0.165558 75 258 132 -768
2022-08-05 08:43:10 GMT 51.151691 -0.164719 75 258 132 -640
2022-08-05 08:43:09 GMT 51.151924 -0.162735 100 258 132 -640
2022-08-05 08:43:07 GMT 51.152069 -0.161826 125 258 131 -640
2022-08-05 08:43:06 GMT 51.152252 -0.160446 125 258 129 -640
2022-08-05 08:43:04 GMT 51.152481 -0.158634 150 258 129 -704
2022-08-05 08:43:03 GMT 51.152622 -0.157776 175 259 130 -768
2022-08-05 08:43:02 GMT 51.152855 -0.155945 200 258 129 -896
2022-08-05 08:43:00 GMT 51.152985 -0.154996 200 258 129 -896
2022-08-05 08:42:59 GMT 51.153275 -0.152969 225 258 127 -704
2022-08-05 08:42:56 GMT 51.153534 -0.151062 250 258 128 -512
2022-08-05 08:42:55 GMT 51.153927 -0.148315 275 258 128 -640
2022-08-05 08:42:53 GMT 51.153927 -0.148315 300 258 128 -704
2022-08-05 08:42:52 GMT 51.154037 -0.147499 300 258 128 -832
2022-08-05 08:42:50 GMT 51.154312 -0.145495 325 258 130 -704
2022-08-05 08:42:49 GMT 51.154533 -0.143661 350 258 130 -640
2022-08-05 08:42:47 GMT 51.154678 -0.142674 350 258 130 -768
2022-08-05 08:42:46 GMT 51.154949 -0.140839 375 258 131 -832
2022-08-05 08:42:44 GMT 51.155090 -0.139847 400 258 131 -832
2022-08-05 08:42:43 GMT 51.155369 -0.137939 425 259 130 -704
2022-08-05 08:42:41 GMT 51.155502 -0.136958 425 258 129 -576
2022-08-05 08:42:40 GMT 51.155731 -0.135102 450 258 128 -576
2022-08-05 08:42:38 GMT 51.155884 -0.134201 450 258 128 -640
2022-08-05 08:42:37 GMT 51.156006 -0.133321 475 258 128 -576
2022-08-05 08:42:36 GMT 51.156208 -0.131607 500 258 129 -640
2022-08-05 08:42:34 GMT 51.156441 -0.130234 500 258 130 -768
2022-08-05 08:42:33 GMT 51.156509 -0.129757 500 258 130 -832
2022-08-05 08:42:30 GMT 51.156765 -0.127792 550 258 129 -960
2022-08-05 08:42:29 GMT 51.156998 -0.125885 575 258 129 -896
2022-08-05 08:42:27 GMT 51.157139 -0.125046 575 258 129 -768
2022-08-05 08:42:26 GMT 51.157276 -0.123978 600 258 129 -768
2022-08-05 08:42:25 GMT 51.157562 -0.121740 625 258 128 -576
2022-08-05 08:42:23 GMT 51.157650 -0.121231 625 258 128 -448
2022-08-05 08:42:22 GMT 51.157928 -0.119217 650 258 129 -448
2022-08-05 08:42:20 GMT 51.158066 -0.118326 650 258 130 -512
2022-08-05 08:42:19 GMT 51.158211 -0.117340 675 257 130 -768
2022-08-05 08:42:17 GMT 51.158478 -0.115505 700 257 132 -1152
2022-08-05 08:42:16 GMT 51.158661 -0.114169 725 257 132 -1088
2022-08-05 08:42:14 GMT 51.158936 -0.112313 750 258 133 -832
2022-08-05 08:42:12 GMT 51.159142 -0.110931 775 258 133 -896
2022-08-05 08:42:11 GMT 51.159576 -0.107785 800 258 133 -704
2022-08-05 08:42:09 GMT 51.159698 -0.106888 825 259 130 -576
2022-08-05 08:42:06 GMT 51.159988 -0.104519 850 259 128 -576
2022-08-05 08:42:05 GMT 51.160080 -0.103702 875 259 128 -512
2022-08-05 08:42:03 GMT 51.160305 -0.101929 875 259 126 -576
2022-08-05 08:42:01 GMT 51.160679 -0.099258 925 259 127 -512
2022-08-05 08:41:59 GMT 51.160770 -0.098267 925 259 127 -576
2022-08-05 08:41:58 GMT 51.160904 -0.097170 925 259 127 -576
2022-08-05 08:41:56 GMT 51.161133 -0.095462 950 258 127 -512
2022-08-05 08:41:55 GMT 51.161282 -0.094528 975 257 131 -704
2022-08-05 08:41:53 GMT 51.161591 -0.092345 1,000 257 131 -704
2022-08-05 08:41:51 GMT 51.162094 -0.088781 1,025 257 132 -896
2022-08-05 08:41:49 GMT 51.162094 -0.088781 1,025 257 132 -1024
2022-08-05 08:41:48 GMT 51.162540 -0.085831 1,075 258 133 -832
2022-08-05 08:41:46 GMT 51.162540 -0.085831 1,075 258 133 -832
2022-08-05 08:41:45 GMT 51.162735 -0.084476 1,100 258 133 -896
2022-08-05 08:41:43 GMT 51.162956 -0.082855 1,100 258 132 -896
2022-08-05 08:41:42 GMT 51.163097 -0.081863 1,125 259 132 -768
2022-08-05 08:41:41 GMT 51.163193 -0.080913 1,125 259 132 -448
2022-08-05 08:41:40 GMT 51.163467 -0.078909 1,150 259 133 -448
2022-08-05 08:41:37 GMT 51.163700 -0.077286 1,175 259 134 -512
2022-08-05 08:41:36 GMT 51.163891 -0.075760 1,175 258 137 -640
2022-08-05 08:41:34 GMT 51.164120 -0.074158 1,200 258 138 -704
2022-08-05 08:41:32 GMT 51.164383 -0.072079 1,225 258 142 -768
2022-08-05 08:41:29 GMT 51.164680 -0.070114 1,275 258 145 -704
2022-08-05 08:41:28 GMT 51.164978 -0.067848 1,275 258 147 -704
2022-08-05 08:41:26 GMT 51.165115 -0.066660 1,300 259 150 -896
2022-08-05 08:41:24 GMT 51.165565 -0.063324 1,350 259 151 -1216
2022-08-05 08:41:22 GMT 51.165710 -0.062355 1,375 259 152 -1216
2022-08-05 08:41:21 GMT 51.165985 -0.060054 1,425 259 154 -768
2022-08-05 08:41:19 GMT 51.166122 -0.058975 1,425 258 154 -704
2022-08-05 08:41:16 GMT 51.166588 -0.055618 1,450 258 155 -704
2022-08-05 08:41:15 GMT 51.166763 -0.054486 1,475 258 155 -768
2022-08-05 08:41:13 GMT 51.167084 -0.052334 1,500 258 155 -640
2022-08-05 08:41:12 GMT 51.167221 -0.051146 1,500 258 157 -640
2022-08-05 08:41:11 GMT 51.167450 -0.049513 1,525 257 158 -704
2022-08-05 08:41:10 GMT 51.167984 -0.046082 1,550 258 161 -704
2022-08-05 08:41:08 GMT 51.167984 -0.046082 1,550 258 162 -832
2022-08-05 08:41:07 GMT 51.168312 -0.043716 1,625 258 164 -832
2022-08-05 08:41:05 GMT 51.168457 -0.042535 1,625 258 164 -896
2022-08-05 08:41:03 GMT 51.168869 -0.039597 1,625 258 165 -1024
2022-08-05 08:41:02 GMT 51.169281 -0.036522 1,675 259 166 -1152
2022-08-05 08:41:00 GMT 51.169430 -0.035400 1,700 259 167 -1152
2022-08-05 08:40:58 GMT 51.169567 -0.034332 1,725 259 167 -1152
2022-08-05 08:40:57 GMT 51.169876 -0.031846 1,825 258 166 -1088
2022-08-05 08:40:54 GMT 51.170197 -0.029470 1,825 258 166 -960
2022-08-05 08:40:52 GMT 51.170517 -0.027169 1,875 258 166 -960
2022-08-05 08:40:48 GMT 51.171295 -0.021527 1,875 258 166 -960
2022-08-05 08:40:46 GMT 51.171524 -0.019597 1,925 258 166 -896
2022-08-05 08:40:44 GMT 51.171753 -0.017964 1,950 258 166 -704
2022-08-05 08:40:43 GMT 51.171989 -0.016327 1,975 258 167 -640
2022-08-05 08:40:40 GMT 51.172623 -0.011951 1,975 259 169 -768
2022-08-05 08:40:38 GMT 51.172874 -0.010071 2,125 259 170 -896
2022-08-05 08:40:35 GMT 51.173355 -0.006161 2,050 259 170 -896
2022-08-05 08:40:32 GMT 51.173943 -0.001755 2,150 260 172 -1280
2022-08-05 08:40:29 GMT 51.174316 0.001068 2,125 259 173 -896
2022-08-05 08:40:27 GMT 51.175232 0.008537 2,275 261 172 -1088
2022-08-05 08:40:23 GMT 51.175232 0.008537 2,250 260 172 -1088
2022-08-05 08:40:20 GMT 51.175667 0.012283 2,350 261 170 -1088
2022-08-05 08:40:17 GMT 51.175991 0.015564 2,350 261 171 -896
2022-08-05 08:40:14 GMT 51.176331 0.018706 2,400 262 170 -1344
2022-08-05 08:40:12 GMT 51.176651 0.021898 2,500 263 169 -1024
2022-08-05 08:40:10 GMT 51.176876 0.024490 2,525 263 168 -1088
2022-08-05 08:40:07 GMT 51.177155 0.027924 2,575 263 169 -1088
2022-08-05 08:40:04 GMT 51.177475 0.031549 2,600 263 169 -1024
2022-08-05 08:40:02 GMT 51.177887 0.036745 2,700 271 172 -512
2022-08-05 08:40:00 GMT 51.177887 0.036745 2,675 273 172 -576
2022-08-05 08:39:58 GMT 51.178085 0.044098 2,675 275 172 -640
2022-08-05 08:39:54 GMT 51.178085 0.044098 2,700 275 172 -640
2022-08-05 08:39:52 GMT 51.177567 0.049884 2,775 286 171 -1024
2022-08-05 08:39:49 GMT 51.176830 0.053406 2,775 286 171 -1024
2022-08-05 08:39:47 GMT 51.176830 0.053406 2,825 291 176 -640
2022-08-05 08:39:44 GMT 51.175854 0.057297 2,925 293 171 -512
2022-08-05 08:39:41 GMT 51.174969 0.060501 3,125 292 177 -768
2022-08-05 08:39:37 GMT 51.173904 0.064804 2,950 292 173 -768
2022-08-05 08:39:34 GMT 51.172531 0.070298 3,000 292 177 -704
2022-08-05 08:39:32 GMT 51.172531 0.070298 3,000 292 176 -768
2022-08-05 08:39:30 GMT 51.171616 0.074081 3,000 292 176 -768
2022-08-05 08:39:27 GMT 51.170975 0.076682 3,050 292 177 -704
2022-08-05 08:39:24 GMT 51.169464 0.082843 3,100 291 176 -704
2022-08-05 08:39:22 GMT 51.169464 0.082843 3,125 291 176 -640
2022-08-05 08:39:20 GMT 51.168823 0.085449 3,125 291 176 -704
2022-08-05 08:39:17 GMT 51.168034 0.088882 3,175 291 174 -704
2022-08-05 08:39:14 GMT 51.167103 0.092926 3,200 291 175 -768
2022-08-05 08:39:12 GMT 51.166626 0.094868 3,225 291 175 -768
2022-08-05 08:39:10 GMT 51.165985 0.097615 3,250 291 175 -768
2022-08-05 08:39:07 GMT 51.165237 0.100861 3,300 291 175 -704
2022-08-05 08:39:05 GMT 51.164822 0.102615 3,350 291 176 -704
2022-08-05 08:39:02 GMT 51.163700 0.107346 3,350 291 176 -640
2022-08-05 08:39:00 GMT 51.163101 0.109863 3,375 291 176 -640
2022-08-05 08:38:58 GMT 51.162540 0.112305 3,400 291 176 -640
2022-08-05 08:38:54 GMT 51.160812 0.119662 3,450 290 175 -512
2022-08-05 08:38:52 GMT 51.160812 0.119662 3,450 290 175 -448
2022-08-05 08:38:49 GMT 51.160172 0.122557 3,475 290 175 -512
2022-08-05 08:38:46 GMT 51.159348 0.126120 3,525 290 175 -448
2022-08-05 08:38:43 GMT 51.158535 0.129700 3,525 290 175 -448
2022-08-05 08:38:41 GMT 51.158070 0.131607 3,525 291 175 -448
2022-08-05 08:38:39 GMT 51.157372 0.134811 3,550 291 176 -512
2022-08-05 08:38:37 GMT 51.156765 0.137482 3,575 291 177 -512
2022-08-05 08:38:35 GMT 51.156254 0.139542 3,575 290 178 -448
2022-08-05 08:38:33 GMT 51.155090 0.144577 3,625 290 178 -448
2022-08-05 08:38:31 GMT 51.155090 0.144577 3,625 290 178 -448
2022-08-05 08:38:29 GMT 51.154541 0.147128 3,625 290 178 -448
2022-08-05 08:38:26 GMT 51.153534 0.151433 3,675 291 179 -384
2022-08-05 08:38:23 GMT 51.152756 0.154774 3,675 293 177 -320
2022-08-05 08:38:20 GMT 51.151749 0.158931 3,700 292 178 -320
2022-08-05 08:38:17 GMT 51.150902 0.162277 3,725 294 176 -320
2022-08-05 08:38:13 GMT 51.149551 0.167313 3,725 296 175 -192
2022-08-05 08:38:11 GMT 51.149048 0.168952 3,750 300 175 -320
2022-08-05 08:38:09 GMT 51.148178 0.171327 3,750 304 174 -448
2022-08-05 08:38:06 GMT 51.146992 0.173950 3,775 315 173 -384
2022-08-05 08:38:04 GMT 51.145596 0.176468 3,800 318 172 -448
2022-08-05 08:38:01 GMT 51.142151 0.180435 3,825 333 171 -576
2022-08-05 08:37:59 GMT 51.139633 0.182190 3,850 338 170 -576
2022-08-05 08:37:56 GMT 51.139633 0.182190 3,875 346 170 -576
2022-08-05 08:37:53 GMT 51.137970 0.182908 3,900 349 170 -512
2022-08-05 08:37:51 GMT 51.136471 0.183411 3,900 351 170 -512
2022-08-05 08:37:49 GMT 51.134995 0.183798 3,925 351 170 -448
2022-08-05 08:37:47 GMT 51.133862 0.184097 3,950 351 169 -448
2022-08-05 08:37:44 GMT 51.128742 0.185471 3,975 351 169 -384
2022-08-05 08:37:41 GMT 51.128742 0.185471 3,975 351 169 -512
2022-08-05 08:37:38 GMT 51.126507 0.186081 4,000 351 170 -576
2022-08-05 08:37:36 GMT 51.124283 0.186693 4,025 351 170 -576
2022-08-05 08:37:33 GMT 51.122818 0.187065 4,050 351 171 -576
2022-08-05 08:37:31 GMT 51.120850 0.187584 4,075 351 172 -512
2022-08-05 08:37:29 GMT 51.119244 0.187988 4,075 351 172 -448
2022-08-05 08:37:26 GMT 51.117290 0.188522 4,100 352 173 -384
2022-08-05 08:37:24 GMT 51.115219 0.189069 4,175 354 174 -256
2022-08-05 08:37:20 GMT 51.112682 0.189667 4,175 352 173 -384
2022-08-05 08:37:17 GMT 51.109749 0.190277 4,175 354 174 -320
2022-08-05 08:37:15 GMT 51.108490 0.190553 4,175 354 174 -256
2022-08-05 08:37:12 GMT 51.104736 0.191073 4,200 357 174 -256
2022-08-05 08:37:10 GMT 51.104736 0.191073 4,200 358 174 -192
2022-08-05 08:37:08 GMT 51.102997 0.191269 4,200 0 175 -192
2022-08-05 08:37:06 GMT 51.099365 0.190964 4,225 3 175 -192
2022-08-05 08:37:03 GMT 51.099041 0.190887 4,225 22 181 -256
2022-08-05 08:37:00 GMT 51.096222 0.189811 4,250 22 181 -256
2022-08-05 08:36:58 GMT 51.094990 0.189133 4,250 25 182 -256
2022-08-05 08:36:55 GMT 51.092468 0.186990 4,275 36 188 -256
2022-08-05 08:36:52 GMT 51.090363 0.184615 4,275 41 192 -320
2022-08-05 08:36:50 GMT 51.087753 0.180458 4,300 53 200 -320
2022-08-05 08:36:48 GMT 51.087753 0.180458 4,300 53 200 -320
2022-08-05 08:36:45 GMT 51.086151 0.177043 4,325 57 204 -384
2022-08-05 08:36:42 GMT 51.084686 0.173183 4,325 62 208 -320
2022-08-05 08:36:40 GMT 51.084000 0.171179 4,325 63 211 -320
2022-08-05 08:36:37 GMT 51.081444 0.162888 4,425 63 217 -320
2022-08-05 08:36:34 GMT 51.081444 0.162888 4,400 63 218 -384
2022-08-05 08:36:31 GMT 51.079834 0.157669 4,375 63 218 -384
2022-08-05 08:36:28 GMT 51.078419 0.153198 4,400 63 222 -384
2022-08-05 08:36:26 GMT 51.077625 0.150604 4,400 63 224 -448
2022-08-05 08:36:23 GMT 51.075439 0.143661 4,450 63 225 -576
2022-08-05 08:36:21 GMT 51.074741 0.141373 4,475 63 232 -576
2022-08-05 08:36:19 GMT 51.073715 0.138245 4,475 63 232 -576
2022-08-05 08:36:17 GMT 51.073715 0.138245 4,500 63 232 -576
2022-08-05 08:36:14 GMT 51.072227 0.133514 4,500 63 232 -576
2022-08-05 08:36:12 GMT 51.071342 0.130615 4,625 62 237 -512
2022-08-05 08:36:09 GMT 51.069489 0.124858 4,625 62 237 -512
2022-08-05 08:36:06 GMT 51.068161 0.120850 4,600 62 238 -512
2022-08-05 08:36:04 GMT 51.067108 0.117583 4,625 62 241 -576
2022-08-05 08:36:01 GMT 51.065475 0.112686 4,625 62 242 -640
2022-08-05 08:35:59 GMT 51.064545 0.109715 4,650 62 243 -832
2022-08-05 08:35:57 GMT 51.063148 0.105591 4,700 62 243 -896
2022-08-05 08:35:54 GMT 51.062073 0.102366 4,725 62 244 -960
2022-08-05 08:35:52 GMT 51.060791 0.098506 4,775 62 245 -960
2022-08-05 08:35:49 GMT 51.059238 0.093842 4,800 62 246 -1024
2022-08-05 08:35:47 GMT 51.058170 0.090637 4,850 62 246 -1024
2022-08-05 08:35:45 GMT 51.057331 0.088043 4,875 62 247 -960
2022-08-05 08:35:43 GMT 51.055893 0.083808 4,900 62 247 -960
2022-08-05 08:35:40 GMT 51.054165 0.078583 4,975 61 249 -1024
2022-08-05 08:35:38 GMT 51.051140 0.069733 5,050 61 250 -1088
2022-08-05 08:35:35 GMT 51.051140 0.069733 5,050 61 250 -1024
2022-08-05 08:35:32 GMT 51.049484 0.064730 5,100 61 251 -1024
2022-08-05 08:35:29 GMT 51.048161 0.060806 5,200 61 251 -960
2022-08-05 08:35:27 GMT 51.047089 0.057678 5,175 61 252 -960
2022-08-05 08:35:25 GMT 51.046017 0.054550 5,200 61 253 -1024
2022-08-05 08:35:23 GMT 51.044952 0.051369 5,250 61 254 -1088
2022-08-05 08:35:19 GMT 51.042667 0.044785 5,300 61 254 -1216
2022-08-05 08:35:17 GMT 51.041473 0.041273 5,375 60 255 -1152
2022-08-05 08:35:15 GMT 51.040573 0.038681 5,375 60 255 -1152
2022-08-05 08:35:13 GMT 51.039410 0.035477 5,425 60 255 -1216
2022-08-05 08:35:09 GMT 51.037216 0.029173 5,575 60 256 -1152
2022-08-05 08:35:07 GMT 51.035728 0.025024 5,575 60 256 -1152
2022-08-05 08:35:05 GMT 51.034241 0.020859 5,600 60 256 -1152
2022-08-05 08:35:02 GMT 51.032986 0.017319 5,700 60 256 -1152
2022-08-05 08:34:59 GMT 51.029480 0.007423 5,725 60 256 -1216
2022-08-05 08:34:57 GMT 51.029480 0.007423 5,775 60 256 -1216
2022-08-05 08:34:54 GMT 51.028610 0.004974 5,825 60 256 -1216
2022-08-05 08:34:52 GMT 51.025349 -0.004120 5,900 60 256 -1152
2022-08-05 08:34:49 GMT 51.025349 -0.004120 5,900 60 256 -1152
2022-08-05 08:34:47 GMT 51.024216 -0.007275 5,975 60 256 -1216
2022-08-05 08:34:44 GMT 51.022511 -0.012131 6,125 60 256 -1216
2022-08-05 08:34:41 GMT 51.020416 -0.018005 6,075 60 256 -1216
2022-08-05 08:34:38 GMT 51.018906 -0.022195 6,150 60 256 -1344
2022-08-05 08:34:35 GMT 51.017166 -0.027095 6,200 60 255 -1472
2022-08-05 08:34:32 GMT 51.015526 -0.031738 6,300 60 255 -1536
2022-08-05 08:34:29 GMT 51.013550 -0.037413 6,375 61 253 -1536
2022-08-05 08:34:27 GMT 51.012455 -0.040588 6,375 61 253 -1536
2022-08-05 08:34:24 GMT 51.010941 -0.044910 6,500 61 252 -1472
2022-08-05 08:34:22 GMT 51.009796 -0.048177 6,525 61 252 -1472
2022-08-05 08:34:19 GMT 51.008102 -0.053002 6,600 60 251 -1472
2022-08-05 08:34:17 GMT 51.007324 -0.055229 6,625 60 251 -1472
2022-08-05 08:34:14 GMT 51.003517 -0.066071 6,750 60 250 -1472
2022-08-05 08:34:11 GMT 51.003517 -0.066071 6,800 59 249 -1408
2022-08-05 08:34:09 GMT 51.002308 -0.069199 6,925 58 247 -1408
2022-08-05 08:34:06 GMT 51.000732 -0.073267 6,925 55 246 -1344
2022-08-05 08:34:04 GMT 50.999496 -0.076088 6,950 54 246 -1280
2022-08-05 08:34:02 GMT 50.998169 -0.078834 7,025 50 244 -1088
2022-08-05 08:33:59 GMT 50.995090 -0.084152 7,050 40 241 -960
2022-08-05 08:33:57 GMT 50.993362 -0.086480 7,100 38 240 -896
2022-08-05 08:33:54 GMT 50.990662 -0.089598 7,125 30 238 -768
2022-08-05 08:33:51 GMT 50.988831 -0.091231 7,150 28 238 -768
2022-08-05 08:33:48 GMT 50.983543 -0.094757 7,225 6 233 -768
2022-08-05 08:33:44 GMT 50.981918 -0.095462 7,275 0 232 -768
2022-08-05 08:33:42 GMT 50.978333 -0.096512 7,350 1 233 -768
2022-08-05 08:33:38 GMT 50.973953 -0.096724 7,325 349 229 -768
2022-08-05 08:33:35 GMT 50.969650 -0.095833 7,450 344 229 -832
2022-08-05 08:33:33 GMT 50.969650 -0.095833 7,450 340 229 -832
2022-08-05 08:33:28 GMT 50.962921 -0.092010 7,475 335 228 -832
2022-08-05 08:33:26 GMT 50.962921 -0.092010 7,475 333 228 -832
2022-08-05 08:33:23 GMT 50.959709 -0.088806 7,575 314 229 -896
2022-08-05 08:33:20 GMT 50.956284 -0.084031 7,675 303 229 -832
2022-08-05 08:33:18 GMT 50.956284 -0.084031 7,575 312 229 -896
2022-08-05 08:33:16 GMT 50.954311 -0.080338 7,600 309 229 -896
2022-08-05 08:33:14 GMT 50.953079 -0.077572 7,800 302 230 -832
2022-08-05 08:33:12 GMT 50.952168 -0.075302 7,725 299 231 -704
2022-08-05 08:33:09 GMT 50.950607 -0.070817 7,725 298 231 -704
2022-08-05 08:33:07 GMT 50.949554 -0.067700 7,750 298 231 -640
2022-08-05 08:33:04 GMT 50.948227 -0.063839 7,775 300 231 -704
2022-08-05 08:33:02 GMT 50.947357 -0.061538 7,800 305 232 -768
2022-08-05 08:33:00 GMT 50.945744 -0.057755 7,825 307 232 -768
2022-08-05 08:32:58 GMT 50.944336 -0.055080 7,850 313 232 -832
2022-08-05 08:32:56 GMT 50.942814 -0.052567 7,875 318 233 -832
2022-08-05 08:32:54 GMT 50.941555 -0.050735 7,900 322 234 -768
2022-08-05 08:32:52 GMT 50.939228 -0.047913 7,950 326 234 -768
2022-08-05 08:32:48 GMT 50.936005 -0.044836 8,000 335 236 -768
2022-08-05 08:32:46 GMT 50.934109 -0.043411 8,050 343 238 -768
2022-08-05 08:32:43 GMT 50.930477 -0.041351 8,075 348 240 -832
2022-08-05 08:32:40 GMT 50.927170 -0.040159 8,100 356 242 -768
2022-08-05 08:32:37 GMT 50.922272 -0.039491 8,125 1 244 -768
2022-08-05 08:32:35 GMT 50.922272 -0.039491 8,400 39 254 -832
2022-08-05 08:32:33 GMT 50.918747 -0.039714 8,200 9 247 -768
2022-08-05 08:32:30 GMT 50.916504 -0.040234 8,225 11 247 -768
2022-08-05 08:32:27 GMT 50.909409 -0.043500 8,275 17 249 -832
2022-08-05 08:32:24 GMT 50.907303 -0.044985 8,325 25 251 -768
2022-08-05 08:32:22 GMT 50.907303 -0.044985 8,350 37 254 -832
2022-08-05 08:32:19 GMT 50.904919 -0.047073 8,375 31 253 -768
2022-08-05 08:32:17 GMT 50.899933 -0.052853 8,425 39 254 -832
2022-08-05 08:32:14 GMT 50.899933 -0.052853 8,425 43 256 -832
2022-08-05 08:32:12 GMT 50.897736 -0.056268 8,475 48 257 -832
2022-08-05 08:32:09 GMT 50.895702 -0.060043 8,500 52 257 -832
2022-08-05 08:32:07 GMT 50.894806 -0.061909 8,525 54 258 -832
2022-08-05 08:32:05 GMT 50.893066 -0.065992 8,550 60 260 -832
2022-08-05 08:32:03 GMT 50.891647 -0.070149 8,650 65 260 -896
2022-08-05 08:32:00 GMT 50.890347 -0.074615 8,700 75 262 -832
2022-08-05 08:31:58 GMT 50.889462 -0.078354 8,675 71 261 -896
2022-08-05 08:31:56 GMT 50.888950 -0.080948 8,700 74 263 -832
2022-08-05 08:31:54 GMT 50.888161 -0.085373 8,700 74 263 -832
2022-08-05 08:31:51 GMT 50.887276 -0.090790 8,750 75 262 -768
2022-08-05 08:31:49 GMT 50.886612 -0.094572 8,775 75 262 -768
2022-08-05 08:31:47 GMT 50.885971 -0.098572 8,800 75 263 -832
2022-08-05 08:31:44 GMT 50.884899 -0.105057 8,875 75 263 -768
2022-08-05 08:31:41 GMT 50.884109 -0.109940 8,900 75 263 -768
2022-08-05 08:31:39 GMT 50.883453 -0.113723 8,925 75 263 -640
2022-08-05 08:31:37 GMT 50.882854 -0.117493 8,975 75 261 -448
2022-08-05 08:31:34 GMT 50.881989 -0.122854 8,975 75 263 -448
2022-08-05 08:31:32 GMT 50.881393 -0.126417 8,975 75 264 -448
2022-08-05 08:31:29 GMT 50.880432 -0.132294 9,000 75 264 -512
2022-08-05 08:31:27 GMT 50.880108 -0.134354 9,050 75 266 -512
2022-08-05 08:31:25 GMT 50.879173 -0.139923 9,050 75 265 -512
2022-08-05 08:31:23 GMT 50.878784 -0.142451 9,050 75 266 -512
2022-08-05 08:31:21 GMT 50.877731 -0.148909 9,075 75 267 -512
2022-08-05 08:31:18 GMT 50.877090 -0.152695 9,100 75 268 -512
2022-08-05 08:31:16 GMT 50.876587 -0.155887 9,200 75 268 -512
2022-08-05 08:31:13 GMT 50.875351 -0.163310 9,125 75 269 -512
2022-08-05 08:31:10 GMT 50.874615 -0.167847 9,150 75 271 -512
2022-08-05 08:31:08 GMT 50.873867 -0.172272 9,175 75 274 -512
2022-08-05 08:31:06 GMT 50.873520 -0.174297 9,200 75 275 -576
2022-08-05 08:31:04 GMT 50.871868 -0.184097 9,225 75 276 -512
2022-08-05 08:31:02 GMT 50.871868 -0.184097 9,250 75 280 -448
2022-08-05 08:30:59 GMT 50.871002 -0.189291 9,250 75 280 -448
2022-08-05 08:30:57 GMT 50.870316 -0.193448 9,275 75 280 -448
2022-08-05 08:30:55 GMT 50.869583 -0.197828 9,325 75 282 -512
2022-08-05 08:30:53 GMT 50.869072 -0.200882 9,300 75 283 -512
2022-08-05 08:30:51 GMT 50.868191 -0.206070 9,325 75 285 -512
2022-08-05 08:30:48 GMT 50.867157 -0.212229 9,350 75 287 -512
2022-08-05 08:30:46 GMT 50.866791 -0.214456 9,350 75 287 -512
2022-08-05 08:30:43 GMT 50.865395 -0.222931 9,400 75 291 -512
2022-08-05 08:30:40 GMT 50.864559 -0.228119 9,400 75 292 -512
2022-08-05 08:30:36 GMT 50.863396 -0.235138 9,450 75 297 -512
2022-08-05 08:30:33 GMT 50.862137 -0.242691 9,475 75 297 -512
2022-08-05 08:30:30 GMT 50.860973 -0.249863 9,500 74 300 -512
2022-08-05 08:30:27 GMT 50.860229 -0.254059 9,600 74 302 -512
2022-08-05 08:30:25 GMT 50.859112 -0.260696 9,525 74 303 -512
2022-08-05 08:30:23 GMT 50.858555 -0.263901 9,550 74 304 -512
2022-08-05 08:30:20 GMT 50.857250 -0.271454 9,575 74 308 -512
2022-08-05 08:30:17 GMT 50.856178 -0.277786 9,600 74 310 -512
2022-08-05 08:30:15 GMT 50.855438 -0.282230 9,625 74 312 -512
2022-08-05 08:30:12 GMT 50.852783 -0.297744 9,650 74 315 -512
2022-08-05 08:30:09 GMT 50.852783 -0.297744 9,675 74 318 -512
2022-08-05 08:30:06 GMT 50.852177 -0.301208 9,675 74 319 -512
2022-08-05 08:30:03 GMT 50.851044 -0.308137 9,700 75 321 -512
2022-08-05 08:30:00 GMT 50.850174 -0.313110 9,800 75 328 -832
2022-08-05 08:29:57 GMT 50.849121 -0.319569 9,775 75 327 -768
2022-08-05 08:29:55 GMT 50.848343 -0.324171 9,775 75 327 -768
2022-08-05 08:29:53 GMT 50.847286 -0.330276 9,825 75 329 -960
2022-08-05 08:29:51 GMT 50.846558 -0.334860 10,450 75 341 -1216
2022-08-05 08:29:48 GMT 50.845566 -0.340805 9,900 75 332 -1216
2022-08-05 08:29:46 GMT 50.844452 -0.347554 9,950 75 334 -1152
2022-08-05 08:29:43 GMT 50.842865 -0.357056 10,025 75 334 -1152
2022-08-05 08:29:40 GMT 50.842258 -0.360641 10,150 75 336 -1216
2022-08-05 08:29:37 GMT 50.841095 -0.367737 10,125 75 336 -1216
2022-08-05 08:29:35 GMT 50.840286 -0.372644 10,150 75 336 -1216
2022-08-05 08:29:33 GMT 50.839420 -0.377502 10,225 75 337 -1216
2022-08-05 08:29:31 GMT 50.838593 -0.382591 10,250 75 338 -1216
2022-08-05 08:29:29 GMT 50.837769 -0.387342 10,375 75 339 -1216
2022-08-05 08:29:26 GMT 50.836624 -0.394211 10,350 75 340 -1216
2022-08-05 08:29:24 GMT 50.835846 -0.398848 10,400 75 341 -1216
2022-08-05 08:29:22 GMT 50.835022 -0.403673 10,425 75 341 -1216
2022-08-05 08:29:20 GMT 50.834381 -0.407533 10,475 75 341 -1216
2022-08-05 08:29:18 GMT 50.833511 -0.412581 10,500 75 342 -1216
2022-08-05 08:29:16 GMT 50.831600 -0.424042 10,600 74 342 -1216
2022-08-05 08:29:14 GMT 50.831600 -0.424042 10,625 74 342 -1216
2022-08-05 08:29:11 GMT 50.829269 -0.437851 10,750 74 341 -1216
2022-08-05 08:29:08 GMT 50.828018 -0.444946 10,750 74 341 -1216
2022-08-05 08:29:05 GMT 50.828018 -0.444946 10,800 74 341 -1216
2022-08-05 08:29:02 GMT 50.825912 -0.457417 10,850 74 341 -1216
2022-08-05 08:29:00 GMT 50.825912 -0.457417 10,875 74 341 -1216
2022-08-05 08:28:57 GMT 50.824677 -0.464692 10,950 74 341 -1152
2022-08-05 08:28:55 GMT 50.823872 -0.469360 10,975 74 341 -1152
2022-08-05 08:28:53 GMT 50.823032 -0.474396 11,025 74 342 -1152
2022-08-05 08:28:49 GMT 50.820381 -0.489883 11,125 74 343 -1152
2022-08-05 08:28:46 GMT 50.820381 -0.489883 11,150 74 343 -1152
2022-08-05 08:28:44 GMT 50.819496 -0.494995 11,200 74 343 -1152
2022-08-05 08:28:42 GMT 50.818451 -0.501140 11,275 74 343 -1152
2022-08-05 08:28:39 GMT 50.817352 -0.507278 11,350 74 344 -1152
2022-08-05 08:28:37 GMT 50.816025 -0.515170 11,350 74 344 -1152
2022-08-05 08:28:34 GMT 50.815399 -0.518646 11,375 74 344 -1152
2022-08-05 08:28:32 GMT 50.814327 -0.524979 11,450 74 344 -1152
2022-08-05 08:28:30 GMT 50.813675 -0.528641 11,450 74 345 -1152
2022-08-05 08:28:28 GMT 50.812511 -0.535431 11,525 74 345 -1216
2022-08-05 08:28:25 GMT 50.811394 -0.542068 11,600 75 346 -1216
2022-08-05 08:28:22 GMT 50.810028 -0.550281 11,625 75 347 -1216
2022-08-05 08:28:19 GMT 50.809021 -0.556368 11,725 75 349 -1216
2022-08-05 08:28:16 GMT 50.807739 -0.564014 11,750 75 349 -1216
2022-08-05 08:28:14 GMT 50.805954 -0.574852 11,800 75 350 -1216
2022-08-05 08:28:11 GMT 50.805954 -0.574852 11,850 75 350 -1216
2022-08-05 08:28:09 GMT 50.804718 -0.582275 11,900 75 352 -1216
2022-08-05 08:28:06 GMT 50.803665 -0.588608 11,950 75 351 -1216
2022-08-05 08:28:04 GMT 50.802643 -0.594559 12,000 75 352 -1216
2022-08-05 08:28:02 GMT 50.802036 -0.598297 12,000 75 352 -1216
2022-08-05 08:28:00 GMT 50.801193 -0.603357 12,100 75 352 -1152
2022-08-05 08:27:58 GMT 50.799896 -0.610962 12,125 74 354 -1152
2022-08-05 08:27:55 GMT 50.799133 -0.615309 12,150 74 354 -1152
2022-08-05 08:27:53 GMT 50.798035 -0.621948 12,200 75 353 -1152
2022-08-05 08:27:51 GMT 50.797710 -0.623932 12,225 75 354 -1152
2022-08-05 08:27:49 GMT 50.796432 -0.631343 12,325 75 355 -1152
2022-08-05 08:27:46 GMT 50.795429 -0.637436 12,325 75 355 -1152
2022-08-05 08:27:44 GMT 50.794544 -0.642700 12,400 75 355 -1152
2022-08-05 08:27:42 GMT 50.792862 -0.652870 12,450 75 356 -1216
2022-08-05 08:27:40 GMT 50.792862 -0.652870 12,450 75 356 -1216
2022-08-05 08:27:37 GMT 50.791702 -0.660095 12,625 75 358 -1216
2022-08-05 08:27:34 GMT 50.790260 -0.668869 12,575 75 357 -1216
2022-08-05 08:27:32 GMT 50.789383 -0.674026 12,675 75 359 -1280
2022-08-05 08:27:30 GMT 50.788605 -0.679148 12,650 75 359 -1216
2022-08-05 08:27:28 GMT 50.787933 -0.683060 12,675 75 359 -1088
2022-08-05 08:27:25 GMT 50.786720 -0.690689 12,725 75 359 -1280
2022-08-05 08:27:23 GMT 50.785606 -0.697479 12,800 75 359 -1088
2022-08-05 08:27:21 GMT 50.784767 -0.702591 12,825 75 360 -960
2022-08-05 08:27:18 GMT 50.783836 -0.708466 12,950 75 360 -768
2022-08-05 08:27:16 GMT 50.782764 -0.714798 12,900 75 360 -640
2022-08-05 08:27:14 GMT 50.782162 -0.718613 12,900 75 360 -576
2022-08-05 08:27:12 GMT 50.780392 -0.729294 12,950 75 361 -384
2022-08-05 08:27:08 GMT 50.779133 -0.736694 12,975 72 360 -192
2022-08-05 08:27:05 GMT 50.778305 -0.741354 12,975 74 360 -192
2022-08-05 08:27:04 GMT 50.777802 -0.744175 12,975 72 360 -192
2022-08-05 08:27:02 GMT 50.777161 -0.747664 12,975 72 360 -192
2022-08-05 08:27:00 GMT 50.773407 -0.763921 13,000 68 359 -64
2022-08-05 08:26:57 GMT 50.773407 -0.763921 13,000 62 355 0
2022-08-05 08:26:54 GMT 50.770569 -0.772552 13,000 57 353 64
2022-08-05 08:26:52 GMT 50.770569 -0.772552 13,000 57 353 64
2022-08-05 08:26:50 GMT 50.768921 -0.776837 13,000 54 351 64
2022-08-05 08:26:48 GMT 50.766586 -0.782405 13,000 53 351 64
2022-08-05 08:26:45 GMT 50.764145 -0.787354 13,000 49 348 -64
2022-08-05 08:26:42 GMT 50.760818 -0.793391 13,025 45 345 -256
2022-08-05 08:26:40 GMT 50.758438 -0.797177 13,075 43 345 -320
2022-08-05 08:26:37 GMT 50.753948 -0.803299 13,125 34 340 -896
2022-08-05 08:26:34 GMT 50.750690 -0.807190 13,125 33 339 -960
2022-08-05 08:26:32 GMT 50.745209 -0.812766 13,125 30 338 -1088
2022-08-05 08:26:30 GMT 50.745209 -0.812766 13,150 29 337 -1152
2022-08-05 08:26:28 GMT 50.741520 -0.816116 13,250 29 338 -1280
2022-08-05 08:26:25 GMT 50.736168 -0.820847 13,300 29 338 -1664
2022-08-05 08:26:21 GMT 50.734222 -0.822564 13,325 29 338 -1664
2022-08-05 08:26:19 GMT 50.730164 -0.826111 13,425 29 338 -1728
2022-08-05 08:26:17 GMT 50.727974 -0.828018 13,450 29 340 -1792
2022-08-05 08:26:14 GMT 50.724529 -0.831070 13,550 29 340 -1856
2022-08-05 08:26:12 GMT 50.720573 -0.834579 13,625 29 340 -1920
2022-08-05 08:26:10 GMT 50.719173 -0.835724 13,675 29 341 -1920
2022-08-05 08:26:08 GMT 50.714939 -0.839539 13,775 29 341 -1984
2022-08-05 08:26:06 GMT 50.713486 -0.840751 13,800 29 341 -1984
2022-08-05 08:26:05 GMT 50.711494 -0.842514 13,850 29 341 -1984
2022-08-05 08:26:02 GMT 50.708050 -0.845566 13,925 29 341 -1984
2022-08-05 08:26:01 GMT 50.706619 -0.846838 13,975 29 341 -1984
2022-08-05 08:26:00 GMT 50.704044 -0.849075 13,975 29 341 -1920
2022-08-05 08:25:59 GMT 50.702698 -0.850296 14,050 29 341 -1920
2022-08-05 08:25:58 GMT 50.701218 -0.851589 14,100 29 341 -1920
2022-08-05 08:25:57 GMT 50.698551 -0.853958 14,150 29 342 -1856
2022-08-05 08:25:54 GMT 50.695862 -0.856340 14,200 29 342 -1728
2022-08-05 08:25:53 GMT 50.693012 -0.858765 14,275 29 342 -1664
2022-08-05 08:25:51 GMT 50.691605 -0.860051 14,300 29 342 -1664
2022-08-05 08:25:49 GMT 50.686401 -0.864639 14,375 29 346 -1408
2022-08-05 08:25:47 GMT 50.686401 -0.864639 14,400 29 346 -1408
2022-08-05 08:25:45 GMT 50.684029 -0.866776 14,425 29 346 -1408
2022-08-05 08:25:43 GMT 50.680958 -0.869446 14,500 29 346 -1408
2022-08-05 08:25:40 GMT 50.676765 -0.873108 14,625 29 347 -1472
2022-08-05 08:25:37 GMT 50.671097 -0.878111 14,675 29 349 -1408
2022-08-05 08:25:34 GMT 50.668304 -0.880641 14,775 29 349 -1408
2022-08-05 08:25:31 GMT 50.664047 -0.884327 14,775 29 350 -1408
2022-08-05 08:25:29 GMT 50.661942 -0.886206 14,850 29 351 -1408
2022-08-05 08:25:27 GMT 50.657272 -0.890326 14,875 29 351 -1408
2022-08-05 08:25:24 GMT 50.653488 -0.893678 15,100 29 354 -1472
2022-08-05 08:25:21 GMT 50.649994 -0.896759 15,075 29 355 -1600
2022-08-05 08:25:19 GMT 50.644135 -0.901891 15,125 29 356 -1728
2022-08-05 08:25:17 GMT 50.641113 -0.904565 15,175 29 356 -1792
2022-08-05 08:25:15 GMT 50.641113 -0.904565 15,200 29 356 -1792
2022-08-05 08:25:13 GMT 50.638172 -0.907114 15,250 29 357 -1856
2022-08-05 08:25:11 GMT 50.635288 -0.909713 15,325 29 357 -1856
2022-08-05 08:25:09 GMT 50.633286 -0.911494 15,425 29 358 -1856
2022-08-05 08:25:06 GMT 50.629028 -0.915190 15,525 29 358 -1920
2022-08-05 08:25:04 GMT 50.625275 -0.918443 15,525 29 358 -1920
2022-08-05 08:25:02 GMT 50.622208 -0.921117 15,600 29 358 -2048
2022-08-05 08:25:00 GMT 50.619324 -0.923647 15,700 28 358 -2112
2022-08-05 08:24:56 GMT 50.608749 -0.932826 15,875 28 357 -2240
2022-08-05 08:24:53 GMT 50.608749 -0.932826 16,000 29 359 -1984
2022-08-05 08:24:50 GMT 50.604996 -0.936151 16,025 29 358 -2176
2022-08-05 08:24:48 GMT 50.602188 -0.938589 16,100 29 358 -2176
2022-08-05 08:24:46 GMT 50.599503 -0.940921 16,175 29 358 -2176
2022-08-05 08:24:44 GMT 50.596161 -0.943812 16,250 29 358 -2112
2022-08-05 08:24:41 GMT 50.592461 -0.947051 16,350 29 358 -2048
2022-08-05 08:24:39 GMT 50.589523 -0.949667 16,400 29 358 -2048
2022-08-05 08:24:36 GMT 50.585106 -0.953509 16,525 29 359 -1984
2022-08-05 08:24:33 GMT 50.581238 -0.956822 16,600 29 359 -1984
2022-08-05 08:24:31 GMT 50.576679 -0.960858 16,725 29 360 -1920
2022-08-05 08:24:28 GMT 50.573547 -0.963544 16,775 29 360 -1920
2022-08-05 08:24:26 GMT 50.569748 -0.966869 16,850 28 361 -1984
2022-08-05 08:24:23 GMT 50.566204 -0.969989 16,925 28 361 -1984
2022-08-05 08:24:21 GMT 50.562992 -0.972735 17,025 28 361 -1984
2022-08-05 08:24:19 GMT 50.559677 -0.975615 17,100 28 361 -1984
2022-08-05 08:24:17 GMT 50.556847 -0.978080 17,150 28 362 -1984
2022-08-05 08:24:13 GMT 50.552471 -0.981866 17,250 29 362 -1984
2022-08-05 08:24:10 GMT 50.547546 -0.986168 17,350 28 363 -1920
2022-08-05 08:24:08 GMT 50.540741 -0.992110 17,475 28 363 -1792
2022-08-05 08:24:05 GMT 50.537247 -0.995130 18,525 29 385 -896
2022-08-05 08:24:03 GMT 50.537247 -0.995130 17,600 29 364 -1728
2022-08-05 08:24:00 GMT 50.532669 -0.999105 17,650 29 366 -1664
2022-08-05 08:23:58 GMT 50.529007 -1.002358 17,725 29 369 -1600
2022-08-05 08:23:55 GMT 50.525379 -1.005472 17,800 29 368 -1600
2022-08-05 08:23:53 GMT 50.517975 -1.011899 18,200 29 369 -1600
2022-08-05 08:23:50 GMT 50.517975 -1.011899 18,050 29 369 -1600
2022-08-05 08:23:47 GMT 50.510574 -1.018388 18,025 29 372 -1600
2022-08-05 08:23:45 GMT 50.510574 -1.018388 18,050 29 372 -1600
2022-08-05 08:23:43 GMT 50.502892 -1.025069 18,275 29 373 -1536
2022-08-05 08:23:40 GMT 50.502892 -1.025069 18,275 29 376 -1408
2022-08-05 08:23:38 GMT 50.498981 -1.028558 18,250 29 375 -1472
2022-08-05 08:23:35 GMT 50.495026 -1.031973 18,325 29 378 -1280
2022-08-05 08:23:33 GMT 50.492325 -1.034422 18,375 29 378 -1280
2022-08-05 08:23:30 GMT 50.487488 -1.038569 18,425 29 380 -1088
2022-08-05 08:23:27 GMT 50.479660 -1.045436 18,500 29 384 -896
2022-08-05 08:23:25 GMT 50.479660 -1.045436 18,600 29 407 -2112
2022-08-05 08:23:22 GMT 50.475845 -1.048749 18,550 29 385 -896
2022-08-05 08:23:20 GMT 50.471470 -1.052609 18,625 29 389 -960
2022-08-05 08:23:17 GMT 50.463326 -1.059735 18,650 29 391 -1024
2022-08-05 08:23:15 GMT 50.463326 -1.059735 18,675 29 391 -1024
2022-08-05 08:23:13 GMT 50.461029 -1.061771 18,725 29 393 -1088
2022-08-05 08:23:11 GMT 50.457600 -1.064709 18,725 29 395 -1216
2022-08-05 08:23:09 GMT 50.454666 -1.067336 18,750 29 395 -1216
2022-08-05 08:23:07 GMT 50.452011 -1.069608 18,950 29 401 -1472
2022-08-05 08:23:05 GMT 50.448715 -1.072540 18,950 29 401 -1472
2022-08-05 08:23:03 GMT 50.444611 -1.076141 18,900 29 401 -1408
2022-08-05 08:23:00 GMT 50.439957 -1.080298 18,975 29 402 -1600
2022-08-05 08:22:57 GMT 50.435253 -1.084455 19,075 29 404 -1792
2022-08-05 08:22:54 GMT 50.430771 -1.088369 19,150 29 405 -2176
2022-08-05 08:22:52 GMT 50.425941 -1.092620 19,275 29 407 -2240
2022-08-05 08:22:49 GMT 50.416634 -1.100934 19,400 29 407 -2240
2022-08-05 08:22:46 GMT 50.416634 -1.100934 19,475 29 407 -2112
2022-08-05 08:22:44 GMT 50.413002 -1.104126 19,550 29 408 -2048
2022-08-05 08:22:42 GMT 50.410534 -1.106279 19,600 29 409 -2112
2022-08-05 08:22:39 GMT 50.403458 -1.112514 19,725 29 411 -2240
2022-08-05 08:22:37 GMT 50.403458 -1.112514 19,825 29 412 -2496
2022-08-05 08:22:35 GMT 50.399639 -1.115929 19,900 29 412 -2496
2022-08-05 08:22:32 GMT 50.395309 -1.119715 19,925 29 412 -2496
2022-08-05 08:22:30 GMT 50.390331 -1.124094 20,100 29 412 -3008
2022-08-05 08:22:28 GMT 50.387741 -1.126388 20,175 29 412 -3200
2022-08-05 08:22:26 GMT 50.385021 -1.128771 20,275 29 412 -3520
2022-08-05 08:22:24 GMT 50.381672 -1.131666 20,450 29 412 -3776
2022-08-05 08:22:22 GMT 50.376297 -1.136434 20,600 29 411 -3968
2022-08-05 08:22:19 GMT 50.371895 -1.140203 21,150 29 411 -3712
2022-08-05 08:22:16 GMT 50.367691 -1.143951 20,950 29 410 -3840
2022-08-05 08:22:14 GMT 50.364349 -1.146843 21,100 29 411 -3712
2022-08-05 08:22:12 GMT 50.356487 -1.153713 21,225 29 411 -3520
2022-08-05 08:22:09 GMT 50.351395 -1.158190 21,450 29 416 -3456
2022-08-05 08:22:06 GMT 50.351395 -1.158190 21,525 29 415 -3392
2022-08-05 08:22:04 GMT 50.347267 -1.161804 21,675 29 416 -3584
2022-08-05 08:22:02 GMT 50.344025 -1.164623 21,850 29 417 -3904
2022-08-05 08:21:59 GMT 50.339729 -1.168411 21,950 29 418 -4096
2022-08-05 08:21:56 GMT 50.333908 -1.173513 22,175 29 418 -4096
2022-08-05 08:21:53 GMT 50.328789 -1.177987 22,400 29 419 -4032
2022-08-05 08:21:51 GMT 50.326229 -1.180214 22,500 29 419 -4032
2022-08-05 08:21:49 GMT 50.321991 -1.183925 22,675 29 421 -4032
2022-08-05 08:21:47 GMT 50.318710 -1.186813 22,825 29 422 -3776
2022-08-05 08:21:45 GMT 50.314270 -1.190716 23,025 29 424 -3200
2022-08-05 08:21:42 GMT 50.310959 -1.193650 23,100 29 426 -2944
2022-08-05 08:21:40 GMT 50.303513 -1.200256 23,275 29 428 -2816
2022-08-05 08:21:38 GMT 50.298157 -1.204954 23,400 29 431 -2944
2022-08-05 08:21:35 GMT 50.298157 -1.204954 23,675 29 435 -3136
2022-08-05 08:21:32 GMT 50.293625 -1.208930 23,875 29 433 -2944
2022-08-05 08:21:29 GMT 50.287590 -1.214212 23,725 29 436 -3520
2022-08-05 08:21:27 GMT 50.284515 -1.216880 23,825 29 437 -3840
2022-08-05 08:21:25 GMT 50.280624 -1.220277 23,950 29 438 -3904
2022-08-05 08:21:23 GMT 50.273209 -1.226710 24,150 29 440 -3712
2022-08-05 08:21:21 GMT 50.273209 -1.226710 24,225 29 439 -3776
2022-08-05 08:21:19 GMT 50.265015 -1.233794 24,725 28 445 -3200
2022-08-05 08:21:16 GMT 50.261627 -1.236757 24,675 28 443 -3392
2022-08-05 08:21:12 GMT 50.254864 -1.242569 24,775 28 445 -3200
2022-08-05 08:21:10 GMT 50.254864 -1.242569 24,825 28 446 -3200
2022-08-05 08:21:08 GMT 50.246292 -1.249984 25,250 28 450 -3264
2022-08-05 08:21:05 GMT 50.246292 -1.249984 25,150 28 453 -2880
2022-08-05 08:21:03 GMT 50.241642 -1.254000 25,225 28 452 -3008
2022-08-05 08:20:58 GMT 50.233170 -1.261201 25,450 28 456 -2688
2022-08-05 08:20:56 GMT 50.228485 -1.265307 25,550 28 458 -2688
2022-08-05 08:20:54 GMT 50.223267 -1.269716 25,750 28 460 -3584
2022-08-05 08:20:51 GMT 50.219376 -1.273113 26,025 29 461 -4160
2022-08-05 08:20:48 GMT 50.213852 -1.277903 26,100 29 462 -4224
2022-08-05 08:20:45 GMT 50.207977 -1.282943 26,575 29 463 -3712
2022-08-05 08:20:43 GMT 50.204269 -1.286195 26,400 29 463 -3904
2022-08-05 08:20:41 GMT 50.200882 -1.289087 26,475 29 463 -3840
2022-08-05 08:20:38 GMT 50.195297 -1.294002 26,625 29 464 -3584
2022-08-05 08:20:36 GMT 50.190582 -1.298049 26,850 29 466 -3648
2022-08-05 08:20:34 GMT 50.181931 -1.305566 27,175 28 471 -4224
2022-08-05 08:20:31 GMT 50.181931 -1.305566 27,100 29 466 -3904
2022-08-05 08:20:28 GMT 50.176563 -1.310268 27,275 29 467 -4032
2022-08-05 08:20:26 GMT 50.172234 -1.313980 27,500 29 467 -3968
2022-08-05 08:20:24 GMT 50.165497 -1.319733 27,675 29 470 -3712
2022-08-05 08:20:22 GMT 50.165497 -1.319733 27,925 29 470 -3712
2022-08-05 08:20:19 GMT 50.157532 -1.326671 29,150 29 470 -3904
2022-08-05 08:20:16 GMT 50.152771 -1.330719 28,125 28 470 -4096
2022-08-05 08:20:14 GMT 50.149750 -1.333393 28,250 28 470 -4160
2022-08-05 08:20:11 GMT 50.138577 -1.342930 28,625 28 471 -4160
2022-08-05 08:20:08 GMT 50.138577 -1.342930 28,650 28 471 -4288
2022-08-05 08:20:06 GMT 50.133827 -1.347013 28,825 28 471 -4352
2022-08-05 08:20:03 GMT 50.129745 -1.350523 29,075 28 471 -4416
2022-08-05 08:20:01 GMT 50.125633 -1.353991 29,225 28 470 -4480
2022-08-05 08:19:59 GMT 50.119907 -1.358890 29,375 28 470 -4480
2022-08-05 08:19:57 GMT 50.117069 -1.361340 29,500 28 470 -4480
2022-08-05 08:19:55 GMT 50.114319 -1.363678 29,725 28 470 -4416
2022-08-05 08:19:53 GMT 50.108688 -1.368466 29,875 28 470 -4288
2022-08-05 08:19:50 GMT 50.103943 -1.372549 29,975 28 470 -4160
2022-08-05 08:19:47 GMT 50.097282 -1.378265 30,300 28 470 -4096
2022-08-05 08:19:44 GMT 50.091476 -1.383265 31,075 28 474 -3584
2022-08-05 08:19:41 GMT 50.087555 -1.386653 30,550 28 471 -3904
2022-08-05 08:19:38 GMT 50.081955 -1.391433 30,800 29 472 -3776
2022-08-05 08:19:36 GMT 50.077927 -1.394902 30,875 29 472 -3776
2022-08-05 08:19:34 GMT 50.073349 -1.398878 31,025 28 474 -3584
2022-08-05 08:19:30 GMT 50.066746 -1.404543 31,200 28 474 -3520
2022-08-05 08:19:27 GMT 50.060120 -1.410225 31,425 28 476 -3328
2022-08-05 08:19:24 GMT 50.053207 -1.416224 31,725 29 478 -3136
2022-08-05 08:19:21 GMT 50.048264 -1.420428 31,725 29 478 -3136
2022-08-05 08:19:19 GMT 50.038582 -1.428817 31,900 29 480 -2880
2022-08-05 08:19:16 GMT 50.038582 -1.428817 31,975 28 481 -2816
2022-08-05 08:19:14 GMT 50.034622 -1.432198 32,350 29 482 -2752
2022-08-05 08:19:11 GMT 50.028667 -1.437353 32,200 28 483 -2752
2022-08-05 08:19:08 GMT 50.023682 -1.441594 32,350 28 484 -2880
2022-08-05 08:19:06 GMT 50.018890 -1.445741 32,450 28 484 -2880
2022-08-05 08:19:03 GMT 50.011551 -1.452002 32,600 29 487 -1344
2022-08-05 08:19:00 GMT 50.008209 -1.454893 32,650 28 484 -2432
2022-08-05 08:18:57 GMT 50.001160 -1.460965 32,800 29 486 -1600
2022-08-05 08:18:54 GMT 49.996078 -1.465302 32,975 29 493 -64
2022-08-05 08:18:51 GMT 49.989166 -1.471301 32,925 29 488 -832
2022-08-05 08:18:49 GMT 49.986118 -1.473875 33,000 29 491 -448
2022-08-05 08:18:46 GMT 49.975525 -1.483082 32,975 29 493 -192
2022-08-05 08:18:44 GMT 49.975525 -1.483082 32,975 29 493 -192
2022-08-05 08:18:41 GMT 49.969639 -1.488128 32,975 29 493 -128
2022-08-05 08:18:39 GMT 49.967560 -1.489948 33,000 29 492 -64
2022-08-05 08:18:37 GMT 49.963165 -1.493707 33,000 29 491 0
2022-08-05 08:18:34 GMT 49.949707 -1.505272 33,000 29 489 0
2022-08-05 08:18:31 GMT 49.949707 -1.505272 33,000 29 488 0
2022-08-05 08:18:27 GMT 49.941753 -1.512179 33,000 29 483 0
2022-08-05 08:18:24 GMT 49.934830 -1.518209 32,975 29 483 0
2022-08-05 08:18:21 GMT 49.926716 -1.525170 33,000 29 481 0
2022-08-05 08:18:19 GMT 49.926716 -1.525170 33,000 29 481 0
2022-08-05 08:18:17 GMT 49.922928 -1.528401 33,000 29 478 0
2022-08-05 08:18:15 GMT 49.918900 -1.531942 33,000 28 478 0
2022-08-05 08:18:13 GMT 49.915127 -1.535117 33,000 28 475 64
2022-08-05 08:18:11 GMT 49.912125 -1.537725 33,000 28 473 64
2022-08-05 08:18:09 GMT 49.908096 -1.541194 33,000 28 475 64
2022-08-05 08:18:07 GMT 49.904140 -1.544544 33,000 28 472 0
2022-08-05 08:18:04 GMT 49.898895 -1.549000 33,000 28 471 -64
2022-08-05 08:18:02 GMT 49.893852 -1.553303 33,025 26 458 -64
2022-08-05 08:17:59 GMT 49.889008 -1.557384 33,025 28 466 0
2022-08-05 08:17:57 GMT 49.884167 -1.561395 33,025 28 465 0
2022-08-05 08:17:53 GMT 49.877060 -1.567070 33,025 26 458 -64
2022-08-05 08:17:51 GMT 49.874111 -1.569338 33,025 25 456 -64
2022-08-05 08:17:49 GMT 49.868454 -1.573430 33,025 23 450 64
2022-08-05 08:17:47 GMT 49.860939 -1.578542 33,025 22 449 128
2022-08-05 08:17:45 GMT 49.860939 -1.578542 33,025 22 449 128
2022-08-05 08:17:43 GMT 49.857864 -1.580547 33,025 21 445 0
2022-08-05 08:17:41 GMT 49.854237 -1.582848 33,000 20 444 0
2022-08-05 08:17:39 GMT 49.850510 -1.585067 33,000 20 445 0
2022-08-05 08:17:37 GMT 49.847626 -1.586729 33,000 20 443 0
2022-08-05 08:17:34 GMT 49.840782 -1.590568 33,000 19 443 0
2022-08-05 08:17:32 GMT 49.835861 -1.593307 33,000 19 443 0
2022-08-05 08:17:29 GMT 49.831146 -1.595987 33,000 19 443 0
2022-08-05 08:17:27 GMT 49.828171 -1.597643 33,000 19 444 -64
2022-08-05 08:17:24 GMT 49.819786 -1.602297 33,000 19 444 -64
2022-08-05 08:17:21 GMT 49.816040 -1.604438 33,000 19 444 -64
2022-08-05 08:17:19 GMT 49.807076 -1.609423 33,000 19 444 0
2022-08-05 08:17:17 GMT 49.807076 -1.609423 33,000 19 444 0
2022-08-05 08:17:14 GMT 49.801941 -1.612244 33,000 19 444 0
2022-08-05 08:17:12 GMT 49.797626 -1.614693 33,000 19 443 0
2022-08-05 08:17:09 GMT 49.793392 -1.617069 33,000 19 443 0
2022-08-05 08:17:07 GMT 49.787476 -1.620339 33,000 20 442 64
2022-08-05 08:17:04 GMT 49.782669 -1.623085 33,000 20 443 0
2022-08-05 08:17:01 GMT 49.777798 -1.625828 33,000 20 443 0
2022-08-05 08:16:58 GMT 49.772022 -1.629020 33,000 20 442 64
2022-08-05 08:16:56 GMT 49.767288 -1.631687 33,000 20 442 64
2022-08-05 08:16:54 GMT 49.762993 -1.634142 33,000 20 442 64
2022-08-05 08:16:51 GMT 49.757858 -1.637035 33,000 19 441 0
2022-08-05 08:16:48 GMT 49.752007 -1.640303 33,000 18 440 0
2022-08-05 08:16:46 GMT 49.748932 -1.642011 33,000 18 440 0
2022-08-05 08:16:43 GMT 49.742111 -1.645636 33,000 18 441 0
2022-08-05 08:16:41 GMT 49.738037 -1.647660 33,000 17 438 0
2022-08-05 08:16:38 GMT 49.732128 -1.650622 33,000 16 438 0
2022-08-05 08:16:36 GMT 49.727707 -1.652774 33,000 16 439 0
2022-08-05 08:16:33 GMT 49.724030 -1.654482 33,000 16 438 0
2022-08-05 08:16:31 GMT 49.718952 -1.656709 33,000 15 437 0
2022-08-05 08:16:28 GMT 49.713821 -1.659008 33,000 15 436 0
2022-08-05 08:16:26 GMT 49.709930 -1.660598 33,000 14 435 0
2022-08-05 08:16:23 GMT 49.704571 -1.662721 33,000 13 434 0
2022-08-05 08:16:21 GMT 49.698750 -1.665023 33,000 13 433 0
2022-08-05 08:16:19 GMT 49.695740 -1.666163 33,000 12 432 0
2022-08-05 08:16:17 GMT 49.691620 -1.667609 33,000 12 432 0
2022-08-05 08:16:14 GMT 49.684982 -1.669922 33,000 10 429 0
2022-08-05 08:16:11 GMT 49.681198 -1.671184 33,000 11 431 0
2022-08-05 08:16:09 GMT 49.677612 -1.672307 33,000 10 429 0
2022-08-05 08:16:06 GMT 49.671658 -1.674079 33,000 10 428 0
2022-08-05 08:16:04 GMT 49.665791 -1.675786 33,000 10 428 0
2022-08-05 08:16:01 GMT 49.661636 -1.676933 33,000 8 426 0
2022-08-05 08:15:59 GMT 49.656738 -1.678162 33,000 8 427 0
2022-08-05 08:15:56 GMT 49.652481 -1.679246 33,000 8 426 0
2022-08-05 08:15:53 GMT 49.645248 -1.680908 33,000 7 426 0
2022-08-05 08:15:50 GMT 49.640514 -1.681873 33,000 7 424 0
2022-08-05 08:15:48 GMT 49.635254 -1.682912 33,000 6 424 0
2022-08-05 08:15:45 GMT 49.629017 -1.684026 33,000 5 423 64
2022-08-05 08:15:43 GMT 49.626022 -1.684522 33,000 5 423 0
2022-08-05 08:15:40 GMT 49.619385 -1.685534 33,000 4 421 0
2022-08-05 08:15:38 GMT 49.616684 -1.685968 33,000 3 419 0
2022-08-05 08:15:36 GMT 49.612610 -1.686474 33,000 4 421 0
2022-08-05 08:15:34 GMT 49.609497 -1.686835 33,000 3 421 0
2022-08-05 08:15:31 GMT 49.604759 -1.687366 33,000 3 420 0
2022-08-05 08:15:29 GMT 49.598152 -1.687960 33,000 2 419 0
2022-08-05 08:15:26 GMT 49.590237 -1.688554 33,000 2 419 0
2022-08-05 08:15:23 GMT 49.586288 -1.688787 33,000 1 418 0
2022-08-05 08:15:21 GMT 49.582581 -1.688931 33,000 0 415 64
2022-08-05 08:15:19 GMT 49.579624 -1.688999 33,000 0 416 0
2022-08-05 08:15:16 GMT 49.573059 -1.689148 33,000 0 416 0
2022-08-05 08:15:14 GMT 49.570358 -1.689148 33,000 0 414 64
2022-08-05 08:15:12 GMT 49.565613 -1.689148 33,000 0 415 64
2022-08-05 08:15:10 GMT 49.562622 -1.689076 33,000 0 414 0
2022-08-05 08:15:08 GMT 49.557556 -1.688925 33,000 359 413 0
2022-08-05 08:15:06 GMT 49.554718 -1.688851 33,000 358 411 0
2022-08-05 08:15:02 GMT 49.547455 -1.688480 33,000 358 411 0
2022-08-05 08:15:00 GMT 49.542435 -1.688136 33,000 357 409 -64
2022-08-05 08:14:57 GMT 49.536575 -1.687630 33,000 357 409 -64
2022-08-05 08:14:55 GMT 49.532513 -1.687218 33,000 356 409 0
2022-08-05 08:14:52 GMT 49.527924 -1.686690 33,000 355 407 -64
2022-08-05 08:14:49 GMT 49.521515 -1.685895 33,000 355 407 -64
2022-08-05 08:14:46 GMT 49.516171 -1.685139 33,000 354 406 -64
2022-08-05 08:14:44 GMT 49.513275 -1.684667 33,000 350 400 64
2022-08-05 08:14:42 GMT 49.508423 -1.683872 33,000 354 404 -64
2022-08-05 08:14:39 GMT 49.502884 -1.682787 33,000 353 404 0
2022-08-05 08:14:37 GMT 49.499908 -1.682209 33,000 352 403 0
2022-08-05 08:14:34 GMT 49.494186 -1.681053 33,000 352 403 0
2022-08-05 08:14:31 GMT 49.488567 -1.679795 33,000 352 402 0
2022-08-05 08:14:28 GMT 49.482330 -1.678236 33,000 351 402 0
2022-08-05 08:14:26 GMT 49.478760 -1.677367 33,000 350 401 64
2022-08-05 08:14:21 GMT 49.468502 -1.674450 33,000 350 399 64
2022-08-05 08:14:18 GMT 49.465755 -1.673633 33,000 349 400 0
2022-08-05 08:14:15 GMT 49.459900 -1.671801 33,000 348 398 0
2022-08-05 08:14:13 GMT 49.455280 -1.670293 33,000 348 399 -64
2022-08-05 08:14:09 GMT 49.447926 -1.667695 33,000 347 398 0
2022-08-05 08:14:07 GMT 49.445229 -1.666730 33,000 346 398 0
2022-08-05 08:14:04 GMT 49.440170 -1.664862 33,000 347 397 0
2022-08-05 08:14:01 GMT 49.429642 -1.660815 33,000 346 398 0
2022-08-05 08:13:58 GMT 49.429642 -1.660815 33,000 346 398 0
2022-08-05 08:13:54 GMT 49.423416 -1.658372 33,000 346 397 64
2022-08-05 08:13:52 GMT 49.417694 -1.656189 33,000 346 398 64
2022-08-05 08:13:50 GMT 49.414124 -1.654851 33,000 346 397 64
2022-08-05 08:13:48 GMT 49.412083 -1.654021 32,975 346 397 64
2022-08-05 08:13:46 GMT 49.408356 -1.652575 32,975 346 397 0
2022-08-05 08:13:44 GMT 49.405518 -1.651491 33,000 346 397 0
2022-08-05 08:13:42 GMT 49.400253 -1.649428 33,000 346 397 0
2022-08-05 08:13:38 GMT 49.387115 -1.644358 33,000 346 397 0
2022-08-05 08:13:34 GMT 49.380100 -1.641589 33,050 346 394 -320
2022-08-05 08:13:30 GMT 49.380100 -1.641589 33,000 346 396 -64
2022-08-05 08:13:27 GMT 49.375679 -1.639854 33,000 346 396 -64
2022-08-05 08:13:25 GMT 49.371140 -1.638160 33,025 346 394 -128
2022-08-05 08:13:23 GMT 49.366974 -1.636529 33,025 346 394 -128
2022-08-05 08:13:21 GMT 49.363358 -1.635132 33,025 346 395 -64
2022-08-05 08:13:19 GMT 49.358871 -1.633421 33,025 346 394 -192
2022-08-05 08:13:16 GMT 49.355209 -1.632033 33,050 346 394 -512
2022-08-05 08:13:14 GMT 49.344719 -1.628000 33,075 347 397 -960
2022-08-05 08:13:10 GMT 49.344719 -1.628000 33,075 346 394 -896
2022-08-05 08:13:08 GMT 49.338638 -1.625624 33,275 347 395 -960
2022-08-05 08:13:05 GMT 49.334381 -1.624005 33,150 346 394 -960
2022-08-05 08:13:03 GMT 49.331825 -1.623013 33,175 346 394 -960
2022-08-05 08:13:01 GMT 49.328018 -1.621610 33,250 346 395 -960
2022-08-05 08:12:58 GMT 49.322525 -1.619497 33,275 347 395 -960
2022-08-05 08:12:55 GMT 49.317440 -1.617592 33,300 347 395 -960
2022-08-05 08:12:53 GMT 49.315063 -1.616680 33,350 347 396 -960
2022-08-05 08:12:51 GMT 49.307339 -1.613762 33,400 347 396 -960
2022-08-05 08:12:49 GMT 49.307339 -1.613762 33,425 347 397 -960
2022-08-05 08:12:46 GMT 49.301010 -1.611328 33,450 347 397 -960
2022-08-05 08:12:43 GMT 49.296494 -1.609642 33,475 347 397 -960
2022-08-05 08:12:41 GMT 49.292084 -1.607948 33,525 347 399 -960
2022-08-05 08:12:38 GMT 49.287781 -1.606328 33,550 347 399 -960
2022-08-05 08:12:36 GMT 49.278755 -1.602920 33,650 347 401 -1024
2022-08-05 08:12:33 GMT 49.278755 -1.602920 33,675 347 401 -1024
2022-08-05 08:12:30 GMT 49.272285 -1.600535 33,700 347 402 -1024
2022-08-05 08:12:26 GMT 49.265854 -1.598088 33,725 347 403 -1024
2022-08-05 08:12:23 GMT 49.260223 -1.595975 33,875 347 404 -1024
2022-08-05 08:12:20 GMT 49.255806 -1.594319 33,825 347 406 -1088
2022-08-05 08:12:18 GMT 49.245052 -1.590271 33,925 346 408 -192
2022-08-05 08:12:15 GMT 49.245052 -1.590271 33,925 347 406 -704
2022-08-05 08:12:12 GMT 49.240219 -1.588440 33,950 347 407 -512
2022-08-05 08:12:10 GMT 49.232250 -1.585356 34,000 346 408 -64
2022-08-05 08:12:08 GMT 49.232250 -1.585356 34,000 346 408 -64
2022-08-05 08:12:04 GMT 49.222321 -1.581609 34,000 346 408 0
2022-08-05 08:12:02 GMT 49.222321 -1.581609 34,000 346 408 0
2022-08-05 08:12:00 GMT 49.218475 -1.580130 34,000 346 408 0
2022-08-05 08:11:57 GMT 49.211254 -1.577405 34,000 346 408 0
2022-08-05 08:11:53 GMT 49.199757 -1.572996 34,000 347 407 0
2022-08-05 08:11:50 GMT 49.199757 -1.572996 34,000 347 407 0
2022-08-05 08:11:48 GMT 49.196182 -1.571679 34,000 347 407 0
2022-08-05 08:11:45 GMT 49.191330 -1.569816 34,000 347 407 64
2022-08-05 08:11:42 GMT 49.184769 -1.567359 34,000 347 407 0
2022-08-05 08:11:40 GMT 49.181763 -1.566186 34,000 347 407 0
2022-08-05 08:11:38 GMT 49.170521 -1.562010 34,000 347 407 64
2022-08-05 08:11:34 GMT 49.170521 -1.562010 34,000 347 407 64
2022-08-05 08:11:32 GMT 49.167480 -1.560833 34,000 347 407 64
2022-08-05 08:11:30 GMT 49.162655 -1.559047 34,000 347 407 64
2022-08-05 08:11:27 GMT 49.152512 -1.555199 34,000 347 407 64
2022-08-05 08:11:24 GMT 49.152512 -1.555199 34,000 347 407 0
2022-08-05 08:11:22 GMT 49.148849 -1.553791 34,000 347 407 0
2022-08-05 08:11:20 GMT 49.144272 -1.552101 34,000 347 407 0
2022-08-05 08:11:18 GMT 49.142357 -1.551385 34,000 347 407 0
2022-08-05 08:11:15 GMT 49.129696 -1.546615 34,000 347 407 0
2022-08-05 08:11:12 GMT 49.129696 -1.546615 34,000 347 407 0
2022-08-05 08:11:08 GMT 49.124062 -1.544519 34,000 347 407 0
2022-08-05 08:11:06 GMT 49.118637 -1.542452 34,000 347 407 0
2022-08-05 08:11:04 GMT 49.115891 -1.541466 34,000 347 407 0
2022-08-05 08:11:02 GMT 49.112228 -1.540058 34,000 347 407 64
2022-08-05 08:10:59 GMT 49.106838 -1.538014 34,000 347 407 64
2022-08-05 08:10:56 GMT 49.093964 -1.533156 34,000 347 407 64
2022-08-05 08:10:53 GMT 49.093964 -1.533156 34,000 347 407 64
2022-08-05 08:10:50 GMT 49.089287 -1.531436 34,000 347 407 64
2022-08-05 08:10:47 GMT 49.084122 -1.529424 33,975 347 407 64
2022-08-05 08:10:45 GMT 49.080093 -1.527945 33,975 347 407 0
2022-08-05 08:10:43 GMT 49.077530 -1.526959 33,975 347 407 -64
2022-08-05 08:10:40 GMT 49.071854 -1.524776 33,975 346 408 -64
2022-08-05 08:10:38 GMT 49.068924 -1.523719 33,975 347 407 -64
2022-08-05 08:10:36 GMT 49.064476 -1.521968 33,975 346 408 -64
2022-08-05 08:10:33 GMT 49.058899 -1.519916 34,000 346 407 -64
2022-08-05 08:10:30 GMT 49.053677 -1.517920 34,000 346 407 -64
2022-08-05 08:10:27 GMT 49.049194 -1.516184 34,000 346 407 -64
2022-08-05 08:10:24 GMT 49.040817 -1.513015 34,000 346 407 -64
2022-08-05 08:10:20 GMT 49.034409 -1.510620 34,000 347 406 0
2022-08-05 08:10:16 GMT 49.028595 -1.508367 34,000 347 406 64
2022-08-05 08:10:13 GMT 49.019737 -1.505055 34,000 347 407 64
2022-08-05 08:10:08 GMT 49.010513 -1.501606 33,975 347 407 64
2022-08-05 08:10:02 GMT 49.002934 -1.498766 34,000 347 407 64
2022-08-05 08:09:59 GMT 48.996826 -1.496465 33,975 347 407 64
2022-08-05 08:09:56 GMT 48.990601 -1.494141 33,975 347 407 0
2022-08-05 08:09:53 GMT 48.984638 -1.491900 33,975 347 407 0
2022-08-05 08:09:50 GMT 48.980164 -1.490197 33,975 347 407 0
2022-08-05 08:09:47 GMT 48.975952 -1.488647 33,975 347 407 0
2022-08-05 08:09:44 GMT 48.969910 -1.486394 33,975 347 407 0
2022-08-05 08:09:42 GMT 48.965149 -1.484633 33,975 347 407 0
2022-08-05 08:09:40 GMT 48.962341 -1.483516 33,975 347 407 0
2022-08-05 08:09:38 GMT 48.957733 -1.481853 33,975 347 407 0
2022-08-05 08:09:35 GMT 48.953979 -1.480478 33,975 347 407 0
2022-08-05 08:09:33 GMT 48.950134 -1.478999 33,975 347 407 0
2022-08-05 08:09:31 GMT 48.941299 -1.475710 33,975 347 407 0
2022-08-05 08:09:28 GMT 48.941299 -1.475710 33,975 347 407 0
2022-08-05 08:09:26 GMT 48.931942 -1.472240 34,000 347 407 0
2022-08-05 08:09:23 GMT 48.931942 -1.472240 33,975 347 407 0
2022-08-05 08:09:20 GMT 48.925095 -1.469633 33,975 347 407 0
2022-08-05 08:09:18 GMT 48.921432 -1.468295 33,975 347 407 0
2022-08-05 08:09:16 GMT 48.918686 -1.467238 33,975 347 407 -64
2022-08-05 08:09:13 GMT 48.912575 -1.464940 33,975 347 407 -64
2022-08-05 08:09:10 GMT 48.906712 -1.462772 33,975 347 407 -64
2022-08-05 08:09:08 GMT 48.903267 -1.461471 33,975 347 407 -64
2022-08-05 08:09:06 GMT 48.896942 -1.459069 34,000 346 408 -64
2022-08-05 08:09:02 GMT 48.891350 -1.456989 34,000 346 408 0
2022-08-05 08:08:59 GMT 48.887718 -1.455616 34,000 347 407 0
2022-08-05 08:08:57 GMT 48.883156 -1.453882 34,000 347 407 0
2022-08-05 08:08:53 GMT 48.870541 -1.449111 34,000 347 407 0
2022-08-05 08:08:50 GMT 48.870541 -1.449111 34,000 347 407 0
2022-08-05 08:08:48 GMT 48.866959 -1.447801 34,000 347 407 0
2022-08-05 08:08:45 GMT 48.863232 -1.446365 34,000 347 407 0
2022-08-05 08:08:42 GMT 48.856567 -1.443857 34,000 347 407 0
2022-08-05 08:08:39 GMT 48.845493 -1.439787 34,000 347 407 0
2022-08-05 08:08:36 GMT 48.845493 -1.439787 34,000 347 408 0
2022-08-05 08:08:33 GMT 48.839069 -1.437402 33,975 347 408 0
2022-08-05 08:08:29 GMT 48.833267 -1.435195 33,975 347 408 0
2022-08-05 08:08:27 GMT 48.828781 -1.433571 33,975 347 408 0
2022-08-05 08:08:25 GMT 48.825848 -1.432487 33,975 347 408 0
2022-08-05 08:08:22 GMT 48.820633 -1.430547 34,000 347 408 -64
2022-08-05 08:08:19 GMT 48.814491 -1.428223 34,000 347 408 -64
2022-08-05 08:08:17 GMT 48.810745 -1.426814 34,000 347 408 -64
2022-08-05 08:08:15 GMT 48.801270 -1.423308 34,000 347 408 0
2022-08-05 08:08:12 GMT 48.801270 -1.423308 34,000 347 408 0
2022-08-05 08:08:09 GMT 48.796600 -1.421603 34,000 347 408 0
2022-08-05 08:08:07 GMT 48.792755 -1.420194 34,000 347 408 0
2022-08-05 08:08:05 GMT 48.788094 -1.418393 34,000 347 408 0
2022-08-05 08:08:02 GMT 48.781952 -1.416110 34,000 347 408 0
2022-08-05 08:07:59 GMT 48.778427 -1.414842 34,000 347 408 0
2022-08-05 08:07:57 GMT 48.773666 -1.413081 34,000 347 408 0
2022-08-05 08:07:55 GMT 48.768723 -1.411250 34,000 347 408 0
2022-08-05 08:07:51 GMT 48.762772 -1.408997 34,000 347 409 0
2022-08-05 08:07:49 GMT 48.753662 -1.405616 34,000 347 409 0
2022-08-05 08:07:46 GMT 48.753662 -1.405616 34,000 347 409 0
2022-08-05 08:07:43 GMT 48.749634 -1.404137 34,000 347 409 0
2022-08-05 08:07:41 GMT 48.743362 -1.401813 34,000 347 409 0
2022-08-05 08:07:38 GMT 48.738144 -1.399817 34,000 347 409 0
2022-08-05 08:07:35 GMT 48.735672 -1.398926 34,000 347 409 0
2022-08-05 08:07:33 GMT 48.730045 -1.396854 34,000 347 409 0
2022-08-05 08:07:31 GMT 48.726471 -1.395475 34,000 347 409 0
2022-08-05 08:07:28 GMT 48.712959 -1.390493 34,000 347 410 -64
2022-08-05 08:07:24 GMT 48.712959 -1.390493 34,000 347 410 0
2022-08-05 08:07:21 GMT 48.706970 -1.388221 34,000 347 410 0
2022-08-05 08:07:18 GMT 48.702297 -1.386518 34,000 347 411 -64
2022-08-05 08:07:15 GMT 48.698685 -1.385193 34,000 347 411 -64
2022-08-05 08:07:13 GMT 48.693642 -1.383338 34,000 347 410 -64
2022-08-05 08:07:11 GMT 48.687916 -1.381169 34,000 347 410 0
2022-08-05 08:07:07 GMT 48.676208 -1.376883 34,000 347 411 -64
2022-08-05 08:07:05 GMT 48.672226 -1.375387 34,000 347 411 -64
2022-08-05 08:07:02 GMT 48.672226 -1.375387 34,000 347 411 -64
2022-08-05 08:06:59 GMT 48.666595 -1.373361 34,025 347 411 -64
2022-08-05 08:06:56 GMT 48.662266 -1.371773 34,025 347 411 -64
2022-08-05 08:06:53 GMT 48.655701 -1.369347 34,025 347 411 -64
2022-08-05 08:06:50 GMT 48.650997 -1.367581 34,025 347 411 -64
2022-08-05 08:06:48 GMT 48.647415 -1.366248 34,025 347 411 -64
2022-08-05 08:06:46 GMT 48.643524 -1.364840 34,025 347 411 -64
2022-08-05 08:06:44 GMT 48.639084 -1.363150 34,025 347 411 -64
2022-08-05 08:06:42 GMT 48.634689 -1.361530 34,025 347 411 -64
2022-08-05 08:06:39 GMT 48.631077 -1.360209 34,025 347 411 -64
2022-08-05 08:06:36 GMT 48.624416 -1.357751 34,025 347 412 0
2022-08-05 08:06:34 GMT 48.619720 -1.355966 34,025 347 411 0
2022-08-05 08:06:31 GMT 48.612488 -1.353290 34,025 347 412 0
2022-08-05 08:06:29 GMT 48.612488 -1.353290 34,025 347 412 0
2022-08-05 08:06:26 GMT 48.605751 -1.350812 34,025 347 412 0
2022-08-05 08:06:21 GMT 48.597046 -1.347560 34,025 347 413 64
2022-08-05 08:06:18 GMT 48.592529 -1.345896 34,025 347 413 64
2022-08-05 08:06:16 GMT 48.588760 -1.344452 34,025 347 413 0
2022-08-05 08:06:14 GMT 48.582615 -1.342211 34,025 347 413 64
2022-08-05 08:06:10 GMT 48.576965 -1.340121 34,025 347 413 0
2022-08-05 08:06:07 GMT 48.565475 -1.335895 34,025 347 413 -64
2022-08-05 08:06:04 GMT 48.561108 -1.334261 34,025 347 413 0
2022-08-05 08:06:01 GMT 48.561108 -1.334261 34,025 347 413 -64
2022-08-05 08:05:59 GMT 48.557144 -1.332797 34,025 347 413 0
2022-08-05 08:05:57 GMT 48.552292 -1.331036 34,025 347 413 0
2022-08-05 08:05:55 GMT 48.549728 -1.330050 34,025 347 413 0
2022-08-05 08:05:53 GMT 48.538670 -1.326021 34,025 347 413 0
2022-08-05 08:05:50 GMT 48.538670 -1.326021 34,025 347 413 0
2022-08-05 08:05:48 GMT 48.536804 -1.325298 34,025 347 413 0
2022-08-05 08:05:46 GMT 48.532894 -1.323925 34,025 347 413 0
2022-08-05 08:05:44 GMT 48.526566 -1.321612 34,025 347 413 0
2022-08-05 08:05:41 GMT 48.523071 -1.320311 34,025 347 414 0
2022-08-05 08:05:37 GMT 48.516556 -1.317926 34,025 347 414 0
2022-08-05 08:05:35 GMT 48.511715 -1.316119 34,025 347 414 0
2022-08-05 08:05:33 GMT 48.508923 -1.315107 34,025 347 414 0
2022-08-05 08:05:31 GMT 48.504364 -1.313430 34,025 347 414 0
2022-08-05 08:05:28 GMT 48.498306 -1.311204 34,025 347 414 64
2022-08-05 08:05:25 GMT 48.492645 -1.309134 34,025 347 414 0
2022-08-05 08:05:23 GMT 48.489044 -1.307807 34,025 347 414 64
2022-08-05 08:05:20 GMT 48.484085 -1.305965 34,000 347 414 64
2022-08-05 08:05:18 GMT 48.479233 -1.304204 34,000 347 414 0
2022-08-05 08:05:15 GMT 48.474335 -1.302386 34,000 347 414 0
2022-08-05 08:05:13 GMT 48.471355 -1.301229 34,000 347 414 0
2022-08-05 08:05:10 GMT 48.465500 -1.299063 34,000 347 414 64
2022-08-05 08:05:07 GMT 48.458878 -1.296676 34,000 347 414 64
2022-08-05 08:05:04 GMT 48.453781 -1.294767 34,000 347 414 64
2022-08-05 08:05:01 GMT 48.440861 -1.289954 34,000 347 414 64
2022-08-05 08:04:57 GMT 48.440861 -1.289954 34,000 347 414 0
2022-08-05 08:04:54 GMT 48.435276 -1.287930 34,000 347 414 0
2022-08-05 08:04:50 GMT 48.428574 -1.285473 34,000 347 414 0
2022-08-05 08:04:47 GMT 48.422333 -1.283147 34,000 347 414 0
2022-08-05 08:04:43 GMT 48.414608 -1.280341 34,000 347 414 0
2022-08-05 08:04:39 GMT 48.402740 -1.275963 34,000 347 414 0
2022-08-05 08:04:36 GMT 48.402740 -1.275963 34,000 347 414 0
2022-08-05 08:04:34 GMT 48.396358 -1.273619 34,000 347 414 0
2022-08-05 08:04:30 GMT 48.390839 -1.271597 34,000 347 414 0
2022-08-05 08:04:28 GMT 48.386948 -1.270189 34,000 347 414 0
2022-08-05 08:04:25 GMT 48.381275 -1.268126 34,000 347 414 0
2022-08-05 08:04:23 GMT 48.377243 -1.266667 34,000 347 414 0
2022-08-05 08:04:20 GMT 48.372437 -1.264836 34,000 347 414 0
2022-08-05 08:04:18 GMT 48.366074 -1.262512 34,000 347 414 0
2022-08-05 08:04:14 GMT 48.359489 -1.260103 34,000 347 414 0
2022-08-05 08:04:11 GMT 48.354836 -1.258441 34,000 347 414 0
2022-08-05 08:04:08 GMT 48.343918 -1.254484 34,000 347 414 0
2022-08-05 08:04:05 GMT 48.343918 -1.254484 34,000 347 414 0
2022-08-05 08:04:02 GMT 48.336502 -1.251737 34,000 347 414 0
2022-08-05 08:03:59 GMT 48.333527 -1.250681 34,000 347 414 0
2022-08-05 08:03:56 GMT 48.327831 -1.248611 34,000 347 414 0
2022-08-05 08:03:53 GMT 48.322357 -1.246596 34,000 347 414 0
2022-08-05 08:03:50 GMT 48.317219 -1.244708 34,000 347 414 -64
2022-08-05 08:03:48 GMT 48.312565 -1.243045 34,000 347 414 0
2022-08-05 08:03:45 GMT 48.306335 -1.240751 34,000 347 414 0
2022-08-05 08:03:43 GMT 48.303810 -1.239865 34,000 347 414 -64
2022-08-05 08:03:40 GMT 48.298969 -1.238058 34,000 347 414 0
2022-08-05 08:03:37 GMT 48.292191 -1.235610 34,000 347 414 -64
2022-08-05 08:03:34 GMT 48.285873 -1.233286 34,000 347 414 0
2022-08-05 08:03:32 GMT 48.280472 -1.231314 34,000 347 414 0
2022-08-05 08:03:29 GMT 48.277679 -1.230328 34,000 347 414 0
2022-08-05 08:03:26 GMT 48.271832 -1.228156 34,000 347 414 0
2022-08-05 08:03:23 GMT 48.263901 -1.225257 34,000 347 414 0
2022-08-05 08:03:20 GMT 48.261215 -1.224325 34,000 347 414 0
2022-08-05 08:03:18 GMT 48.256668 -1.222652 34,000 347 414 0
2022-08-05 08:03:15 GMT 48.250854 -1.220539 34,000 347 414 0
2022-08-05 08:03:12 GMT 48.245201 -1.218471 34,000 347 414 0
2022-08-05 08:03:09 GMT 48.232452 -1.213848 34,000 347 414 0
2022-08-05 08:03:05 GMT 48.232452 -1.213848 34,000 347 414 0
2022-08-05 08:03:02 GMT 48.226582 -1.211676 34,000 347 414 0
2022-08-05 08:02:59 GMT 48.222015 -1.210045 34,000 347 414 0
2022-08-05 08:02:56 GMT 48.215969 -1.207846 34,000 347 414 0
2022-08-05 08:02:53 GMT 48.210114 -1.205679 34,000 347 414 0
2022-08-05 08:02:49 GMT 48.201187 -1.202440 34,000 347 414 0
2022-08-05 08:02:46 GMT 48.197208 -1.200979 34,000 347 414 0
2022-08-05 08:02:43 GMT 48.190750 -1.198637 34,000 347 414 0
2022-08-05 08:02:41 GMT 48.188919 -1.198003 34,000 347 414 0
2022-08-05 08:02:38 GMT 48.175690 -1.193143 34,025 347 414 0
2022-08-05 08:02:34 GMT 48.175690 -1.193143 34,025 347 414 0
2022-08-05 08:02:31 GMT 48.171249 -1.191524 34,025 347 414 0
2022-08-05 08:02:29 GMT 48.165550 -1.189415 34,025 347 414 0
2022-08-05 08:02:27 GMT 48.157471 -1.186455 34,025 347 414 0
2022-08-05 08:02:24 GMT 48.157471 -1.186455 34,025 347 414 0
2022-08-05 08:02:21 GMT 48.151073 -1.184129 34,000 347 414 64
2022-08-05 08:02:18 GMT 48.145203 -1.181992 34,000 347 414 64
2022-08-05 08:02:15 GMT 48.139156 -1.179763 34,000 347 414 64
2022-08-05 08:02:12 GMT 48.134315 -1.178002 34,000 347 415 0
2022-08-05 08:02:10 GMT 48.129364 -1.176224 34,000 347 415 0
2022-08-05 08:02:08 GMT 48.126308 -1.175115 34,000 347 415 0
2022-08-05 08:02:05 GMT 48.119560 -1.172650 34,000 347 415 0
2022-08-05 08:02:02 GMT 48.112015 -1.169975 34,000 347 415 0
2022-08-05 08:02:00 GMT 48.107758 -1.168396 34,000 347 415 0
2022-08-05 08:01:58 GMT 48.107758 -1.168396 34,000 347 415 0
2022-08-05 08:01:55 GMT 48.100479 -1.165787 34,000 347 415 0
2022-08-05 08:01:52 GMT 48.096657 -1.164410 34,000 347 415 0
2022-08-05 08:01:48 GMT 48.088898 -1.161598 34,000 347 415 0
2022-08-05 08:01:44 GMT 48.081207 -1.158852 34,000 347 415 0
2022-08-05 08:01:41 GMT 48.074524 -1.156448 34,000 347 415 0
2022-08-05 08:01:38 GMT 48.068344 -1.154251 34,000 347 415 0
2022-08-05 08:01:35 GMT 48.064774 -1.152946 34,000 347 415 0
2022-08-05 08:01:32 GMT 48.058903 -1.150818 34,000 347 415 0
2022-08-05 08:01:29 GMT 48.053871 -1.148987 34,000 347 415 0
2022-08-05 08:01:25 GMT 48.046799 -1.146452 34,000 347 415 0
2022-08-05 08:01:22 GMT 48.040558 -1.144157 34,000 347 415 0
2022-08-05 08:01:20 GMT 48.036510 -1.142719 34,000 347 415 0
2022-08-05 08:01:17 GMT 48.031853 -1.141029 34,000 347 415 0
2022-08-05 08:01:14 GMT 48.020309 -1.136874 34,000 347 415 0
2022-08-05 08:01:11 GMT 48.020309 -1.136874 34,000 347 415 0
2022-08-05 08:01:09 GMT 48.015518 -1.135162 34,000 347 415 0
2022-08-05 08:01:07 GMT 48.010952 -1.133493 34,000 347 415 0
2022-08-05 08:01:04 GMT 48.007042 -1.132085 34,000 347 415 0
2022-08-05 08:01:01 GMT 47.997253 -1.128502 34,000 347 414 0
2022-08-05 08:00:59 GMT 47.997253 -1.128502 34,000 347 414 0
2022-08-05 08:00:57 GMT 47.993263 -1.127014 34,000 347 415 0
2022-08-05 08:00:54 GMT 47.988510 -1.125343 34,000 347 414 0
2022-08-05 08:00:51 GMT 47.982834 -1.123211 34,000 347 415 0
2022-08-05 08:00:49 GMT 47.974548 -1.120262 34,000 347 415 0
2022-08-05 08:00:47 GMT 47.974548 -1.120262 34,000 347 415 0
2022-08-05 08:00:44 GMT 47.970062 -1.118614 34,000 347 415 0
2022-08-05 08:00:41 GMT 47.963608 -1.116310 34,000 347 415 0
2022-08-05 08:00:39 GMT 47.959030 -1.114700 34,000 347 416 0
2022-08-05 08:00:34 GMT 47.951504 -1.111943 34,000 347 416 0
2022-08-05 08:00:31 GMT 47.945984 -1.109962 34,000 347 416 0
2022-08-05 08:00:29 GMT 47.942146 -1.108563 34,000 347 416 0
2022-08-05 08:00:26 GMT 47.935501 -1.106186 34,000 347 416 0
2022-08-05 08:00:23 GMT 47.931862 -1.104901 34,000 347 416 -64
2022-08-05 08:00:20 GMT 47.924469 -1.102272 34,000 347 415 0
2022-08-05 08:00:17 GMT 47.919800 -1.100624 34,000 347 415 0
2022-08-05 08:00:14 GMT 47.913567 -1.098351 34,000 347 415 0
2022-08-05 08:00:11 GMT 47.908630 -1.096642 34,000 347 415 0
2022-08-05 08:00:09 GMT 47.903778 -1.094856 34,000 347 415 0
2022-08-05 08:00:04 GMT 47.887711 -1.089157 34,000 347 416 0
2022-08-05 08:00:00 GMT 47.883957 -1.087852 34,000 347 416 0
2022-08-05 07:59:55 GMT 47.878464 -1.085886 34,000 347 416 0
2022-08-05 07:59:52 GMT 47.871643 -1.083458 34,000 347 416 0
2022-08-05 07:59:49 GMT 47.866314 -1.081590 34,000 347 416 0
2022-08-05 07:59:47 GMT 47.864639 -1.080956 34,000 347 416 64
2022-08-05 07:59:44 GMT 47.857040 -1.078239 34,000 347 416 64
2022-08-05 07:59:41 GMT 47.851326 -1.076238 34,000 347 416 0
2022-08-05 07:59:38 GMT 47.846481 -1.074477 34,000 347 416 0
2022-08-05 07:59:35 GMT 47.840710 -1.072364 34,000 347 416 0
2022-08-05 07:59:32 GMT 47.835938 -1.070686 34,000 347 416 0
2022-08-05 07:59:29 GMT 47.828747 -1.068139 34,000 347 415 64
2022-08-05 07:59:27 GMT 47.826782 -1.067390 34,000 347 416 64
2022-08-05 07:59:23 GMT 47.813507 -1.062653 34,000 347 409 256
2022-08-05 07:59:20 GMT 47.813507 -1.062653 34,000 347 414 0
2022-08-05 07:59:18 GMT 47.803619 -1.059082 34,000 347 413 -64
2022-08-05 07:59:16 GMT 47.803619 -1.059082 34,000 347 413 -64
2022-08-05 07:59:13 GMT 47.792313 -1.055031 34,000 347 409 256
2022-08-05 07:59:09 GMT 47.792313 -1.055031 34,000 347 413 -64
2022-08-05 07:59:07 GMT 47.788605 -1.053726 34,000 347 413 -64
2022-08-05 07:59:03 GMT 47.780777 -1.050911 34,000 347 412 -64
2022-08-05 07:58:57 GMT 47.770615 -1.047272 34,025 347 410 128
2022-08-05 07:58:53 GMT 47.762783 -1.044476 34,000 347 409 256
2022-08-05 07:58:48 GMT 47.754044 -1.041435 33,975 347 408 128
2022-08-05 07:58:44 GMT 47.746441 -1.038701 33,975 347 408 0
2022-08-05 07:58:41 GMT 47.740765 -1.036659 33,975 347 408 0
2022-08-05 07:58:38 GMT 47.735641 -1.034828 33,975 347 408 -64
2022-08-05 07:58:35 GMT 47.729404 -1.032644 33,975 347 408 0
2022-08-05 07:58:32 GMT 47.715672 -1.027715 33,975 347 408 0
2022-08-05 07:58:27 GMT 47.711151 -1.026123 33,975 347 408 0
2022-08-05 07:58:25 GMT 47.711151 -1.026123 33,975 347 408 0
2022-08-05 07:58:22 GMT 47.705757 -1.024193 33,975 347 408 0
2022-08-05 07:58:17 GMT 47.687347 -1.017609 33,975 347 408 0
2022-08-05 07:58:12 GMT 47.680206 -1.015068 33,975 347 408 0
2022-08-05 07:58:08 GMT 47.680206 -1.015068 33,975 347 408 0
2022-08-05 07:58:05 GMT 47.669037 -1.011017 33,975 347 408 0
2022-08-05 07:58:02 GMT 47.669037 -1.011017 33,975 347 408 0
2022-08-05 07:57:58 GMT 47.654270 -1.005812 33,975 347 408 -64
2022-08-05 07:57:54 GMT 47.654270 -1.005812 33,975 347 408 -64
2022-08-05 07:57:51 GMT 47.649475 -1.004122 33,975 347 408 -64
2022-08-05 07:57:48 GMT 47.642864 -1.001798 33,975 347 408 -64
2022-08-05 07:57:46 GMT 47.640244 -1.000854 33,975 347 408 -64
2022-08-05 07:57:43 GMT 47.634624 -0.998911 33,975 347 408 0
2022-08-05 07:57:40 GMT 47.627747 -0.996460 34,000 347 408 0
2022-08-05 07:57:37 GMT 47.624084 -0.995155 34,000 347 408 -64
2022-08-05 07:57:33 GMT 47.608231 -0.989544 34,000 347 408 0
2022-08-05 07:57:29 GMT 47.608231 -0.989544 34,000 347 408 0
2022-08-05 07:57:27 GMT 47.605179 -0.988495 34,000 347 408 0
2022-08-05 07:57:25 GMT 47.600502 -0.986798 34,000 347 408 0
2022-08-05 07:57:22 GMT 47.596756 -0.985474 34,000 347 408 0
2022-08-05 07:57:19 GMT 47.588955 -0.982713 34,000 347 408 0
2022-08-05 07:57:15 GMT 47.583160 -0.980667 34,000 347 408 0
2022-08-05 07:57:12 GMT 47.577553 -0.978699 34,000 347 409 0
2022-08-05 07:57:09 GMT 47.572357 -0.976822 34,000 347 409 0
2022-08-05 07:57:06 GMT 47.565170 -0.974281 34,000 347 409 0
2022-08-05 07:57:03 GMT 47.561211 -0.972853 34,000 347 409 0
2022-08-05 07:57:00 GMT 47.555649 -0.970848 34,000 347 409 -64
2022-08-05 07:56:55 GMT 47.546265 -0.967484 34,000 347 409 -128
2022-08-05 07:56:52 GMT 47.539627 -0.965080 34,025 347 409 -128
2022-08-05 07:56:49 GMT 47.536072 -0.963839 34,025 347 409 -128
2022-08-05 07:56:46 GMT 47.530163 -0.961726 34,025 347 409 -128
2022-08-05 07:56:42 GMT 47.522552 -0.959038 34,025 347 409 0
2022-08-05 07:56:39 GMT 47.517563 -0.957321 34,025 347 409 0
2022-08-05 07:56:36 GMT 47.510925 -0.954987 34,025 347 409 0
2022-08-05 07:56:34 GMT 47.506165 -0.953270 34,025 347 409 0
2022-08-05 07:56:30 GMT 47.499298 -0.950810 34,025 347 409 0
2022-08-05 07:56:26 GMT 47.492081 -0.948275 34,025 347 409 0
2022-08-05 07:56:23 GMT 47.487579 -0.946678 34,025 347 410 0
2022-08-05 07:56:20 GMT 47.482910 -0.945035 34,025 347 410 0
2022-08-05 07:56:17 GMT 47.475555 -0.942430 34,025 347 410 0
2022-08-05 07:56:15 GMT 47.473801 -0.941803 34,025 347 410 0
2022-08-05 07:56:13 GMT 47.469177 -0.940155 34,025 347 410 0
2022-08-05 07:56:10 GMT 47.462425 -0.937782 34,025 347 410 0
2022-08-05 07:56:06 GMT 47.455170 -0.935211 34,025 347 410 0
2022-08-05 07:56:04 GMT 47.452324 -0.934190 34,025 347 410 0
2022-08-05 07:56:02 GMT 47.448788 -0.932922 34,025 347 411 64
2022-08-05 07:55:59 GMT 47.442444 -0.930679 34,000 347 411 64
2022-08-05 07:55:55 GMT 47.435074 -0.928070 34,025 347 411 64
2022-08-05 07:55:53 GMT 47.432217 -0.927077 34,000 347 411 64
2022-08-05 07:55:50 GMT 47.427292 -0.925323 34,000 347 411 64
2022-08-05 07:55:47 GMT 47.419830 -0.922711 34,000 347 411 64
2022-08-05 07:55:43 GMT 47.411686 -0.919823 34,000 347 411 0
2022-08-05 07:55:40 GMT 47.407822 -0.918415 34,000 347 411 0
2022-08-05 07:55:37 GMT 47.402283 -0.916443 34,000 347 411 0
2022-08-05 07:55:32 GMT 47.393993 -0.913555 34,000 347 411 0
2022-08-05 07:55:29 GMT 47.385727 -0.910629 34,000 347 411 0
2022-08-05 07:55:26 GMT 47.382980 -0.909668 34,000 347 411 0
2022-08-05 07:55:23 GMT 47.376400 -0.907288 34,000 347 411 -64
2022-08-05 07:55:20 GMT 47.370857 -0.905316 34,000 347 411 -64
2022-08-05 07:55:16 GMT 47.364120 -0.902939 34,000 347 411 -64
2022-08-05 07:55:12 GMT 47.355972 -0.900055 34,000 347 411 0
2022-08-05 07:55:09 GMT 47.350517 -0.898132 34,000 347 411 0
2022-08-05 07:55:06 GMT 47.346653 -0.896794 34,000 347 411 0
2022-08-05 07:55:03 GMT 47.339996 -0.894400 34,025 347 412 0
2022-08-05 07:55:01 GMT 47.335758 -0.892921 34,025 347 412 0
2022-08-05 07:54:58 GMT 47.330292 -0.890991 34,025 347 412 -64
2022-08-05 07:54:53 GMT 47.319901 -0.887352 34,025 347 412 -64
2022-08-05 07:54:50 GMT 47.313694 -0.885174 34,025 347 412 0
2022-08-05 07:54:45 GMT 47.307594 -0.883061 34,025 347 412 0
2022-08-05 07:54:42 GMT 47.299164 -0.880142 34,025 347 412 0
2022-08-05 07:54:39 GMT 47.295273 -0.878769 34,025 347 412 0
2022-08-05 07:54:36 GMT 47.289440 -0.876723 34,025 347 412 64
2022-08-05 07:54:32 GMT 47.281540 -0.874031 34,025 347 412 64
2022-08-05 07:54:26 GMT 47.269051 -0.869681 34,000 347 413 64
2022-08-05 07:54:20 GMT 47.260345 -0.866652 34,000 347 413 64
2022-08-05 07:54:17 GMT 47.254852 -0.864761 34,000 347 413 64
2022-08-05 07:54:12 GMT 47.239906 -0.859539 34,000 347 413 0
2022-08-05 07:54:09 GMT 47.239906 -0.859539 34,000 347 413 0
2022-08-05 07:54:06 GMT 47.235626 -0.858060 34,000 347 413 0
2022-08-05 07:54:03 GMT 47.227936 -0.855354 34,000 347 413 -64
2022-08-05 07:53:59 GMT 47.219559 -0.852402 34,000 347 413 -64
2022-08-05 07:53:55 GMT 47.214020 -0.850479 34,000 347 413 -64
2022-08-05 07:53:51 GMT 47.205826 -0.847595 34,000 347 413 -64
2022-08-05 07:53:48 GMT 47.195480 -0.843956 34,025 347 412 -64
2022-08-05 07:53:45 GMT 47.195480 -0.843956 34,000 347 412 -64
2022-08-05 07:53:42 GMT 47.188515 -0.841581 34,025 347 412 0
2022-08-05 07:53:39 GMT 47.182846 -0.839561 34,025 347 412 0
2022-08-05 07:53:35 GMT 47.176643 -0.837426 34,000 347 412 64
2022-08-05 07:53:30 GMT 47.166367 -0.833862 34,000 347 412 64
2022-08-05 07:53:26 GMT 47.158951 -0.831253 34,000 347 412 64
2022-08-05 07:53:23 GMT 47.153732 -0.829468 34,000 347 412 0
2022-08-05 07:53:20 GMT 47.150024 -0.828163 34,000 347 412 0
2022-08-05 07:53:17 GMT 47.144119 -0.826103 34,000 347 412 0
2022-08-05 07:53:14 GMT 47.130020 -0.821159 34,000 347 413 0
2022-08-05 07:53:10 GMT 47.130020 -0.821159 34,000 347 412 0
2022-08-05 07:53:07 GMT 47.124252 -0.819168 34,000 347 413 0
2022-08-05 07:53:04 GMT 47.119995 -0.817657 34,000 347 413 -64
2022-08-05 07:53:01 GMT 47.113495 -0.815392 34,000 347 413 -64
2022-08-05 07:52:58 GMT 47.108688 -0.813744 34,000 347 413 -64
2022-08-05 07:52:55 GMT 47.100250 -0.810805 34,025 347 412 -64
2022-08-05 07:52:50 GMT 47.093220 -0.808340 34,025 347 412 -64
2022-08-05 07:52:48 GMT 47.088566 -0.806720 34,025 347 412 0
2022-08-05 07:52:45 GMT 47.084469 -0.805312 34,025 347 412 0
2022-08-05 07:52:42 GMT 47.078186 -0.803058 34,025 347 412 64
2022-08-05 07:52:39 GMT 47.074879 -0.801932 34,025 347 412 64
2022-08-05 07:52:37 GMT 47.070328 -0.800354 34,000 347 412 128
2022-08-05 07:52:34 GMT 47.061893 -0.797424 34,000 347 412 128
2022-08-05 07:52:29 GMT 47.054398 -0.794792 34,000 347 412 64
2022-08-05 07:52:26 GMT 47.049461 -0.793128 34,000 347 412 0
2022-08-05 07:52:23 GMT 47.041504 -0.790311 34,000 347 412 0
2022-08-05 07:52:20 GMT 47.037689 -0.789024 34,000 347 412 0
2022-08-05 07:52:17 GMT 47.030003 -0.786368 34,000 347 412 0
2022-08-05 07:52:14 GMT 47.027115 -0.785385 34,000 347 412 0
2022-08-05 07:52:12 GMT 47.018505 -0.782353 34,000 347 412 0
2022-08-05 07:52:10 GMT 47.018505 -0.782353 34,000 347 412 -64
2022-08-05 07:52:08 GMT 47.008392 -0.778862 34,000 347 412 0
2022-08-05 07:52:05 GMT 47.008392 -0.778862 34,000 347 412 0
2022-08-05 07:52:02 GMT 47.001938 -0.776596 34,000 347 412 0
2022-08-05 07:51:59 GMT 46.994705 -0.774124 34,000 347 412 0
2022-08-05 07:51:57 GMT 46.994705 -0.774124 34,000 347 412 0
2022-08-05 07:51:53 GMT 46.988937 -0.772133 34,000 347 412 0
2022-08-05 07:51:50 GMT 46.982437 -0.769867 34,000 347 412 0
2022-08-05 07:51:47 GMT 46.976048 -0.767634 34,000 347 412 0
2022-08-05 07:51:43 GMT 46.968750 -0.765129 34,000 347 412 64
2022-08-05 07:51:40 GMT 46.963295 -0.763198 34,000 347 412 64
2022-08-05 07:51:37 GMT 46.957523 -0.761226 34,000 347 412 64
2022-08-05 07:51:32 GMT 46.947418 -0.757713 34,000 347 412 64
2022-08-05 07:51:29 GMT 46.943344 -0.756340 34,000 347 413 64
2022-08-05 07:51:27 GMT 46.939739 -0.755028 34,000 347 413 0
2022-08-05 07:51:23 GMT 46.931122 -0.752083 34,000 347 413 0
2022-08-05 07:51:19 GMT 46.924515 -0.749746 34,000 347 413 0
2022-08-05 07:51:16 GMT 46.919220 -0.747963 34,000 347 413 0
2022-08-05 07:51:13 GMT 46.914047 -0.746109 34,000 347 413 0
2022-08-05 07:51:09 GMT 46.905350 -0.743088 34,000 347 413 0
2022-08-05 07:51:07 GMT 46.900589 -0.741436 34,000 347 412 0
2022-08-05 07:51:04 GMT 46.895046 -0.739535 34,000 347 412 0
2022-08-05 07:51:01 GMT 46.892071 -0.738478 34,000 347 412 0
2022-08-05 07:50:58 GMT 46.884480 -0.735802 34,000 347 412 0
2022-08-05 07:50:56 GMT 46.882061 -0.734957 34,000 347 412 0
2022-08-05 07:50:53 GMT 46.875591 -0.732704 34,000 347 413 0
2022-08-05 07:50:51 GMT 46.871864 -0.731436 34,000 347 413 0
2022-08-05 07:50:48 GMT 46.863159 -0.728394 34,000 347 413 0
2022-08-05 07:50:46 GMT 46.863159 -0.728394 33,975 347 413 0
2022-08-05 07:50:43 GMT 46.857014 -0.726265 33,975 347 413 0
2022-08-05 07:50:37 GMT 46.848587 -0.723356 34,000 347 413 0
2022-08-05 07:50:35 GMT 46.842911 -0.721390 33,975 347 413 0
2022-08-05 07:50:31 GMT 46.835880 -0.718987 33,975 347 414 0
2022-08-05 07:50:27 GMT 46.828720 -0.716523 33,975 347 413 0
2022-08-05 07:50:24 GMT 46.823135 -0.714580 33,975 347 413 0
2022-08-05 07:50:21 GMT 46.818192 -0.712875 33,975 347 413 0
2022-08-05 07:50:16 GMT 46.806507 -0.708893 33,975 347 413 0
2022-08-05 07:50:11 GMT 46.798683 -0.706215 33,975 347 413 0
2022-08-05 07:50:05 GMT 46.787933 -0.702507 33,975 347 413 0
2022-08-05 07:50:01 GMT 46.780380 -0.699909 33,975 347 413 0
2022-08-05 07:49:57 GMT 46.773220 -0.697495 33,975 347 414 0
2022-08-05 07:49:54 GMT 46.767380 -0.695488 33,975 347 414 -64
2022-08-05 07:49:51 GMT 46.761978 -0.693612 33,975 347 414 -64
2022-08-05 07:49:48 GMT 46.756508 -0.691727 34,000 347 414 -64
2022-08-05 07:49:45 GMT 46.749805 -0.689461 34,000 347 414 -64
2022-08-05 07:49:40 GMT 46.738541 -0.685574 34,000 347 413 -64
2022-08-05 07:49:37 GMT 46.735016 -0.684368 34,000 347 413 0
2022-08-05 07:49:34 GMT 46.730438 -0.682869 34,000 347 413 0
2022-08-05 07:49:30 GMT 46.723114 -0.680348 34,000 347 413 -64
2022-08-05 07:49:27 GMT 46.716335 -0.678062 34,000 347 413 -64
2022-08-05 07:49:25 GMT 46.710663 -0.676128 34,000 347 413 -64
2022-08-05 07:49:19 GMT 46.702469 -0.673382 34,000 347 413 -64
2022-08-05 07:49:15 GMT 46.687099 -0.668175 34,025 347 413 -64
2022-08-05 07:49:11 GMT 46.687099 -0.668175 34,025 347 413 -64
2022-08-05 07:49:07 GMT 46.678986 -0.665410 34,025 347 414 -64
2022-08-05 07:49:04 GMT 46.673584 -0.663534 34,025 347 414 -64
2022-08-05 07:49:01 GMT 46.667633 -0.661524 34,025 347 414 -64
2022-08-05 07:48:57 GMT 46.658524 -0.658376 34,025 347 413 0
2022-08-05 07:48:53 GMT 46.654449 -0.656902 34,025 347 413 0
2022-08-05 07:48:50 GMT 46.648788 -0.654922 34,025 347 414 0
2022-08-05 07:48:47 GMT 46.642456 -0.652725 34,025 347 414 0
2022-08-05 07:48:44 GMT 46.636047 -0.650538 34,025 347 414 0
2022-08-05 07:48:41 GMT 46.629234 -0.648125 34,025 347 414 0
2022-08-05 07:48:38 GMT 46.625427 -0.646787 34,025 347 414 0
2022-08-05 07:48:34 GMT 46.616573 -0.643730 34,025 347 414 0
2022-08-05 07:48:28 GMT 46.607822 -0.640709 34,025 347 415 0
2022-08-05 07:48:25 GMT 46.599701 -0.637944 34,025 347 415 0
2022-08-05 07:48:21 GMT 46.593567 -0.635867 34,025 347 415 0
2022-08-05 07:48:18 GMT 46.587936 -0.633925 34,025 347 415 0
2022-08-05 07:48:13 GMT 46.578308 -0.630615 34,025 347 415 0
2022-08-05 07:48:09 GMT 46.572536 -0.628693 34,025 347 415 0
2022-08-05 07:48:06 GMT 46.566467 -0.626556 34,025 347 415 0
2022-08-05 07:48:03 GMT 46.560654 -0.624613 34,025 347 415 0
2022-08-05 07:48:00 GMT 46.552891 -0.621964 34,025 347 415 64
2022-08-05 07:47:57 GMT 46.548889 -0.620594 34,025 347 415 0
2022-08-05 07:47:54 GMT 46.539623 -0.617432 34,025 347 415 64
2022-08-05 07:47:52 GMT 46.539623 -0.617432 34,025 347 415 64
2022-08-05 07:47:49 GMT 46.533245 -0.615234 34,000 347 415 128
2022-08-05 07:47:47 GMT 46.531082 -0.614497 34,025 347 415 64
2022-08-05 07:47:43 GMT 46.520908 -0.611046 34,000 347 415 64
2022-08-05 07:47:39 GMT 46.516296 -0.609473 34,000 347 415 64
2022-08-05 07:47:37 GMT 46.511444 -0.607865 34,000 347 415 64
2022-08-05 07:47:33 GMT 46.504898 -0.605588 34,000 347 415 64
2022-08-05 07:47:30 GMT 46.499168 -0.603699 33,975 347 415 64
2022-08-05 07:47:27 GMT 46.492790 -0.601501 33,975 347 415 64
2022-08-05 07:47:24 GMT 46.484665 -0.598755 33,975 347 415 0
2022-08-05 07:47:19 GMT 46.474819 -0.595459 33,975 347 415 0
2022-08-05 07:47:13 GMT 46.465393 -0.592257 33,975 347 415 0
2022-08-05 07:47:09 GMT 46.451340 -0.587501 33,975 347 415 0
2022-08-05 07:47:05 GMT 46.451340 -0.587501 33,975 347 415 0
2022-08-05 07:47:02 GMT 46.444611 -0.585223 33,975 347 415 0
2022-08-05 07:46:59 GMT 46.439301 -0.583374 33,975 347 415 0
2022-08-05 07:46:54 GMT 46.431702 -0.580802 33,975 347 416 0
2022-08-05 07:46:50 GMT 46.423279 -0.577921 33,975 347 416 0
2022-08-05 07:46:47 GMT 46.418728 -0.576370 33,975 347 416 -64
2022-08-05 07:46:42 GMT 46.409740 -0.573280 33,975 347 415 0
2022-08-05 07:46:40 GMT 46.405151 -0.571758 33,975 347 415 0
2022-08-05 07:46:36 GMT 46.397034 -0.568954 33,975 347 415 0
2022-08-05 07:46:33 GMT 46.391144 -0.567002 33,975 347 415 0
2022-08-05 07:46:30 GMT 46.385441 -0.565041 33,975 347 415 0
2022-08-05 07:46:27 GMT 46.379379 -0.563049 33,975 347 415 0
2022-08-05 07:46:22 GMT 46.370869 -0.560165 33,975 347 415 0
2022-08-05 07:46:18 GMT 46.363190 -0.557556 33,975 347 415 0
2022-08-05 07:46:15 GMT 46.358906 -0.556114 33,975 347 415 0
2022-08-05 07:46:12 GMT 46.350769 -0.553336 34,000 347 415 0
2022-08-05 07:46:08 GMT 46.344955 -0.551393 34,000 347 415 0
2022-08-05 07:46:05 GMT 46.340286 -0.549785 33,975 347 415 0
2022-08-05 07:46:01 GMT 46.332458 -0.547173 33,975 347 415 0
2022-08-05 07:45:57 GMT 46.324318 -0.544373 34,000 347 415 0
2022-08-05 07:45:53 GMT 46.317856 -0.542215 34,000 347 415 -64
2022-08-05 07:45:50 GMT 46.309845 -0.539536 34,000 347 415 -64
2022-08-05 07:45:47 GMT 46.305977 -0.538261 34,000 347 415 -64
2022-08-05 07:45:44 GMT 46.300278 -0.536320 34,000 347 415 -64
2022-08-05 07:45:40 GMT 46.294014 -0.534210 34,000 347 415 -64
2022-08-05 07:45:38 GMT 46.289169 -0.532562 34,000 347 415 -64
2022-08-05 07:45:35 GMT 46.283478 -0.530626 34,000 347 415 0
2022-08-05 07:45:30 GMT 46.274227 -0.527481 34,000 347 415 0
2022-08-05 07:45:28 GMT 46.271389 -0.526588 34,000 347 415 0
2022-08-05 07:45:24 GMT 46.262032 -0.523430 34,000 347 415 0
2022-08-05 07:45:21 GMT 46.258308 -0.522194 34,000 347 415 64
2022-08-05 07:45:18 GMT 46.251045 -0.519722 34,000 347 415 64
2022-08-05 07:45:15 GMT 46.245529 -0.517831 34,000 347 415 64
2022-08-05 07:45:12 GMT 46.240631 -0.516156 34,000 347 416 0
2022-08-05 07:45:09 GMT 46.233719 -0.513812 34,000 347 416 0
2022-08-05 07:45:05 GMT 46.226990 -0.511534 34,000 347 416 0
2022-08-05 07:45:02 GMT 46.221771 -0.509725 34,000 347 416 0
2022-08-05 07:44:59 GMT 46.215042 -0.507448 34,000 347 415 64
2022-08-05 07:44:55 GMT 46.208405 -0.505165 34,000 347 415 0
2022-08-05 07:44:51 GMT 46.199341 -0.502156 34,000 347 415 64
2022-08-05 07:44:48 GMT 46.194855 -0.500615 34,000 347 415 0
2022-08-05 07:44:44 GMT 46.187943 -0.498270 34,000 347 415 0
2022-08-05 07:44:41 GMT 46.182312 -0.496394 34,000 347 415 0
2022-08-05 07:44:38 GMT 46.170834 -0.492531 34,000 347 415 0
2022-08-05 07:44:35 GMT 46.170834 -0.492531 34,000 347 415 0
2022-08-05 07:44:32 GMT 46.166061 -0.490901 34,000 347 415 0
2022-08-05 07:44:29 GMT 46.158871 -0.488480 34,000 347 414 64
2022-08-05 07:44:26 GMT 46.154171 -0.486900 34,000 347 414 0
2022-08-05 07:44:21 GMT 46.144592 -0.483666 34,000 347 413 64
2022-08-05 07:44:16 GMT 46.135620 -0.480719 34,000 347 413 0
2022-08-05 07:44:13 GMT 46.129852 -0.478776 34,000 347 413 0
2022-08-05 07:44:10 GMT 46.124268 -0.476900 34,000 347 413 0
2022-08-05 07:44:06 GMT 46.115524 -0.473953 34,000 347 413 -64
2022-08-05 07:44:02 GMT 46.109940 -0.472077 34,000 347 414 -64
2022-08-05 07:43:58 GMT 46.096630 -0.467606 34,000 348 414 -64
2022-08-05 07:43:54 GMT 46.096630 -0.467606 34,000 347 414 -64
2022-08-05 07:43:51 GMT 46.088577 -0.464996 34,000 348 414 -64
2022-08-05 07:43:46 GMT 46.075123 -0.460533 34,000 348 414 -64
2022-08-05 07:43:43 GMT 46.075123 -0.460533 34,000 347 417 128
2022-08-05 07:43:37 GMT 46.063347 -0.456619 34,000 347 417 128
2022-08-05 07:43:34 GMT 46.050404 -0.452293 34,000 347 417 64
2022-08-05 07:43:30 GMT 46.050404 -0.452293 34,000 347 417 64
2022-08-05 07:43:26 GMT 46.042786 -0.449770 34,000 347 417 128
2022-08-05 07:43:22 GMT 46.034317 -0.446956 33,975 347 418 192
2022-08-05 07:43:19 GMT 46.029503 -0.445358 33,950 347 418 256
2022-08-05 07:43:16 GMT 46.023079 -0.443230 33,925 347 419 384
2022-08-05 07:43:13 GMT 46.018250 -0.441597 33,925 347 419 576
2022-08-05 07:43:10 GMT 46.011719 -0.439453 33,875 347 420 832
2022-08-05 07:43:07 GMT 46.006458 -0.437668 33,825 347 420 1088
2022-08-05 07:43:04 GMT 45.999344 -0.435300 33,750 347 420 1344
2022-08-05 07:43:02 GMT 45.996403 -0.434303 33,725 347 419 1536
2022-08-05 07:42:59 GMT 45.991516 -0.432655 33,650 347 419 1600
2022-08-05 07:42:56 GMT 45.979294 -0.428601 33,475 347 419 1728
2022-08-05 07:42:50 GMT 45.973549 -0.426682 33,400 347 419 1792
2022-08-05 07:42:45 GMT 45.964005 -0.423510 33,250 347 419 1856
2022-08-05 07:42:42 GMT 45.956928 -0.421120 33,125 347 419 1792
2022-08-05 07:42:37 GMT 45.945198 -0.417274 32,775 347 419 1728
2022-08-05 07:42:34 GMT 45.945198 -0.417274 32,775 347 419 1728
2022-08-05 07:42:30 GMT 45.937729 -0.414734 32,825 347 419 1792
2022-08-05 07:42:26 GMT 45.929695 -0.412125 32,700 347 419 1664
2022-08-05 07:42:23 GMT 45.918568 -0.408348 32,600 347 418 1664
2022-08-05 07:42:20 GMT 45.918568 -0.408348 32,350 347 418 1664
2022-08-05 07:42:16 GMT 45.909908 -0.405464 32,425 347 417 1728
2022-08-05 07:42:13 GMT 45.903301 -0.403267 32,325 347 417 1728
2022-08-05 07:42:09 GMT 45.898132 -0.401537 32,175 347 417 1792
2022-08-05 07:42:06 GMT 45.891617 -0.399353 32,150 347 417 1792
2022-08-05 07:42:03 GMT 45.884678 -0.397087 32,025 347 417 2048
2022-08-05 07:41:59 GMT 45.877441 -0.394637 31,875 347 417 2048
2022-08-05 07:41:54 GMT 45.866428 -0.390976 31,675 348 418 2048
2022-08-05 07:41:51 GMT 45.862659 -0.389740 31,625 348 418 1984
2022-08-05 07:41:47 GMT 45.846725 -0.384454 31,300 348 418 2048
2022-08-05 07:41:43 GMT 45.846725 -0.384454 31,325 348 418 2048
2022-08-05 07:41:40 GMT 45.842690 -0.383148 31,250 348 418 1984
2022-08-05 07:41:36 GMT 45.835236 -0.380703 30,975 348 418 1984
2022-08-05 07:41:31 GMT 45.823151 -0.376684 30,900 348 418 2112
2022-08-05 07:41:27 GMT 45.816559 -0.374540 30,700 348 418 2176
2022-08-05 07:41:22 GMT 45.803558 -0.370253 30,475 348 419 2112
2022-08-05 07:41:16 GMT 45.790222 -0.365913 30,400 348 419 2112
2022-08-05 07:41:13 GMT 45.790222 -0.365913 30,275 348 420 2240
2022-08-05 07:41:11 GMT 45.787262 -0.364960 30,225 348 420 2240
2022-08-05 07:41:08 GMT 45.781769 -0.363219 30,125 348 420 2368
2022-08-05 07:41:05 GMT 45.776028 -0.361382 30,000 348 420 2432
2022-08-05 07:41:00 GMT 45.766617 -0.358328 29,550 348 422 2496
2022-08-05 07:40:53 GMT 45.751007 -0.353304 29,425 348 423 2432
2022-08-05 07:40:50 GMT 45.747490 -0.352180 29,375 348 423 2432
2022-08-05 07:40:44 GMT 45.735947 -0.348481 29,125 348 424 2368
2022-08-05 07:40:40 GMT 45.728168 -0.346001 28,975 348 424 2304
2022-08-05 07:40:33 GMT 45.714890 -0.341715 28,525 348 424 2240
2022-08-05 07:40:29 GMT 45.708107 -0.339478 28,575 348 424 2240
2022-08-05 07:40:25 GMT 45.700424 -0.337006 28,425 349 425 1984
2022-08-05 07:40:20 GMT 45.689484 -0.333710 28,250 350 425 1920
2022-08-05 07:40:15 GMT 45.681610 -0.332001 28,125 355 427 1792
2022-08-05 07:40:11 GMT 45.671173 -0.330662 27,975 359 428 1664
2022-08-05 07:40:09 GMT 45.668198 -0.330461 27,925 359 428 1664
2022-08-05 07:40:06 GMT 45.660873 -0.330461 27,825 2 428 1728
2022-08-05 07:39:59 GMT 45.649429 -0.331399 27,650 6 429 1856
2022-08-05 07:39:51 GMT 45.633682 -0.334614 27,375 12 431 2624
2022-08-05 07:39:49 GMT 45.629013 -0.335954 27,275 12 431 2624
2022-08-05 07:39:42 GMT 45.616653 -0.340509 27,000 15 433 2560
2022-08-05 07:39:39 GMT 45.609695 -0.343803 26,850 20 435 2496
2022-08-05 07:39:35 GMT 45.602783 -0.347476 26,700 21 436 2368
2022-08-05 07:39:32 GMT 45.595688 -0.351496 26,550 21 436 2368
2022-08-05 07:39:28 GMT 45.590141 -0.354584 26,425 21 436 2368
2022-08-05 07:39:24 GMT 45.582088 -0.359116 26,100 21 436 2304
2022-08-05 07:39:20 GMT 45.574593 -0.363373 26,150 21 436 2112
2022-08-05 07:39:17 GMT 45.569893 -0.365982 26,025 21 435 1920
2022-08-05 07:39:14 GMT 45.562397 -0.370239 25,925 21 435 1728
2022-08-05 07:39:09 GMT 45.552341 -0.375870 25,750 21 433 1728
2022-08-05 07:39:03 GMT 45.543686 -0.380794 25,625 21 431 1728
2022-08-05 07:38:59 GMT 45.529083 -0.389034 25,400 21 429 1920
2022-08-05 07:38:55 GMT 45.529083 -0.389034 25,400 21 429 1920
2022-08-05 07:38:50 GMT 45.518127 -0.395173 25,200 21 427 1984
2022-08-05 07:38:47 GMT 45.514263 -0.397384 25,125 21 427 1984
2022-08-05 07:38:44 GMT 45.507652 -0.401135 25,000 21 425 1984
2022-08-05 07:38:40 GMT 45.498459 -0.406363 24,825 21 425 1984
2022-08-05 07:38:36 GMT 45.492966 -0.409502 24,725 21 424 1984
2022-08-05 07:38:33 GMT 45.488335 -0.412121 24,650 21 423 1920
2022-08-05 07:38:30 GMT 45.483772 -0.414734 24,575 21 422 1856
2022-08-05 07:38:28 GMT 45.478271 -0.417873 24,475 22 421 1856
2022-08-05 07:38:24 GMT 45.471481 -0.421768 24,325 21 420 1856
2022-08-05 07:38:21 GMT 45.465088 -0.425459 24,275 21 419 1920
2022-08-05 07:38:17 GMT 45.459503 -0.428598 24,150 21 417 2112
2022-08-05 07:38:14 GMT 45.452316 -0.432717 24,025 21 417 2112
2022-08-05 07:38:12 GMT 45.449249 -0.434418 23,950 21 417 2176
2022-08-05 07:38:09 GMT 45.443783 -0.437510 23,850 21 416 2240
2022-08-05 07:38:05 GMT 45.436890 -0.441350 23,550 20 415 2688
2022-08-05 07:38:02 GMT 45.431587 -0.444142 23,550 20 415 2688
2022-08-05 07:37:59 GMT 45.425720 -0.447170 23,400 19 414 2880
2022-08-05 07:37:55 GMT 45.418671 -0.450701 23,225 22 410 2368
2022-08-05 07:37:49 GMT 45.409195 -0.455598 23,000 20 416 2432
2022-08-05 07:37:47 GMT 45.405167 -0.457829 22,925 21 415 2304
2022-08-05 07:37:43 GMT 45.397369 -0.462163 22,750 21 415 2112
2022-08-05 07:37:39 GMT 45.389832 -0.466461 22,600 21 414 2176
2022-08-05 07:37:37 GMT 45.387081 -0.468058 22,550 22 413 2304
2022-08-05 07:37:33 GMT 45.380005 -0.472144 22,375 21 411 2368
2022-08-05 07:37:30 GMT 45.374451 -0.475289 22,275 21 411 2368
2022-08-05 07:37:27 GMT 45.368881 -0.478508 22,200 21 411 2368
2022-08-05 07:37:23 GMT 45.363060 -0.481791 21,975 22 410 2368
2022-08-05 07:37:20 GMT 45.351379 -0.488499 21,825 21 408 2304
2022-08-05 07:37:17 GMT 45.351379 -0.488499 21,750 21 408 2240
2022-08-05 07:37:12 GMT 45.343975 -0.492777 21,600 21 407 2112
2022-08-05 07:37:09 GMT 45.338791 -0.495693 21,500 21 406 2048
2022-08-05 07:37:07 GMT 45.333939 -0.498505 21,400 21 404 1984
2022-08-05 07:37:02 GMT 45.316418 -0.508453 21,000 21 401 1728
2022-08-05 07:36:57 GMT 45.316418 -0.508453 21,100 21 399 1728
2022-08-05 07:36:51 GMT 45.306244 -0.514265 20,900 21 395 2176
2022-08-05 07:36:49 GMT 45.302673 -0.516357 20,825 22 394 2496
2022-08-05 07:36:47 GMT 45.298599 -0.518646 20,725 22 394 2624
2022-08-05 07:36:41 GMT 45.289555 -0.523860 20,475 22 393 2944
2022-08-05 07:36:36 GMT 45.281639 -0.528416 20,250 22 393 2944
2022-08-05 07:36:32 GMT 45.274292 -0.532575 20,025 22 393 2880
2022-08-05 07:36:29 GMT 45.269897 -0.535126 19,925 21 393 2752
2022-08-05 07:36:25 GMT 45.263763 -0.538598 19,750 21 392 2624
2022-08-05 07:36:22 GMT 45.257812 -0.542058 19,600 22 391 2688
2022-08-05 07:36:18 GMT 45.247238 -0.548074 19,375 22 390 2624
2022-08-05 07:36:16 GMT 45.247238 -0.548074 19,325 22 390 2560
2022-08-05 07:36:12 GMT 45.240372 -0.551998 19,150 22 389 2496
2022-08-05 07:36:09 GMT 45.235321 -0.554944 19,025 22 388 2432
2022-08-05 07:36:03 GMT 45.226662 -0.559901 18,750 22 385 2368
2022-08-05 07:36:00 GMT 45.219913 -0.563786 18,550 22 384 2368
2022-08-05 07:35:57 GMT 45.216141 -0.565930 18,550 22 383 2432
2022-08-05 07:35:54 GMT 45.211258 -0.568739 18,425 22 383 2496
2022-08-05 07:35:50 GMT 45.204502 -0.572629 18,075 22 380 2752
2022-08-05 07:35:46 GMT 45.196499 -0.577184 18,025 22 379 2880
2022-08-05 07:35:41 GMT 45.191071 -0.580379 17,875 22 379 3072
2022-08-05 07:35:38 GMT 45.185028 -0.583845 17,675 22 379 3264
2022-08-05 07:35:35 GMT 45.181000 -0.586134 17,425 22 379 3264
2022-08-05 07:35:32 GMT 45.174316 -0.589992 17,300 22 379 3200
2022-08-05 07:35:24 GMT 45.161819 -0.597120 16,925 22 378 2944
2022-08-05 07:35:21 GMT 45.157608 -0.599540 16,675 21 377 2816
2022-08-05 07:35:16 GMT 45.149048 -0.604444 16,550 21 377 2752
2022-08-05 07:35:13 GMT 45.143940 -0.607330 16,400 21 376 2752
2022-08-05 07:35:09 GMT 45.138168 -0.610612 16,200 21 374 2816
2022-08-05 07:35:06 GMT 45.133759 -0.613142 16,200 21 374 2816
2022-08-05 07:35:04 GMT 45.129833 -0.615368 15,975 21 372 2816
2022-08-05 07:34:59 GMT 45.121361 -0.620192 15,750 21 371 2560
2022-08-05 07:34:56 GMT 45.118801 -0.621598 15,675 21 370 2432
2022-08-05 07:34:54 GMT 45.113937 -0.624324 15,575 21 368 2304
2022-08-05 07:34:51 GMT 45.109360 -0.626875 15,450 21 366 2304
2022-08-05 07:34:47 GMT 45.102905 -0.630471 15,300 21 364 2432
2022-08-05 07:34:43 GMT 45.097412 -0.633545 15,150 21 362 2752
2022-08-05 07:34:39 GMT 45.090546 -0.637403 14,500 25 361 3456
2022-08-05 07:34:36 GMT 45.085922 -0.640019 14,550 24 361 3456
2022-08-05 07:34:32 GMT 45.079010 -0.644204 14,475 24 361 3456
2022-08-05 07:34:29 GMT 45.074299 -0.647523 14,300 28 362 3456
2022-08-05 07:34:24 GMT 45.067360 -0.653285 14,025 34 363 3392
2022-08-05 07:34:20 GMT 45.062893 -0.657639 13,850 36 363 3328
2022-08-05 07:34:17 GMT 45.058868 -0.662057 13,725 38 363 3264
2022-08-05 07:34:14 GMT 45.054932 -0.666683 13,475 41 363 3136
2022-08-05 07:34:11 GMT 45.050491 -0.672324 13,350 41 362 3008
2022-08-05 07:34:08 GMT 45.047470 -0.676117 13,175 41 361 3264
2022-08-05 07:34:05 GMT 45.043121 -0.681610 13,075 41 361 3072
2022-08-05 07:34:03 GMT 45.040649 -0.684749 12,925 41 361 3200
2022-08-05 07:33:59 GMT 45.035473 -0.691268 12,650 41 359 3200
2022-08-05 07:33:55 GMT 45.031036 -0.696847 12,525 41 359 3200
2022-08-05 07:33:52 GMT 45.027885 -0.700847 12,375 41 359 3200
2022-08-05 07:33:48 GMT 45.022522 -0.707637 12,150 41 358 3264
2022-08-05 07:33:43 GMT 45.015549 -0.716389 11,850 41 356 3200
2022-08-05 07:33:39 GMT 45.010117 -0.723332 11,425 41 354 0
2022-08-05 07:33:34 GMT 45.002373 -0.733069 11,325 41 351 2560
2022-08-05 07:33:28 GMT 44.994041 -0.743520 11,075 41 345 1920
2022-08-05 07:33:25 GMT 44.994041 -0.743520 11,075 41 345 1920
2022-08-05 07:33:22 GMT 44.991203 -0.747137 11,000 41 343 1728
2022-08-05 07:33:18 GMT 44.985802 -0.753970 10,825 42 332 1280
2022-08-05 07:33:13 GMT 44.979935 -0.761406 10,775 42 329 1280
2022-08-05 07:33:08 GMT 44.974026 -0.768976 10,550 42 318 1664
2022-08-05 07:33:03 GMT 44.969055 -0.775386 10,525 42 315 1856
2022-08-05 07:32:58 GMT 44.963699 -0.782318 10,325 42 309 2752
2022-08-05 07:32:53 GMT 44.958103 -0.789609 10,050 42 307 3264
2022-08-05 07:32:47 GMT 44.952797 -0.796576 9,525 30 302 3648
2022-08-05 07:32:42 GMT 44.947128 -0.803637 9,475 39 304 3456
2022-08-05 07:32:38 GMT 44.942505 -0.808476 9,225 30 302 3584
2022-08-05 07:32:33 GMT 44.936417 -0.813250 8,900 23 301 3392
2022-08-05 07:32:30 GMT 44.932022 -0.815669 8,750 15 298 3136
2022-08-05 07:32:25 GMT 44.925476 -0.818024 8,500 4 291 2688
2022-08-05 07:32:22 GMT 44.914532 -0.819017 8,250 0 288 3200
2022-08-05 07:32:16 GMT 44.908493 -0.818547 5,825 359 287 3392
2022-08-05 07:32:12 GMT 44.908493 -0.818547 7,625 356 284 4032
2022-08-05 07:32:09 GMT 44.904476 -0.818146 7,625 356 284 4032
2022-08-05 07:32:04 GMT 44.897678 -0.817477 7,275 356 284 4032
2022-08-05 07:32:02 GMT 44.894653 -0.817209 6,975 357 284 3840
2022-08-05 07:31:59 GMT 44.891556 -0.816912 6,975 357 284 3648
2022-08-05 07:31:52 GMT 44.882175 -0.816070 6,525 357 281 3328
2022-08-05 07:31:49 GMT 44.878265 -0.815735 6,400 357 280 3200
2022-08-05 07:31:44 GMT 44.869514 -0.814998 6,100 357 276 2880
2022-08-05 07:31:42 GMT 44.869514 -0.814998 6,050 357 275 2816
2022-08-05 07:31:37 GMT 44.862854 -0.814492 5,800 357 260 2368
2022-08-05 07:31:33 GMT 44.858276 -0.814100 5,700 357 260 2368
2022-08-05 07:31:31 GMT 44.855736 -0.813926 5,600 357 264 2304
2022-08-05 07:31:27 GMT 44.850521 -0.813524 5,225 357 252 2240
2022-08-05 07:31:21 GMT 44.844452 -0.813054 5,250 357 251 2240
2022-08-05 07:31:16 GMT 44.837860 -0.812519 5,025 357 242 2304
2022-08-05 07:31:12 GMT 44.834106 -0.812204 4,875 357 237 2304
2022-08-05 07:31:09 GMT 44.829758 -0.811877 4,750 357 232 2176
2022-08-05 07:31:06 GMT 44.826874 -0.811615 4,675 357 228 2112
2022-08-05 07:31:02 GMT 44.821976 -0.811157 4,425 357 218 1984
2022-08-05 07:30:58 GMT 44.818726 -0.810830 4,400 357 216 1920
2022-08-05 07:30:51 GMT 44.811558 -0.810108 4,175 356 207 1856
2022-08-05 07:30:48 GMT 44.809090 -0.809840 4,100 355 204 1664
2022-08-05 07:30:41 GMT 44.802666 -0.808969 3,925 354 195 1216
2022-08-05 07:30:38 GMT 44.799545 -0.808433 3,850 352 191 1344
2022-08-05 07:30:32 GMT 44.793865 -0.807026 3,675 344 183 1280
2022-08-05 07:30:28 GMT 44.791447 -0.805954 3,550 317 176 1088
2022-08-05 07:30:24 GMT 44.788235 -0.803342 3,550 317 176 1088
2022-08-05 07:30:20 GMT 44.786232 -0.800662 3,500 310 174 1088
2022-08-05 07:30:17 GMT 44.784927 -0.797983 3,425 299 171 1088
2022-08-05 07:30:09 GMT 44.783161 -0.789743 3,325 276 166 1088
2022-08-05 07:30:06 GMT 44.783253 -0.786527 3,225 263 164 1216
2022-08-05 07:30:00 GMT 44.784512 -0.780029 3,075 240 161 1536
2022-08-05 07:29:56 GMT 44.785812 -0.776760 2,700 231 160 1536
2022-08-05 07:29:51 GMT 44.788326 -0.772459 2,500 226 157 1920
2022-08-05 07:29:47 GMT 44.790188 -0.769847 2,700 225 157 2112
2022-08-05 07:29:41 GMT 44.793777 -0.764858 2,350 225 158 2432
We lost coverage of the aircraft here for a total of 77 minutes
2022-08-05 06:12:18 GMT 44.848797 -0.686646 375 226 129 -768
2022-08-05 06:12:11 GMT 44.852150 -0.681822 475 226 131 -768
2022-08-05 06:12:01 GMT 44.856525 -0.675525 575 226 134 -704
2022-08-05 06:11:51 GMT 44.860840 -0.669381 700 226 136 -704
2022-08-05 06:11:42 GMT 44.864868 -0.663627 800 226 140 -704
2022-08-05 06:11:33 GMT 44.868629 -0.658309 900 226 143 -704
2022-08-05 06:11:30 GMT 44.869904 -0.656433 925 227 145 -704
2022-08-05 06:11:21 GMT 44.874435 -0.649894 1,075 225 152 -768
2022-08-05 06:11:18 GMT 44.877102 -0.646184 1,125 226 156 -896
2022-08-05 06:11:16 GMT 44.877102 -0.646184 1,125 226 160 -1024
2022-08-05 06:11:13 GMT 44.878464 -0.644204 1,175 226 160 -1024
2022-08-05 06:11:10 GMT 44.880081 -0.641896 1,225 226 161 -960
2022-08-05 06:11:04 GMT 44.883957 -0.636292 1,325 226 171 -768
2022-08-05 06:11:00 GMT 44.885422 -0.634199 1,400 226 173 -960
2022-08-05 06:10:53 GMT 44.889626 -0.628096 1,625 226 176 -960
2022-08-05 06:10:50 GMT 44.891300 -0.625752 1,625 226 187 -960
2022-08-05 06:10:43 GMT 44.895264 -0.620139 1,625 226 187 -960
2022-08-05 06:10:37 GMT 44.899403 -0.614163 1,675 226 187 -960
2022-08-05 06:10:33 GMT 44.901489 -0.611180 1,825 226 187 -960
2022-08-05 06:10:30 GMT 44.903263 -0.608535 1,825 226 187 -960
2022-08-05 06:10:23 GMT 44.907623 -0.602286 2,100 226 185 -896
2022-08-05 06:10:20 GMT 44.913460 -0.593999 2,100 225 185 -960
2022-08-05 06:10:13 GMT 44.914673 -0.592346 2,125 226 185 -1024
2022-08-05 06:10:11 GMT 44.914673 -0.592346 2,125 226 186 -1024
2022-08-05 06:10:09 GMT 44.915909 -0.590515 2,175 226 186 -1024
2022-08-05 06:10:07 GMT 44.917007 -0.588946 2,200 226 186 -1024
2022-08-05 06:10:02 GMT 44.921585 -0.582341 2,300 226 186 -1024
2022-08-05 06:10:00 GMT 44.921585 -0.582341 2,350 226 186 -1024
2022-08-05 06:09:55 GMT 44.924515 -0.578090 2,425 226 187 -1152
2022-08-05 06:09:53 GMT 44.925888 -0.576194 2,450 226 187 -1152
2022-08-05 06:09:50 GMT 44.927750 -0.573567 2,575 226 186 -1024
2022-08-05 06:09:46 GMT 44.930126 -0.570150 2,575 226 186 -1024
2022-08-05 06:09:42 GMT 44.932205 -0.567169 2,625 226 187 -960
2022-08-05 06:09:38 GMT 44.934448 -0.563965 2,700 226 188 -1024
2022-08-05 06:09:36 GMT 44.935684 -0.562199 2,725 226 188 -896
2022-08-05 06:09:32 GMT 44.938271 -0.558427 2,900 226 188 -896
2022-08-05 06:09:29 GMT 44.939762 -0.556216 2,900 226 188 -640
2022-08-05 06:09:22 GMT 44.944656 -0.549251 2,900 226 192 -192
2022-08-05 06:09:11 GMT 44.951073 -0.540206 2,900 225 194 0
2022-08-05 06:09:08 GMT 44.953354 -0.537088 2,900 224 194 64
2022-08-05 06:09:02 GMT 44.957199 -0.531921 2,900 223 196 -64
2022-08-05 06:08:59 GMT 44.960011 -0.528282 2,900 222 197 0
2022-08-05 06:08:51 GMT 44.964760 -0.522855 2,900 216 199 -64
2022-08-05 06:08:42 GMT 44.972626 -0.516292 2,900 203 202 64
2022-08-05 06:08:36 GMT 44.977661 -0.514069 2,875 188 206 64
2022-08-05 06:08:31 GMT 44.982468 -0.513807 2,875 166 216 0
2022-08-05 06:08:28 GMT 44.985306 -0.514461 2,875 157 226 0
2022-08-05 06:08:19 GMT 44.996555 -0.520511 2,900 153 237 -64
2022-08-05 06:08:11 GMT 45.001923 -0.523878 2,900 153 237 -64
2022-08-05 06:08:07 GMT 45.005402 -0.526339 2,900 150 239 -128
2022-08-05 06:07:58 GMT 45.014805 -0.534512 2,925 145 242 -128
2022-08-05 06:07:51 GMT 45.020874 -0.540423 2,925 145 249 -320
2022-08-05 06:07:40 GMT 45.030769 -0.550187 3,275 144 261 -960
2022-08-05 06:07:28 GMT 45.042969 -0.563451 3,350 138 272 -2048
2022-08-05 06:07:21 GMT 45.049763 -0.572160 3,600 135 275 -1856
2022-08-05 06:07:18 GMT 45.053490 -0.577385 3,675 134 278 -1472
2022-08-05 06:07:14 GMT 45.060051 -0.586898 3,825 134 282 -1280
2022-08-05 06:07:09 GMT 45.060051 -0.586898 3,825 134 285 -1152
2022-08-05 06:07:06 GMT 45.064224 -0.593066 3,925 132 293 -1280
2022-08-05 06:07:03 GMT 45.066193 -0.596008 3,975 129 305 -1280
2022-08-05 06:07:00 GMT 45.069031 -0.600390 4,050 129 305 -1280
2022-08-05 06:06:56 GMT 45.072529 -0.606124 4,100 129 305 -1280
2022-08-05 06:06:53 GMT 45.074844 -0.610003 4,200 129 305 -1280
2022-08-05 06:06:48 GMT 45.082256 -0.623407 4,375 127 315 -1408
2022-08-05 06:06:45 GMT 45.082256 -0.623407 4,375 127 325 -1472
2022-08-05 06:06:40 GMT 45.087051 -0.632250 4,500 127 325 -1472
2022-08-05 06:06:38 GMT 45.088028 -0.634003 4,525 127 327 -1472
2022-08-05 06:06:32 GMT 45.096596 -0.649600 4,700 127 340 -1472
2022-08-05 06:06:30 GMT 45.096596 -0.649600 4,875 127 345 -1472
2022-08-05 06:06:24 GMT 45.101532 -0.658591 4,875 128 355 -1664
2022-08-05 06:06:21 GMT 45.105534 -0.665812 5,000 127 368 -2432
2022-08-05 06:06:19 GMT 45.107529 -0.669381 5,050 127 368 -2432
2022-08-05 06:06:18 GMT 45.108536 -0.671212 5,100 127 368 -2432
2022-08-05 06:06:17 GMT 45.109535 -0.673047 5,125 127 368 -2432
2022-08-05 06:06:16 GMT 45.110641 -0.675005 5,175 127 368 -2432
2022-08-05 06:06:14 GMT 45.112610 -0.678602 5,250 127 368 -2432
2022-08-05 06:06:07 GMT 45.119156 -0.690635 5,600 126 371 -4224
2022-08-05 06:05:59 GMT 45.127739 -0.707278 6,275 125 373 -4736
2022-08-05 06:05:56 GMT 45.130783 -0.713392 6,500 124 374 -4928
2022-08-05 06:05:53 GMT 45.133850 -0.719604 6,775 124 374 -4992
2022-08-05 06:05:49 GMT 45.137608 -0.727308 7,325 124 375 -4864
2022-08-05 06:05:46 GMT 45.140495 -0.733203 7,325 124 376 -4736
2022-08-05 06:05:45 GMT 45.141563 -0.735414 7,400 124 376 -4736
2022-08-05 06:05:43 GMT 45.143600 -0.739550 7,550 124 376 -4544
2022-08-05 06:05:41 GMT 45.145523 -0.743520 7,725 124 377 -4480
2022-08-05 06:05:40 GMT 45.146591 -0.745798 7,800 124 378 -4352
2022-08-05 06:05:39 GMT 45.147537 -0.747724 7,850 124 379 -4096
2022-08-05 06:05:37 GMT 45.150642 -0.754171 8,075 124 379 -4032
2022-08-05 06:05:36 GMT 45.150642 -0.754171 8,075 124 384 -3328
2022-08-05 06:05:34 GMT 45.152664 -0.758384 8,200 124 384 -3328
2022-08-05 06:05:33 GMT 45.153671 -0.760411 8,250 124 384 -3072
2022-08-05 06:05:30 GMT 45.155624 -0.764488 8,350 124 386 -2816
2022-08-05 06:05:28 GMT 45.157532 -0.768440 8,475 124 391 -2560
2022-08-05 06:05:26 GMT 45.160538 -0.774667 8,525 124 391 -2560
2022-08-05 06:05:23 GMT 45.164284 -0.782374 8,725 124 394 -3008
2022-08-05 06:05:19 GMT 45.167400 -0.788738 8,925 124 394 -3136
2022-08-05 06:05:17 GMT 45.180130 -0.815016 9,050 124 394 -3328
2022-08-05 06:05:07 GMT 45.180130 -0.815016 9,525 124 396 -2880
2022-08-05 06:05:04 GMT 45.183060 -0.820966 9,675 124 398 -2944
2022-08-05 06:04:56 GMT 45.191528 -0.838231 10,075 124 398 -2944
2022-08-05 06:04:53 GMT 45.194778 -0.844901 10,225 124 398 -3008
2022-08-05 06:04:47 GMT 45.201508 -0.858634 10,550 124 399 -3200
2022-08-05 06:04:44 GMT 45.203667 -0.863030 10,650 124 399 -3200
2022-08-05 06:04:40 GMT 45.214417 -0.885184 11,250 124 402 -2816
2022-08-05 06:04:34 GMT 45.214417 -0.885184 11,175 124 401 -2944
2022-08-05 06:04:25 GMT 45.234947 -0.927407 11,675 124 402 -2560
2022-08-05 06:04:15 GMT 45.234947 -0.927407 11,925 124 406 0
2022-08-05 06:04:12 GMT 45.238113 -0.933905 11,975 124 406 0
2022-08-05 06:04:09 GMT 45.240768 -0.939398 11,975 124 406 0
2022-08-05 06:04:07 GMT 45.242908 -0.943752 12,000 124 406 0
2022-08-05 06:04:03 GMT 45.247147 -0.952528 12,000 124 406 0
2022-08-05 06:03:54 GMT 45.257355 -0.973533 12,000 124 409 0
2022-08-05 06:03:46 GMT 45.265068 -0.989372 12,000 124 410 0
2022-08-05 06:03:43 GMT 45.268890 -0.997205 12,000 124 411 64
2022-08-05 06:03:36 GMT 45.280060 -1.020290 12,000 124 411 64
2022-08-05 06:03:32 GMT 45.280060 -1.020290 12,000 124 409 0
2022-08-05 06:03:24 GMT 45.288902 -1.038610 12,000 124 410 0
2022-08-05 06:03:22 GMT 45.291512 -1.043902 12,000 124 409 0
2022-08-05 06:03:16 GMT 45.298492 -1.058305 12,000 124 409 64
2022-08-05 06:03:11 GMT 45.302868 -1.067416 12,000 124 409 0
2022-08-05 06:03:04 GMT 45.310177 -1.082488 12,000 124 409 0
2022-08-05 06:03:01 GMT 45.314602 -1.091532 12,000 124 409 0
2022-08-05 06:02:59 GMT 45.315670 -1.093743 12,000 124 409 0
2022-08-05 06:02:57 GMT 45.319244 -1.101183 12,000 124 409 0
2022-08-05 06:02:53 GMT 45.322842 -1.108614 12,000 124 409 0
2022-08-05 06:02:50 GMT 45.325634 -1.114375 12,000 124 410 0
2022-08-05 06:02:46 GMT 45.329449 -1.122347 12,000 124 410 0
2022-08-05 06:02:43 GMT 45.333298 -1.130284 12,000 124 409 0
2022-08-05 06:02:40 GMT 45.336246 -1.136348 12,000 124 409 0
2022-08-05 06:02:39 GMT 45.337410 -1.138827 12,000 124 409 0
2022-08-05 06:02:37 GMT 45.339615 -1.143363 12,000 124 409 0
2022-08-05 06:02:36 GMT 45.341125 -1.146436 12,000 124 410 64
2022-08-05 06:02:33 GMT 45.345200 -1.154872 12,000 124 410 0
2022-08-05 06:02:31 GMT 45.346390 -1.157357 12,000 124 410 64
2022-08-05 06:02:27 GMT 45.350723 -1.166360 12,000 124 411 0
2022-08-05 06:02:20 GMT 45.358265 -1.181968 12,000 124 413 -64
2022-08-05 06:02:16 GMT 45.366852 -1.199799 12,000 124 414 0
2022-08-05 06:02:12 GMT 45.366852 -1.199799 12,000 124 414 0
2022-08-05 06:02:08 GMT 45.371254 -1.208898 12,000 124 414 0
2022-08-05 06:02:03 GMT 45.377071 -1.220956 12,000 124 414 0
2022-08-05 06:01:56 GMT 45.382938 -1.233148 12,000 124 414 0
2022-08-05 06:01:54 GMT 45.385174 -1.237838 12,000 124 414 0
2022-08-05 06:01:53 GMT 45.386292 -1.240115 12,000 124 414 0
2022-08-05 06:01:51 GMT 45.388432 -1.244604 12,000 124 414 0
2022-08-05 06:01:48 GMT 45.394547 -1.257281 12,000 124 414 0
2022-08-05 06:01:46 GMT 45.394547 -1.257281 12,000 124 414 0
2022-08-05 06:01:45 GMT 45.395508 -1.259308 12,000 124 414 64
2022-08-05 06:01:44 GMT 45.397751 -1.264016 12,000 124 414 0
2022-08-05 06:01:41 GMT 45.399883 -1.268385 12,000 124 414 0
2022-08-05 06:01:39 GMT 45.402119 -1.273141 12,000 124 414 0
2022-08-05 06:01:37 GMT 45.404343 -1.277749 12,000 124 413 0
2022-08-05 06:01:34 GMT 45.407516 -1.284396 12,000 124 414 -64
2022-08-05 06:01:31 GMT 45.410545 -1.290693 12,000 124 414 0
2022-08-05 06:01:25 GMT 45.421509 -1.313520 12,000 124 415 0
2022-08-05 06:01:21 GMT 45.421509 -1.313520 12,000 124 415 0
2022-08-05 06:01:19 GMT 45.423889 -1.318490 12,000 124 415 0
2022-08-05 06:01:14 GMT 45.428795 -1.328743 12,000 124 415 0
2022-08-05 06:01:10 GMT 45.433365 -1.338305 12,000 124 415 0
2022-08-05 06:01:04 GMT 45.440151 -1.352390 12,000 124 415 0
2022-08-05 06:01:01 GMT 45.442703 -1.357727 12,000 124 415 0
2022-08-05 06:00:52 GMT 45.452454 -1.377999 12,000 124 415 0
2022-08-05 06:00:50 GMT 45.455654 -1.384679 12,000 124 415 0
2022-08-05 06:00:47 GMT 45.458542 -1.390708 12,000 124 415 0
2022-08-05 06:00:46 GMT 45.461975 -1.397814 12,000 124 415 -64
2022-08-05 06:00:44 GMT 45.464592 -1.403369 12,000 124 415 -64
2022-08-05 06:00:41 GMT 45.464592 -1.403369 12,000 124 414 -64
2022-08-05 06:00:36 GMT 45.470737 -1.416231 12,000 124 414 -64
2022-08-05 06:00:35 GMT 45.473740 -1.422403 12,000 124 414 -64
2022-08-05 06:00:33 GMT 45.473740 -1.422403 12,000 124 414 -64
2022-08-05 06:00:32 GMT 45.474834 -1.424806 12,000 124 414 -64
2022-08-05 06:00:31 GMT 45.476044 -1.427285 12,000 124 414 -64
2022-08-05 06:00:29 GMT 45.478184 -1.431773 12,000 124 414 -64
2022-08-05 06:00:27 GMT 45.479782 -1.435089 12,000 124 414 -64
2022-08-05 06:00:26 GMT 45.481476 -1.438686 12,000 124 414 -64
2022-08-05 06:00:22 GMT 45.486099 -1.448364 12,000 124 414 0
2022-08-05 06:00:19 GMT 45.488251 -1.452876 12,000 124 414 0
2022-08-05 06:00:18 GMT 45.489349 -1.455100 12,000 124 414 0
2022-08-05 06:00:15 GMT 45.493973 -1.464844 12,000 124 414 0
2022-08-05 06:00:11 GMT 45.496944 -1.471029 12,000 124 414 0
2022-08-05 06:00:10 GMT 45.497925 -1.473039 12,000 124 414 0
2022-08-05 06:00:08 GMT 45.501526 -1.480604 12,000 124 414 0
2022-08-05 06:00:07 GMT 45.502113 -1.481881 12,000 124 414 0
2022-08-05 06:00:03 GMT 45.508675 -1.495614 12,000 124 415 64
2022-08-05 06:00:00 GMT 45.508675 -1.495614 12,000 124 415 64
2022-08-05 05:59:55 GMT 45.514076 -1.506936 12,000 124 416 64
2022-08-05 05:59:51 GMT 45.518265 -1.515778 12,000 124 416 64
2022-08-05 05:59:49 GMT 45.521484 -1.522457 12,000 124 416 64
2022-08-05 05:59:48 GMT 45.522594 -1.524822 12,000 124 416 64
2022-08-05 05:59:46 GMT 45.523727 -1.527230 12,000 124 416 64
2022-08-05 05:59:45 GMT 45.524876 -1.529578 11,975 124 416 64
2022-08-05 05:59:39 GMT 45.532196 -1.544887 11,975 124 416 64
2022-08-05 05:59:37 GMT 45.534046 -1.548871 11,975 124 416 64
2022-08-05 05:59:34 GMT 45.538517 -1.558183 11,975 124 416 64
2022-08-05 05:59:32 GMT 45.538517 -1.558183 11,975 124 416 64
2022-08-05 05:59:29 GMT 45.545128 -1.572050 11,975 124 416 64
2022-08-05 05:59:26 GMT 45.545128 -1.572050 11,975 124 416 64
2022-08-05 05:59:24 GMT 45.547176 -1.576332 11,975 124 416 64
2022-08-05 05:59:23 GMT 45.548721 -1.579687 11,975 124 417 -64
2022-08-05 05:59:21 GMT 45.550781 -1.583974 11,975 124 417 -64
2022-08-05 05:59:20 GMT 45.552063 -1.586632 11,975 124 417 -64
2022-08-05 05:59:19 GMT 45.553070 -1.588797 12,000 123 418 -128
2022-08-05 05:59:14 GMT 45.558765 -1.600777 12,025 123 418 -320
2022-08-05 05:59:13 GMT 45.559746 -1.602837 12,025 123 419 -576
2022-08-05 05:59:11 GMT 45.562538 -1.608810 12,050 123 419 -576
2022-08-05 05:59:10 GMT 45.565842 -1.615794 12,075 123 419 -832
2022-08-05 05:59:08 GMT 45.565842 -1.615794 12,100 123 419 -832
2022-08-05 05:59:04 GMT 45.570030 -1.624603 12,150 123 419 -1216
2022-08-05 05:59:03 GMT 45.571663 -1.628036 12,200 123 419 -1216
2022-08-05 05:59:00 GMT 45.574875 -1.634903 12,275 123 419 -1472
2022-08-05 05:58:57 GMT 45.577744 -1.640982 12,350 123 419 -1664
2022-08-05 05:58:56 GMT 45.582882 -1.651863 12,500 123 418 -1792
2022-08-05 05:58:52 GMT 45.584091 -1.654335 12,525 123 417 -2112
2022-08-05 05:58:48 GMT 45.586651 -1.659828 12,600 123 417 -2304
2022-08-05 05:58:46 GMT 45.589645 -1.666103 12,725 123 417 -2624
2022-08-05 05:58:44 GMT 45.591156 -1.669319 12,775 123 417 -2624
2022-08-05 05:58:42 GMT 45.593719 -1.674745 12,875 123 417 -3008
2022-08-05 05:58:41 GMT 45.595230 -1.677961 12,950 123 417 -3072
2022-08-05 05:58:38 GMT 45.597839 -1.683454 13,075 124 417 -3008
2022-08-05 05:58:36 GMT 45.601730 -1.691627 13,225 124 419 -2944
2022-08-05 05:58:34 GMT 45.601730 -1.691627 13,250 124 419 -2944
2022-08-05 05:58:31 GMT 45.605530 -1.699665 13,400 124 419 -3008
2022-08-05 05:58:29 GMT 45.607227 -1.703224 13,450 124 419 -3008
2022-08-05 05:58:24 GMT 45.612488 -1.714336 13,975 124 421 -3008
2022-08-05 05:58:19 GMT 45.621597 -1.733428 14,150 124 422 -3264
2022-08-05 05:58:16 GMT 45.621597 -1.733428 14,150 124 422 -3200
2022-08-05 05:58:15 GMT 45.622776 -1.735840 14,200 124 422 -3200
2022-08-05 05:58:14 GMT 45.623985 -1.738380 14,250 124 422 -3200
2022-08-05 05:58:08 GMT 45.630569 -1.752118 14,550 124 422 -2816
2022-08-05 05:58:07 GMT 45.631714 -1.754517 14,600 124 423 -2752
2022-08-05 05:58:06 GMT 45.634964 -1.761296 14,700 124 424 -2368
2022-08-05 05:58:04 GMT 45.634964 -1.761296 14,700 124 424 -1856
2022-08-05 05:58:01 GMT 45.638371 -1.768387 14,800 124 425 -1472
2022-08-05 05:57:59 GMT 45.643307 -1.778549 14,875 124 427 -960
2022-08-05 05:57:57 GMT 45.643307 -1.778549 14,875 124 428 -576
2022-08-05 05:57:55 GMT 45.645073 -1.782257 14,900 124 428 -576
2022-08-05 05:57:54 GMT 45.648426 -1.789261 14,925 124 429 -448
2022-08-05 05:57:51 GMT 45.648426 -1.789261 14,925 124 429 -448
2022-08-05 05:57:50 GMT 45.649612 -1.791709 14,925 124 430 -384
2022-08-05 05:57:46 GMT 45.655083 -1.803062 14,975 124 430 -320
2022-08-05 05:57:44 GMT 45.657394 -1.807854 14,975 124 429 -384
2022-08-05 05:57:42 GMT 45.659599 -1.812401 15,000 124 429 -384
2022-08-05 05:57:38 GMT 45.664116 -1.821739 15,050 124 427 -640
2022-08-05 05:57:36 GMT 45.666443 -1.826683 15,075 124 427 -832
2022-08-05 05:57:34 GMT 45.670853 -1.835856 15,125 124 427 -1152
2022-08-05 05:57:32 GMT 45.670853 -1.835856 15,125 124 427 -1152
2022-08-05 05:57:29 GMT 45.674263 -1.842957 15,325 124 426 -1408
2022-08-05 05:57:24 GMT 45.679321 -1.853474 15,325 124 421 -1664
2022-08-05 05:57:22 GMT 45.681610 -1.858297 15,375 124 421 -1664
2022-08-05 05:57:21 GMT 45.683258 -1.861781 15,425 124 420 -1856
2022-08-05 05:57:17 GMT 45.687057 -1.869819 15,525 124 419 -2240
2022-08-05 05:57:16 GMT 45.688705 -1.873236 15,575 124 419 -2240
2022-08-05 05:57:14 GMT 45.690601 -1.877220 15,675 124 419 -2368
2022-08-05 05:57:12 GMT 45.692963 -1.882213 15,700 124 420 -2624
2022-08-05 05:57:11 GMT 45.694000 -1.884361 15,775 124 420 -2816
2022-08-05 05:57:08 GMT 45.696899 -1.890452 15,900 124 421 -2752
2022-08-05 05:57:06 GMT 45.699738 -1.896414 16,000 124 422 -2688
2022-08-05 05:57:01 GMT 45.704754 -1.906883 16,300 124 423 -3392
2022-08-05 05:56:59 GMT 45.707016 -1.911621 16,300 124 423 -3392
2022-08-05 05:56:58 GMT 45.710129 -1.918052 16,475 124 423 -3392
2022-08-05 05:56:56 GMT 45.711273 -1.920479 16,475 124 423 -3456
2022-08-05 05:56:54 GMT 45.712391 -1.922813 16,575 124 423 -3456
2022-08-05 05:56:52 GMT 45.715740 -1.929680 16,750 124 423 -3456
2022-08-05 05:56:49 GMT 45.718163 -1.934692 16,900 124 423 -3200
2022-08-05 05:56:48 GMT 45.722538 -1.943687 17,175 124 423 -3200
2022-08-05 05:56:45 GMT 45.722538 -1.943687 17,175 124 423 -3072
2022-08-05 05:56:43 GMT 45.724541 -1.947807 17,175 124 423 -2944
2022-08-05 05:56:41 GMT 45.726837 -1.952552 17,400 124 426 -2432
2022-08-05 05:56:38 GMT 45.730919 -1.960922 17,425 124 426 -2432
2022-08-05 05:56:37 GMT 45.731964 -1.963136 17,475 124 426 -2176
2022-08-05 05:56:34 GMT 45.735764 -1.970974 17,600 124 428 -2048
2022-08-05 05:56:33 GMT 45.736874 -1.973213 17,625 124 429 -1984
2022-08-05 05:56:32 GMT 45.737991 -1.975548 17,650 124 429 -1984
2022-08-05 05:56:31 GMT 45.740067 -1.979884 17,675 124 430 -2048
2022-08-05 05:56:29 GMT 45.741158 -1.982071 17,750 124 431 -2176
2022-08-05 05:56:28 GMT 45.742355 -1.984573 17,800 124 432 -2432
2022-08-05 05:56:24 GMT 45.746281 -1.992645 17,950 124 433 -2816
2022-08-05 05:56:20 GMT 45.750469 -2.001366 18,150 124 432 -3840
2022-08-05 05:56:19 GMT 45.751648 -2.003866 18,225 124 432 -3840
2022-08-05 05:56:17 GMT 45.755310 -2.011528 18,450 124 431 -4544
2022-08-05 05:56:15 GMT 45.756500 -2.013982 18,525 124 429 -4672
2022-08-05 05:56:13 GMT 45.758835 -2.018939 18,700 124 429 -4928
2022-08-05 05:56:12 GMT 45.759933 -2.021283 18,775 124 427 -4992
2022-08-05 05:56:11 GMT 45.761127 -2.023682 18,875 124 427 -4992
2022-08-05 05:56:08 GMT 45.764572 -2.030960 19,125 124 421 -5120
2022-08-05 05:56:04 GMT 45.768066 -2.038376 19,425 124 421 -5120
2022-08-05 05:56:03 GMT 45.769775 -2.041916 19,575 124 419 -5120
2022-08-05 05:56:01 GMT 45.771881 -2.046410 19,700 123 419 -4864
2022-08-05 05:55:59 GMT 45.773987 -2.050893 19,800 123 417 -4736
2022-08-05 05:55:56 GMT 45.777740 -2.058932 20,075 123 416 -3520
2022-08-05 05:55:54 GMT 45.779938 -2.063644 20,225 123 416 -3520
2022-08-05 05:55:53 GMT 45.780945 -2.065832 20,275 123 416 -3520
2022-08-05 05:55:50 GMT 45.785057 -2.074974 20,825 121 417 -3392
2022-08-05 05:55:49 GMT 45.785057 -2.074974 20,825 116 421 -3328
2022-08-05 05:55:46 GMT 45.787106 -2.079987 20,825 116 421 -3328
2022-08-05 05:55:43 GMT 45.791656 -2.092159 20,875 114 421 -3456
2022-08-05 05:55:37 GMT 45.795914 -2.105892 21,200 110 424 -3328
2022-08-05 05:55:33 GMT 45.798615 -2.116141 21,400 108 425 -3008
2022-08-05 05:55:31 GMT 45.799953 -2.121872 21,500 107 427 -2880
2022-08-05 05:55:29 GMT 45.800812 -2.126055 21,575 105 428 -2816
2022-08-05 05:55:27 GMT 45.801865 -2.131549 21,675 105 428 -2816
2022-08-05 05:55:24 GMT 45.803284 -2.139788 21,800 101 430 -2624
2022-08-05 05:55:21 GMT 45.804329 -2.147209 21,925 99 431 -2560
2022-08-05 05:55:18 GMT 45.805305 -2.155655 22,125 97 432 -2496
2022-08-05 05:55:16 GMT 45.805847 -2.161158 22,125 96 433 -2368
2022-08-05 05:55:13 GMT 45.806377 -2.168427 22,225 94 434 -2368
2022-08-05 05:55:11 GMT 45.806705 -2.174469 22,300 93 434 -2368
2022-08-05 05:55:09 GMT 45.806992 -2.182662 22,425 89 437 -2688
2022-08-05 05:55:07 GMT 45.807083 -2.188423 22,475 89 437 -2688
2022-08-05 05:55:04 GMT 45.807037 -2.193916 22,700 87 437 -2752
2022-08-05 05:55:02 GMT 45.806797 -2.203033 22,700 87 437 -2752
2022-08-05 05:55:00 GMT 45.806625 -2.207515 22,900 84 438 -2816
2022-08-05 05:54:58 GMT 45.806122 -2.214951 22,925 82 438 -2816
2022-08-05 05:54:56 GMT 45.805679 -2.220337 23,025 80 439 -2816
2022-08-05 05:54:55 GMT 45.805389 -2.223593 23,075 80 439 -2816
2022-08-05 05:54:53 GMT 45.804703 -2.229622 23,175 80 439 -2752
2022-08-05 05:54:51 GMT 45.804153 -2.233909 23,225 78 440 -2752
2022-08-05 05:54:49 GMT 45.803352 -2.239494 23,325 75 441 -2688
2022-08-05 05:54:46 GMT 45.801956 -2.247843 23,550 67 442 -3136
2022-08-05 05:54:43 GMT 45.797470 -2.267538 23,775 67 442 -3136
2022-08-05 05:54:39 GMT 45.797470 -2.267538 23,775 67 442 -3136
2022-08-05 05:54:36 GMT 45.795624 -2.273895 24,125 63 441 -3584
2022-08-05 05:54:33 GMT 45.792664 -2.283080 24,125 61 441 -3968
2022-08-05 05:54:32 GMT 45.788132 -2.294803 24,425 60 441 -4032
2022-08-05 05:54:29 GMT 45.788132 -2.294803 24,425 58 439 -4352
2022-08-05 05:54:28 GMT 45.787106 -2.297173 24,500 57 439 -4416
2022-08-05 05:54:25 GMT 45.783829 -2.304248 24,725 54 436 -4608
2022-08-05 05:54:23 GMT 45.781586 -2.308737 24,850 53 435 -4544
2022-08-05 05:54:22 GMT 45.779892 -2.311952 24,950 52 435 -4480
2022-08-05 05:54:21 GMT 45.778725 -2.314133 25,050 51 434 -4416
2022-08-05 05:54:18 GMT 45.774811 -2.320862 25,250 43 435 -1984
2022-08-05 05:54:16 GMT 45.772842 -2.324077 25,550 43 435 -1984
2022-08-05 05:54:12 GMT 45.766994 -2.332878 25,550 43 435 -1984
2022-08-05 05:54:07 GMT 45.760162 -2.342433 25,675 43 435 -1984
2022-08-05 05:54:04 GMT 45.756474 -2.347504 25,775 43 437 -1984
2022-08-05 05:54:00 GMT 45.751144 -2.354826 26,000 43 437 -1984
2022-08-05 05:53:57 GMT 45.745533 -2.362541 26,075 43 441 -2112
2022-08-05 05:53:54 GMT 45.741348 -2.368291 26,150 43 441 -2432
2022-08-05 05:53:52 GMT 45.739807 -2.370438 26,200 43 441 -2432
2022-08-05 05:53:50 GMT 45.736176 -2.375392 26,325 43 442 -3008
2022-08-05 05:53:47 GMT 45.730965 -2.382591 26,600 43 439 -4224
2022-08-05 05:53:44 GMT 45.727341 -2.387517 26,600 43 439 -4224
2022-08-05 05:53:41 GMT 45.723003 -2.393440 26,800 43 439 -4224
2022-08-05 05:53:38 GMT 45.717728 -2.400580 27,025 43 439 -4224
2022-08-05 05:53:35 GMT 45.713272 -2.406693 27,250 43 441 -4032
2022-08-05 05:53:29 GMT 45.699352 -2.425507 27,800 43 442 -4096
2022-08-05 05:53:26 GMT 45.699352 -2.425507 28,125 43 444 -4160
2022-08-05 05:53:22 GMT 45.694141 -2.432579 28,125 43 444 -4160
2022-08-05 05:53:21 GMT 45.692596 -2.434744 28,200 43 444 -4160
2022-08-05 05:53:20 GMT 45.685669 -2.444115 28,425 43 445 -4160
2022-08-05 05:53:17 GMT 45.685669 -2.444115 28,975 43 449 -4032
2022-08-05 05:53:11 GMT 45.672089 -2.462545 29,150 43 449 -4032
2022-08-05 05:53:07 GMT 45.672089 -2.462545 29,150 43 449 -4032
2022-08-05 05:53:06 GMT 45.670490 -2.464714 29,225 43 450 -3968
2022-08-05 05:53:02 GMT 45.664299 -2.473091 29,475 43 454 -3840
2022-08-05 05:53:00 GMT 45.661606 -2.476680 29,600 43 454 -3840
2022-08-05 05:52:58 GMT 45.657990 -2.481570 29,750 43 454 -3840
2022-08-05 05:52:55 GMT 45.653175 -2.488060 30,350 43 456 -4096
2022-08-05 05:52:49 GMT 45.644485 -2.499725 30,350 43 458 -4096
2022-08-05 05:52:47 GMT 45.641628 -2.503578 30,550 43 458 -4096
2022-08-05 05:52:44 GMT 45.638229 -2.508110 30,550 43 458 -4096
2022-08-05 05:52:42 GMT 45.626724 -2.523573 30,800 43 459 -4160
2022-08-05 05:52:37 GMT 45.626724 -2.523573 31,400 43 462 -4160
2022-08-05 05:52:34 GMT 45.620499 -2.531947 31,400 43 463 -4352
2022-08-05 05:52:30 GMT 45.613358 -2.541593 32,000 43 463 -4352
2022-08-05 05:52:25 GMT 45.605896 -2.551642 32,075 43 463 -4352
2022-08-05 05:52:17 GMT 45.592705 -2.569221 32,775 43 459 -4800
2022-08-05 05:52:09 GMT 45.582687 -2.582591 33,250 43 459 -4736
2022-08-05 05:52:07 GMT 45.579758 -2.586543 33,500 43 459 -4736
2022-08-05 05:52:04 GMT 45.575592 -2.592171 33,875 43 459 -4672
2022-08-05 05:51:58 GMT 45.563416 -2.608516 34,325 43 458 -2496
2022-08-05 05:51:52 GMT 45.557281 -2.616756 34,350 43 458 -2496
2022-08-05 05:51:51 GMT 45.555588 -2.619033 34,450 43 458 -2496
2022-08-05 05:51:47 GMT 45.549088 -2.627675 34,625 43 460 -2560
2022-08-05 05:51:45 GMT 45.546021 -2.631814 34,725 43 460 -2560
2022-08-05 05:51:44 GMT 45.544380 -2.633972 34,775 43 460 -2560
2022-08-05 05:51:42 GMT 45.541351 -2.638027 34,850 43 460 -2560
2022-08-05 05:51:40 GMT 45.538422 -2.642016 34,925 43 461 -2560
2022-08-05 05:51:37 GMT 45.533489 -2.648509 35,075 43 462 -2560
2022-08-05 05:51:36 GMT 45.532093 -2.650385 35,100 43 462 -2560
2022-08-05 05:51:35 GMT 45.530273 -2.652806 35,150 42 463 -2496
2022-08-05 05:51:34 GMT 45.528973 -2.654538 35,200 42 465 -2432
2022-08-05 05:51:32 GMT 45.525742 -2.658822 35,275 42 465 -2432
2022-08-05 05:51:30 GMT 45.522583 -2.662942 35,350 42 465 -2432
2022-08-05 05:51:26 GMT 45.515350 -2.672555 35,525 43 466 -2560
2022-08-05 05:51:23 GMT 45.510635 -2.678833 35,625 43 466 -2688
2022-08-05 05:51:17 GMT 45.500702 -2.692108 35,950 43 469 -3136
2022-08-05 05:51:15 GMT 45.497597 -2.696206 36,050 43 469 -3136
2022-08-05 05:51:14 GMT 45.489349 -2.707280 36,300 43 468 -3136
2022-08-05 05:51:10 GMT 45.489349 -2.707280 36,300 43 467 -3136
2022-08-05 05:51:07 GMT 45.485596 -2.712381 36,425 43 468 -3136
2022-08-05 05:51:01 GMT 45.476788 -2.724408 36,700 44 462 -3456
2022-08-05 05:50:57 GMT 45.469852 -2.733988 36,975 44 464 -3584
2022-08-05 05:50:48 GMT 45.456352 -2.752678 37,475 44 460 -3072
2022-08-05 05:50:46 GMT 45.453747 -2.756229 37,550 44 459 -2752
2022-08-05 05:50:39 GMT 45.443115 -2.770713 37,800 41 458 -1216
2022-08-05 05:50:36 GMT 45.437073 -2.778233 37,850 40 457 -832
2022-08-05 05:50:27 GMT 45.423065 -2.793143 37,925 31 455 -64
2022-08-05 05:50:25 GMT 45.418365 -2.797427 37,950 20 449 0
2022-08-05 05:50:18 GMT 45.405762 -2.807203 37,950 19 449 0
2022-08-05 05:50:15 GMT 45.399231 -2.811428 37,950 20 449 0
2022-08-05 05:50:06 GMT 45.382736 -2.819824 37,950 10 443 -64
2022-08-05 05:50:04 GMT 45.379944 -2.820936 37,950 14 446 -64
2022-08-05 05:49:58 GMT 45.367905 -2.824860 37,950 10 443 -64
2022-08-05 05:49:55 GMT 45.361572 -2.826501 37,950 9 443 0
2022-08-05 05:49:46 GMT 45.342545 -2.831007 37,950 9 442 0
2022-08-05 05:49:43 GMT 45.336201 -2.832530 37,950 9 443 -64
2022-08-05 05:49:37 GMT 45.324886 -2.835210 37,950 9 441 0
2022-08-05 05:49:35 GMT 45.321861 -2.835879 37,950 9 441 0
2022-08-05 05:49:25 GMT 45.301804 -2.840554 37,950 9 442 -64
2022-08-05 05:49:21 GMT 45.293518 -2.842516 37,975 9 442 -64
2022-08-05 05:49:16 GMT 45.281433 -2.845328 37,975 9 443 -64
2022-08-05 05:49:04 GMT 45.259415 -2.850494 37,975 9 443 -64
2022-08-05 05:48:56 GMT 45.235794 -2.856118 38,000 9 443 0
2022-08-05 05:48:53 GMT 45.235794 -2.856118 38,000 9 444 0
2022-08-05 05:48:46 GMT 45.215561 -2.860892 38,000 9 444 -64
2022-08-05 05:48:43 GMT 45.215561 -2.860892 38,000 9 444 -64
2022-08-05 05:48:34 GMT 45.197475 -2.865355 38,025 9 444 -64
2022-08-05 05:48:25 GMT 45.179646 -2.869709 38,025 9 445 -64
2022-08-05 05:48:22 GMT 45.172852 -2.871355 38,025 9 445 -64
2022-08-05 05:48:15 GMT 45.158325 -2.874868 38,025 9 445 -64
2022-08-05 05:48:12 GMT 45.152458 -2.876274 38,025 9 445 -64
2022-08-05 05:48:08 GMT 45.146439 -2.877764 38,050 9 445 0
2022-08-05 05:48:02 GMT 45.133255 -2.880968 38,025 9 446 128
2022-08-05 05:47:59 GMT 45.126434 -2.882638 38,025 9 446 64
2022-08-05 05:47:55 GMT 45.116592 -2.885023 38,025 9 447 0
2022-08-05 05:47:52 GMT 45.112423 -2.886055 38,025 9 447 0
2022-08-05 05:47:49 GMT 45.106201 -2.887573 38,025 9 447 0
2022-08-05 05:47:45 GMT 45.098736 -2.889337 38,025 9 447 64
2022-08-05 05:47:41 GMT 45.091095 -2.891235 38,025 9 447 64
2022-08-05 05:47:38 GMT 45.084679 -2.892754 38,025 9 448 64
2022-08-05 05:47:34 GMT 45.075211 -2.895094 38,000 9 448 64
2022-08-05 05:47:31 GMT 45.069672 -2.896402 38,000 9 448 0
2022-08-05 05:47:27 GMT 45.061707 -2.898298 38,000 9 448 0
2022-08-05 05:47:25 GMT 45.056702 -2.899520 38,000 9 449 0
2022-08-05 05:47:22 GMT 45.051498 -2.900783 38,000 9 449 0
2022-08-05 05:47:18 GMT 45.041340 -2.903137 38,000 9 449 0
2022-08-05 05:47:13 GMT 45.032959 -2.905147 38,000 9 449 -64
2022-08-05 05:47:10 GMT 45.026814 -2.906621 38,025 9 449 -64
2022-08-05 05:47:03 GMT 45.010529 -2.910461 38,025 9 449 0
2022-08-05 05:46:58 GMT 45.002563 -2.912358 38,025 9 449 0
2022-08-05 05:46:51 GMT 44.987709 -2.915865 38,000 9 450 64
2022-08-05 05:46:48 GMT 44.982285 -2.917132 38,000 9 450 64
2022-08-05 05:46:42 GMT 44.969231 -2.920220 38,000 9 450 0
2022-08-05 05:46:38 GMT 44.961960 -2.921906 38,000 9 451 -64
2022-08-05 05:46:35 GMT 44.953819 -2.923837 38,000 9 451 -64
2022-08-05 05:46:32 GMT 44.948093 -2.925177 38,000 9 451 -64
2022-08-05 05:46:27 GMT 44.939346 -2.927268 38,000 9 451 -64
2022-08-05 05:46:24 GMT 44.931152 -2.929164 38,000 9 451 -64
2022-08-05 05:46:21 GMT 44.927032 -2.930145 38,000 9 451 0
2022-08-05 05:46:15 GMT 44.912659 -2.933480 38,000 9 451 0
2022-08-05 05:46:13 GMT 44.909454 -2.934220 38,000 9 450 0
2022-08-05 05:46:06 GMT 44.895813 -2.937339 38,000 9 450 64
2022-08-05 05:46:03 GMT 44.889862 -2.938777 38,000 9 450 0
2022-08-05 05:46:01 GMT 44.886040 -2.939647 38,000 9 450 64
2022-08-05 05:45:56 GMT 44.875443 -2.942047 38,000 9 450 0
2022-08-05 05:45:52 GMT 44.867325 -2.943934 38,000 9 450 0
2022-08-05 05:45:49 GMT 44.861481 -2.945251 38,000 9 450 0
2022-08-05 05:45:46 GMT 44.853424 -2.947148 38,000 9 450 0
2022-08-05 05:45:42 GMT 44.842941 -2.949568 38,000 9 451 0
2022-08-05 05:45:33 GMT 44.826691 -2.953360 38,000 9 451 -64
2022-08-05 05:45:31 GMT 44.823395 -2.954145 38,000 9 451 -64
2022-08-05 05:45:25 GMT 44.810623 -2.957153 38,000 9 451 -64
2022-08-05 05:45:21 GMT 44.802105 -2.959208 38,025 9 451 0
2022-08-05 05:45:13 GMT 44.783707 -2.963562 38,025 9 451 0
2022-08-05 05:45:10 GMT 44.779587 -2.964478 38,025 9 451 0
2022-08-05 05:45:04 GMT 44.767227 -2.967420 38,025 9 451 0
2022-08-05 05:45:01 GMT 44.760956 -2.968921 38,025 9 451 0
2022-08-05 05:44:51 GMT 44.739960 -2.973811 38,025 9 452 0
2022-08-05 05:44:39 GMT 44.716599 -2.979322 38,025 9 452 0
2022-08-05 05:44:30 GMT 44.697876 -2.983704 38,000 9 452 0
2022-08-05 05:44:19 GMT 44.675297 -2.988951 38,025 9 452 -64
2022-08-05 05:44:11 GMT 44.656349 -2.993372 38,025 9 452 -64
2022-08-05 05:44:02 GMT 44.638138 -2.997567 38,025 9 451 0
2022-08-05 05:43:55 GMT 44.625595 -3.000510 38,025 9 451 64
2022-08-05 05:43:50 GMT 44.615753 -3.002799 38,025 9 451 64
2022-08-05 05:43:47 GMT 44.609055 -3.004359 38,025 9 451 64
2022-08-05 05:43:42 GMT 44.598392 -3.006837 38,025 9 451 0
2022-08-05 05:43:39 GMT 44.593460 -3.007976 38,025 9 451 0
2022-08-05 05:43:30 GMT 44.574646 -3.012347 38,000 9 450 64
2022-08-05 05:43:23 GMT 44.559292 -3.015814 38,000 9 450 64
2022-08-05 05:43:16 GMT 44.546448 -3.018755 38,000 9 450 64
2022-08-05 05:43:12 GMT 44.535965 -3.021175 38,000 9 450 64
2022-08-05 05:43:09 GMT 44.531963 -3.022044 38,000 9 451 64
2022-08-05 05:43:03 GMT 44.519531 -3.024902 38,000 9 451 64
2022-08-05 05:42:59 GMT 44.505241 -3.028207 38,000 9 450 64
2022-08-05 05:42:53 GMT 44.496864 -3.030217 38,000 9 450 64
2022-08-05 05:42:47 GMT 44.486996 -3.032495 37,975 9 450 64
2022-08-05 05:42:36 GMT 44.464230 -3.037854 37,975 9 450 0
2022-08-05 05:42:28 GMT 44.446518 -3.041970 37,975 9 449 0
2022-08-05 05:42:20 GMT 44.431877 -3.045357 37,975 9 449 0
2022-08-05 05:42:18 GMT 44.426151 -3.046696 37,975 9 449 0
2022-08-05 05:42:10 GMT 44.409576 -3.050649 37,975 9 448 0
2022-08-05 05:42:04 GMT 44.397102 -3.053529 37,975 9 448 0
2022-08-05 05:41:59 GMT 44.387699 -3.055740 37,975 9 448 0
2022-08-05 05:41:54 GMT 44.376984 -3.058254 37,975 9 448 0
2022-08-05 05:41:49 GMT 44.368378 -3.060216 37,975 9 448 0
2022-08-05 05:41:38 GMT 44.345901 -3.065513 37,975 9 448 0
2022-08-05 05:41:29 GMT 44.326309 -3.070090 37,975 9 448 64
2022-08-05 05:41:27 GMT 44.322151 -3.071014 37,975 9 448 64
2022-08-05 05:41:17 GMT 44.300812 -3.075976 37,975 9 447 -64
2022-08-05 05:41:14 GMT 44.296509 -3.077022 37,975 9 448 -64
2022-08-05 05:41:08 GMT 44.283794 -3.079923 37,975 9 447 -64
2022-08-05 05:41:00 GMT 44.267349 -3.083758 37,975 9 447 0
2022-08-05 05:40:58 GMT 44.263405 -3.084680 37,975 9 447 0
2022-08-05 05:40:46 GMT 44.238647 -3.090363 37,975 9 447 -64
2022-08-05 05:40:38 GMT 44.222672 -3.094058 38,000 9 447 -64
2022-08-05 05:40:31 GMT 44.208427 -3.097341 38,000 9 447 -64
2022-08-05 05:40:28 GMT 44.202209 -3.098798 38,000 9 447 -64
2022-08-05 05:40:20 GMT 44.186825 -3.102330 38,000 9 447 -64
2022-08-05 05:40:17 GMT 44.180603 -3.103765 38,000 9 447 -64
2022-08-05 05:40:07 GMT 44.158585 -3.108811 38,025 9 447 -128
2022-08-05 05:39:59 GMT 44.143707 -3.112261 38,050 9 447 0
2022-08-05 05:39:56 GMT 44.137714 -3.113643 38,050 9 447 0
2022-08-05 05:39:50 GMT 44.123421 -3.116913 38,050 9 447 0
2022-08-05 05:39:47 GMT 44.119141 -3.117828 38,025 9 447 0
2022-08-05 05:39:39 GMT 44.102612 -3.121621 38,025 9 447 0
2022-08-05 05:39:29 GMT 44.082321 -3.126377 38,025 9 448 0
2022-08-05 05:39:15 GMT 44.049961 -3.134046 38,025 9 448 0
2022-08-05 05:39:06 GMT 44.034832 -3.137774 38,025 10 449 0
2022-08-05 05:38:57 GMT 44.015717 -3.142537 38,025 10 449 0
2022-08-05 05:38:49 GMT 43.999500 -3.146733 38,025 10 449 0
2022-08-05 05:38:45 GMT 43.991352 -3.148826 38,025 10 449 0
2022-08-05 05:38:39 GMT 43.955788 -3.157915 38,050 9 448 0
2022-08-05 05:38:27 GMT 43.955788 -3.157915 38,050 9 448 0
2022-08-05 05:38:24 GMT 43.948666 -3.159681 38,050 9 448 0
2022-08-05 05:38:16 GMT 43.932278 -3.163539 38,025 8 448 0
2022-08-05 05:38:08 GMT 43.916309 -3.166744 38,025 7 447 0
2022-08-05 05:37:58 GMT 43.896286 -3.169875 38,025 5 446 64
2022-08-05 05:37:50 GMT 43.879349 -3.172041 38,025 5 446 64
2022-08-05 05:37:47 GMT 43.872971 -3.172891 38,025 5 446 64
2022-08-05 05:37:44 GMT 43.866714 -3.173707 38,025 5 446 64
2022-08-05 05:37:41 GMT 43.860867 -3.174460 38,025 5 446 64
2022-08-05 05:37:33 GMT 43.844013 -3.176618 38,025 5 445 0
2022-08-05 05:37:26 GMT 43.830139 -3.178370 38,000 5 445 64
2022-08-05 05:37:23 GMT 43.807892 -3.181196 38,000 5 444 -64
2022-08-05 05:37:16 GMT 43.807892 -3.181196 38,000 5 445 0
2022-08-05 05:37:13 GMT 43.803909 -3.181692 38,000 5 445 0
2022-08-05 05:37:08 GMT 43.789124 -3.183608 38,000 5 444 -64
2022-08-05 05:37:01 GMT 43.780659 -3.184727 38,025 5 444 -64
2022-08-05 05:36:58 GMT 43.771957 -3.185844 38,025 5 444 0
2022-08-05 05:36:55 GMT 43.767761 -3.186362 38,025 5 444 0
2022-08-05 05:36:51 GMT 43.759151 -3.187474 38,025 5 443 64
2022-08-05 05:36:47 GMT 43.750671 -3.188590 38,025 5 443 64
2022-08-05 05:36:43 GMT 43.742577 -3.189632 38,000 5 443 0
2022-08-05 05:36:36 GMT 43.727493 -3.191528 38,000 5 443 64
2022-08-05 05:36:33 GMT 43.722374 -3.192182 38,000 5 443 64
2022-08-05 05:36:26 GMT 43.707104 -3.194144 38,000 5 443 64
2022-08-05 05:36:23 GMT 43.701874 -3.194850 38,000 5 442 64
2022-08-05 05:36:17 GMT 43.689926 -3.196368 38,000 5 442 0
2022-08-05 05:36:14 GMT 43.681503 -3.197469 38,000 5 442 0
2022-08-05 05:36:10 GMT 43.673027 -3.198526 37,975 5 442 64
2022-08-05 05:36:07 GMT 43.668457 -3.199129 37,975 5 442 64
2022-08-05 05:36:02 GMT 43.659809 -3.200291 37,975 5 441 0
2022-08-05 05:35:57 GMT 43.648499 -3.201748 37,975 5 441 0
2022-08-05 05:35:55 GMT 43.643330 -3.202384 37,975 5 441 0
2022-08-05 05:35:51 GMT 43.635727 -3.203345 37,975 5 440 0
2022-08-05 05:35:46 GMT 43.626289 -3.204607 37,975 5 440 64
2022-08-05 05:35:42 GMT 43.617874 -3.205644 37,975 5 440 64
2022-08-05 05:35:40 GMT 43.612976 -3.206283 37,975 5 440 64
2022-08-05 05:35:36 GMT 43.605576 -3.207223 37,975 5 440 0
2022-08-05 05:35:32 GMT 43.592819 -3.208858 37,975 5 440 0
2022-08-05 05:35:26 GMT 43.585323 -3.209773 37,975 5 440 0
2022-08-05 05:35:22 GMT 43.576309 -3.210946 37,950 5 439 0
2022-08-05 05:35:20 GMT 43.572571 -3.211408 37,975 5 439 0
2022-08-05 05:35:15 GMT 43.563309 -3.212607 37,975 5 439 0
2022-08-05 05:35:12 GMT 43.557159 -3.213370 37,975 5 439 0
2022-08-05 05:35:10 GMT 43.550354 -3.214267 37,975 5 439 0
2022-08-05 05:35:06 GMT 43.544495 -3.214970 37,975 5 439 0
2022-08-05 05:35:00 GMT 43.530254 -3.216771 37,975 5 439 0
2022-08-05 05:34:56 GMT 43.524902 -3.217461 37,975 5 439 0
2022-08-05 05:34:52 GMT 43.516388 -3.218547 37,975 5 438 0
2022-08-05 05:34:48 GMT 43.508926 -3.219505 37,975 5 438 0
2022-08-05 05:34:45 GMT 43.503952 -3.220106 37,975 5 438 0
2022-08-05 05:34:41 GMT 43.494083 -3.221348 37,975 5 438 0
2022-08-05 05:34:35 GMT 43.483143 -3.222722 37,975 5 438 0
2022-08-05 05:34:31 GMT 43.473877 -3.223899 37,975 5 438 0
2022-08-05 05:34:29 GMT 43.468014 -3.224683 37,975 5 438 0
2022-08-05 05:34:25 GMT 43.462051 -3.225445 37,975 5 438 0
2022-08-05 05:34:22 GMT 43.454773 -3.226340 37,975 5 438 0
2022-08-05 05:34:15 GMT 43.440811 -3.228128 37,975 5 438 -64
2022-08-05 05:34:10 GMT 43.433762 -3.228958 37,975 5 438 -64
2022-08-05 05:34:06 GMT 43.422531 -3.230373 37,975 5 438 -64
2022-08-05 05:34:01 GMT 43.413940 -3.231386 37,975 5 438 0
2022-08-05 05:33:55 GMT 43.400986 -3.232983 37,975 5 439 0
2022-08-05 05:33:50 GMT 43.392700 -3.234005 37,975 5 439 0
2022-08-05 05:33:47 GMT 43.383591 -3.235154 37,975 5 439 0
2022-08-05 05:33:44 GMT 43.378632 -3.235801 37,975 5 439 0
2022-08-05 05:33:37 GMT 43.365505 -3.237435 37,975 5 439 0
2022-08-05 05:33:35 GMT 43.361641 -3.237893 37,975 5 439 0
2022-08-05 05:33:31 GMT 43.352234 -3.239114 37,975 5 440 0
2022-08-05 05:33:25 GMT 43.340881 -3.240520 37,975 5 440 0
2022-08-05 05:33:21 GMT 43.332031 -3.241686 37,975 5 440 -64
2022-08-05 05:33:15 GMT 43.320557 -3.243139 37,975 5 441 -64
2022-08-05 05:33:11 GMT 43.311737 -3.244237 37,975 5 441 -64
2022-08-05 05:33:05 GMT 43.300232 -3.245693 38,000 5 441 0
2022-08-05 05:33:00 GMT 43.288555 -3.247179 38,000 5 441 0
2022-08-05 05:32:55 GMT 43.280731 -3.248185 38,000 5 441 0
2022-08-05 05:32:49 GMT 43.268097 -3.249718 38,000 5 442 0
2022-08-05 05:32:45 GMT 43.257339 -3.251059 38,000 5 442 0
2022-08-05 05:32:39 GMT 43.248844 -3.252084 38,000 5 443 -64
2022-08-05 05:32:35 GMT 43.238232 -3.253392 38,000 5 443 -64
2022-08-05 05:32:30 GMT 43.228958 -3.254572 38,025 5 443 -128
2022-08-05 05:32:28 GMT 43.223831 -3.255211 38,025 5 443 -64
2022-08-05 05:32:24 GMT 43.215683 -3.256297 38,025 5 443 -64
2022-08-05 05:32:17 GMT 43.201454 -3.258100 38,025 5 444 0
2022-08-05 05:32:14 GMT 43.192978 -3.259171 38,025 5 444 0
2022-08-05 05:32:09 GMT 43.184883 -3.260193 38,025 5 444 0
2022-08-05 05:32:04 GMT 43.170731 -3.262024 38,025 5 445 0
2022-08-05 05:32:00 GMT 43.166748 -3.262492 38,025 5 445 0
2022-08-05 05:31:53 GMT 43.153923 -3.264117 38,025 5 445 -64
2022-08-05 05:31:50 GMT 43.145599 -3.265111 38,025 5 445 0
2022-08-05 05:31:38 GMT 43.123810 -3.267858 38,025 5 446 64
2022-08-05 05:31:34 GMT 43.112213 -3.269283 38,000 5 448 -64
2022-08-05 05:31:29 GMT 43.103439 -3.270413 38,000 5 447 64
2022-08-05 05:31:18 GMT 43.082512 -3.272945 38,000 5 448 -64
2022-08-05 05:31:08 GMT 43.060867 -3.275561 38,000 5 448 0
2022-08-05 05:31:03 GMT 43.047646 -3.277196 38,000 5 448 0
2022-08-05 05:30:59 GMT 43.040543 -3.278078 38,000 5 448 64
2022-08-05 05:30:52 GMT 43.027313 -3.279738 38,000 5 448 0
2022-08-05 05:30:48 GMT 43.017296 -3.280988 38,000 5 448 0
2022-08-05 05:30:41 GMT 43.005615 -3.282485 38,000 5 449 0
2022-08-05 05:30:38 GMT 42.999207 -3.283315 38,000 5 449 0
2022-08-05 05:30:35 GMT 42.991409 -3.284258 38,000 5 449 0
2022-08-05 05:30:31 GMT 42.984924 -3.285104 38,025 5 449 0
2022-08-05 05:30:27 GMT 42.976330 -3.286155 38,000 5 449 0
2022-08-05 05:30:23 GMT 42.967712 -3.287212 38,000 5 449 0
2022-08-05 05:30:21 GMT 42.963478 -3.287789 38,000 5 449 0
2022-08-05 05:30:18 GMT 42.956543 -3.288617 38,000 5 449 0
2022-08-05 05:30:14 GMT 42.949001 -3.289555 38,000 5 449 0
2022-08-05 05:30:07 GMT 42.934662 -3.291386 38,000 5 450 0
2022-08-05 05:30:02 GMT 42.924095 -3.292694 38,000 5 450 0
2022-08-05 05:29:58 GMT 42.915070 -3.293791 38,000 5 450 0
2022-08-05 05:29:47 GMT 42.893097 -3.296409 38,000 5 450 0
2022-08-05 05:29:40 GMT 42.877636 -3.298253 38,000 5 450 0
2022-08-05 05:29:37 GMT 42.871212 -3.299037 38,000 5 450 0
2022-08-05 05:29:30 GMT 42.856384 -3.300817 38,000 5 450 0
2022-08-05 05:29:26 GMT 42.850498 -3.301522 38,000 5 450 0
2022-08-05 05:29:20 GMT 42.834824 -3.303436 38,000 5 449 0
2022-08-05 05:29:16 GMT 42.829548 -3.304073 38,000 5 449 0
2022-08-05 05:29:09 GMT 42.813580 -3.306035 38,000 5 449 0
2022-08-05 05:29:05 GMT 42.806625 -3.306885 38,000 5 449 0
2022-08-05 05:29:03 GMT 42.800446 -3.307634 38,000 5 449 0
2022-08-05 05:28:57 GMT 42.787766 -3.309194 38,000 5 449 0
2022-08-05 05:28:54 GMT 42.781769 -3.309943 38,025 5 449 0
2022-08-05 05:28:46 GMT 42.765198 -3.311941 38,000 5 449 0
2022-08-05 05:28:39 GMT 42.750046 -3.313814 38,000 5 449 64
2022-08-05 05:28:36 GMT 42.745102 -3.314438 38,000 5 449 64
2022-08-05 05:28:26 GMT 42.725269 -3.316913 38,000 5 449 64
2022-08-05 05:28:21 GMT 42.714844 -3.318246 38,000 5 449 0
2022-08-05 05:28:15 GMT 42.703629 -3.319681 38,000 5 449 0
2022-08-05 05:28:06 GMT 42.682938 -3.322303 38,000 5 449 -64
2022-08-05 05:27:56 GMT 42.662201 -3.324925 38,000 5 450 0
2022-08-05 05:27:52 GMT 42.654045 -3.325983 38,025 5 450 0
2022-08-05 05:27:44 GMT 42.637894 -3.328091 38,025 5 449 0
2022-08-05 05:27:34 GMT 42.618988 -3.330418 38,025 5 449 64
2022-08-05 05:27:25 GMT 42.598892 -3.332915 38,000 5 449 64
2022-08-05 05:27:14 GMT 42.576210 -3.335820 38,000 5 449 64
2022-08-05 05:27:05 GMT 42.557281 -3.338096 38,000 5 449 0
2022-08-05 05:26:54 GMT 42.534641 -3.340802 38,000 5 448 -64
2022-08-05 05:26:44 GMT 42.512283 -3.343527 38,000 5 446 0
2022-08-05 05:26:35 GMT 42.493790 -3.345774 38,000 5 444 -64
2022-08-05 05:26:24 GMT 42.473190 -3.348275 38,025 5 443 0
2022-08-05 05:26:13 GMT 42.449963 -3.351086 38,000 5 442 64
2022-08-05 05:26:03 GMT 42.428967 -3.353704 37,975 5 443 128
2022-08-05 05:25:54 GMT 42.410580 -3.356004 37,900 5 444 960
2022-08-05 05:25:44 GMT 42.389969 -3.358508 37,725 5 444 896
2022-08-05 05:25:33 GMT 42.367565 -3.361114 37,550 4 444 896
2022-08-05 05:25:31 GMT 42.365387 -3.361379 37,550 4 444 896
2022-08-05 05:25:23 GMT 42.348038 -3.363377 37,450 4 442 640
2022-08-05 05:25:13 GMT 42.327255 -3.365811 37,350 5 441 640
2022-08-05 05:25:03 GMT 42.306152 -3.368371 37,200 5 439 960
2022-08-05 05:24:59 GMT 42.299057 -3.369245 37,150 5 439 896
2022-08-05 05:24:53 GMT 42.286285 -3.370805 37,050 5 439 832
2022-08-05 05:24:51 GMT 42.283585 -3.371142 37,025 5 439 832
2022-08-05 05:24:43 GMT 42.266174 -3.373314 36,950 5 437 384
2022-08-05 05:24:39 GMT 42.258537 -3.374272 36,925 5 435 448
2022-08-05 05:24:32 GMT 42.240337 -3.376507 36,850 5 434 576
2022-08-05 05:24:27 GMT 42.234650 -3.377235 36,800 5 432 1088
2022-08-05 05:24:21 GMT 42.221878 -3.378795 36,700 5 432 1152
2022-08-05 05:24:10 GMT 42.201233 -3.381298 36,500 5 432 1344
2022-08-05 05:24:01 GMT 42.182419 -3.383539 36,300 5 433 1216
2022-08-05 05:23:50 GMT 42.160263 -3.386224 36,050 5 432 1408
2022-08-05 05:23:41 GMT 42.141415 -3.388516 35,825 5 433 1344
2022-08-05 05:23:30 GMT 42.120529 -3.391030 35,600 5 433 1280
2022-08-05 05:23:19 GMT 42.099976 -3.393527 35,375 5 433 1472
2022-08-05 05:23:10 GMT 42.079010 -3.396086 35,100 5 433 1472
2022-08-05 05:22:59 GMT 42.049332 -3.399630 34,775 5 433 1344
2022-08-05 05:22:50 GMT 42.041245 -3.400581 34,675 5 433 1344
2022-08-05 05:22:44 GMT 42.028805 -3.402057 34,525 5 433 1472
2022-08-05 05:22:39 GMT 42.019318 -3.403202 34,400 5 433 1536
2022-08-05 05:22:31 GMT 42.002220 -3.405251 34,200 5 433 1536
2022-08-05 05:22:23 GMT 41.987183 -3.407010 34,000 5 433 1472
2022-08-05 05:22:20 GMT 41.982193 -3.407634 33,525 5 433 1920
2022-08-05 05:22:13 GMT 41.966747 -3.409466 33,750 5 432 1536
2022-08-05 05:22:05 GMT 41.951385 -3.411319 33,525 5 433 1920
2022-08-05 05:22:02 GMT 41.945892 -3.412004 33,250 5 433 1984
2022-08-05 05:21:59 GMT 41.938820 -3.412852 33,400 5 433 1920
2022-08-05 05:21:53 GMT 41.926201 -3.414385 33,125 5 434 1984
2022-08-05 05:21:49 GMT 41.918106 -3.415375 33,000 5 434 2048
2022-08-05 05:21:41 GMT 41.897827 -3.417809 32,700 5 436 2048
2022-08-05 05:21:38 GMT 41.897827 -3.417809 32,550 5 436 2048
2022-08-05 05:21:31 GMT 41.883839 -3.419431 32,350 5 437 1920
2022-08-05 05:21:28 GMT 41.877914 -3.420181 32,350 5 437 1856
2022-08-05 05:21:21 GMT 41.863869 -3.421794 32,100 4 436 832
2022-08-05 05:21:18 GMT 41.857025 -3.422624 32,100 4 436 832
2022-08-05 05:21:12 GMT 41.843155 -3.424285 32,025 4 436 256
2022-08-05 05:21:08 GMT 41.838821 -3.424801 32,025 5 436 64
2022-08-05 05:20:59 GMT 41.819092 -3.427110 32,000 5 436 0
2022-08-05 05:20:51 GMT 41.802513 -3.429140 32,000 5 437 64
2022-08-05 05:20:47 GMT 41.795067 -3.430034 32,000 5 437 128
2022-08-05 05:20:40 GMT 41.779633 -3.431854 31,925 5 437 384
2022-08-05 05:20:37 GMT 41.774490 -3.432525 31,950 5 437 320
2022-08-05 05:20:31 GMT 41.761780 -3.434058 31,875 5 437 832
2022-08-05 05:20:28 GMT 41.756519 -3.434697 31,850 5 437 1024
2022-08-05 05:20:21 GMT 41.741623 -3.436485 31,675 5 436 1728
2022-08-05 05:20:18 GMT 41.736694 -3.437035 31,625 5 436 1792
2022-08-05 05:20:11 GMT 41.721405 -3.438908 31,375 5 437 1984
2022-08-05 05:20:08 GMT 41.714855 -3.439679 31,275 5 437 1856
2022-08-05 05:19:59 GMT 41.696327 -3.441914 31,000 5 437 1664
2022-08-05 05:19:47 GMT 41.664642 -3.445712 30,600 5 435 1344
2022-08-05 05:19:40 GMT 41.659691 -3.446258 30,550 5 434 1280
2022-08-05 05:19:37 GMT 41.654709 -3.446833 30,500 5 433 1088
2022-08-05 05:19:30 GMT 41.639580 -3.448621 30,350 5 430 1088
2022-08-05 05:19:27 GMT 41.634888 -3.449208 30,325 5 430 1152
2022-08-05 05:19:19 GMT 41.618088 -3.451205 30,100 5 428 1664
2022-08-05 05:19:15 GMT 41.611275 -3.452006 30,000 5 428 1728
2022-08-05 05:19:10 GMT 41.600616 -3.453284 29,850 5 427 1856
2022-08-05 05:19:08 GMT 41.595383 -3.453889 29,750 5 427 1856
2022-08-05 05:19:02 GMT 41.584274 -3.455200 29,575 5 427 1856
2022-08-05 05:18:58 GMT 41.575619 -3.456222 29,375 5 426 1856
2022-08-05 05:18:52 GMT 41.564484 -3.457572 29,275 5 426 1856
2022-08-05 05:18:49 GMT 41.559357 -3.458196 29,200 5 426 1856
2022-08-05 05:18:47 GMT 41.554642 -3.458758 29,125 5 426 1792
2022-08-05 05:18:39 GMT 41.539948 -3.460506 28,925 5 425 1664
2022-08-05 05:18:35 GMT 41.531021 -3.461588 28,825 5 424 1600
2022-08-05 05:18:30 GMT 41.521805 -3.462673 28,675 5 423 1536
2022-08-05 05:18:27 GMT 41.515194 -3.463440 28,575 5 422 1536
2022-08-05 05:18:19 GMT 41.501678 -3.465063 28,400 5 421 1600
2022-08-05 05:18:16 GMT 41.494617 -3.465867 28,300 5 420 1664
2022-08-05 05:18:10 GMT 41.483459 -3.467185 28,075 5 419 1728
2022-08-05 05:18:07 GMT 41.475540 -3.468122 28,025 5 418 1664
2022-08-05 05:17:59 GMT 41.462776 -3.469636 27,825 5 416 1664
2022-08-05 05:17:55 GMT 41.454803 -3.470619 27,700 5 416 1600
2022-08-05 05:17:50 GMT 41.444046 -3.471867 27,575 5 414 1472
2022-08-05 05:17:46 GMT 41.435852 -3.472866 27,350 5 413 1472
2022-08-05 05:17:39 GMT 41.422165 -3.474426 27,275 5 411 1664
2022-08-05 05:17:36 GMT 41.416035 -3.475193 27,175 5 410 1792
2022-08-05 05:17:29 GMT 41.405548 -3.476424 27,000 5 409 2112
2022-08-05 05:17:26 GMT 41.399231 -3.477109 26,875 5 409 2304
2022-08-05 05:17:24 GMT 41.395157 -3.477610 26,800 5 409 2304
2022-08-05 05:17:20 GMT 41.387127 -3.478514 26,625 5 409 2304
2022-08-05 05:17:15 GMT 41.377304 -3.479670 26,450 5 409 2240
2022-08-05 05:17:10 GMT 41.367783 -3.480774 26,275 5 409 2048
2022-08-05 05:17:04 GMT 41.357704 -3.481917 26,100 4 408 1664
2022-08-05 05:17:00 GMT 41.349236 -3.482916 26,000 4 407 1408
2022-08-05 05:16:55 GMT 41.338528 -3.484102 25,875 4 404 1216
2022-08-05 05:16:50 GMT 41.330475 -3.485046 25,775 4 402 1280
2022-08-05 05:16:46 GMT 41.322876 -3.485962 25,675 5 400 1408
2022-08-05 05:16:44 GMT 41.319813 -3.486287 25,650 5 399 1408
2022-08-05 05:16:40 GMT 41.311527 -3.487285 25,525 5 398 1536
2022-08-05 05:16:35 GMT 41.302959 -3.488284 25,425 4 396 1536
2022-08-05 05:16:33 GMT 41.299942 -3.488586 25,375 4 395 1536
2022-08-05 05:16:30 GMT 41.293350 -3.489380 25,300 4 394 1280
2022-08-05 05:16:25 GMT 41.284332 -3.490417 25,175 4 392 1216
2022-08-05 05:16:22 GMT 41.279434 -3.490967 25,125 4 390 1280
2022-08-05 05:16:19 GMT 41.274078 -3.491577 25,075 4 388 1344
2022-08-05 05:16:13 GMT 41.263733 -3.492737 24,925 5 385 1472
2022-08-05 05:16:09 GMT 41.256176 -3.493652 24,800 5 384 1664
2022-08-05 05:16:02 GMT 41.244350 -3.495026 24,575 5 382 2304
2022-08-05 05:15:59 GMT 41.238720 -3.495712 24,450 5 381 2432
2022-08-05 05:15:56 GMT 41.234390 -3.496216 24,350 5 381 2752
2022-08-05 05:15:52 GMT 41.221821 -3.497772 24,000 5 383 3392
2022-08-05 05:15:49 GMT 41.221821 -3.497772 24,000 5 383 3392
2022-08-05 05:15:46 GMT 41.216328 -3.498396 23,800 5 384 3584
2022-08-05 05:15:43 GMT 41.209122 -3.499268 23,575 5 386 3520
2022-08-05 05:15:39 GMT 41.203583 -3.499939 23,400 5 388 3264
2022-08-05 05:15:32 GMT 41.190445 -3.501518 22,950 5 389 2304
2022-08-05 05:15:28 GMT 41.184673 -3.502204 22,925 5 389 2304
2022-08-05 05:15:26 GMT 41.180649 -3.502686 22,850 5 389 2112
2022-08-05 05:15:22 GMT 41.172848 -3.503640 22,475 5 386 2176
2022-08-05 05:15:18 GMT 41.166798 -3.504389 22,575 5 386 2112
2022-08-05 05:15:15 GMT 41.159546 -3.505249 22,425 5 385 2240
2022-08-05 05:15:11 GMT 41.154320 -3.505887 22,300 5 385 2368
2022-08-05 05:15:07 GMT 41.145172 -3.506958 22,100 5 384 2560
2022-08-05 05:15:01 GMT 41.136257 -3.508072 21,875 5 384 2752
2022-08-05 05:14:58 GMT 41.130253 -3.508759 21,725 5 384 2688
2022-08-05 05:14:53 GMT 41.123428 -3.509583 21,550 5 383 2560
2022-08-05 05:14:51 GMT 41.117825 -3.510194 21,425 5 383 2496
2022-08-05 05:14:48 GMT 41.112560 -3.510881 21,300 5 382 2496
2022-08-05 05:14:44 GMT 41.105675 -3.511692 21,150 5 382 2560
2022-08-05 05:14:39 GMT 41.096500 -3.512878 20,925 5 381 2624
2022-08-05 05:14:35 GMT 41.090973 -3.513672 20,775 7 382 2624
2022-08-05 05:14:31 GMT 41.081467 -3.515563 20,525 10 381 2880
2022-08-05 05:14:28 GMT 41.077320 -3.516686 20,425 11 382 2816
2022-08-05 05:14:26 GMT 41.074062 -3.517685 20,325 14 382 2624
2022-08-05 05:14:19 GMT 41.061634 -3.522367 20,025 18 381 2368
2022-08-05 05:14:15 GMT 41.054932 -3.525300 19,850 18 380 2752
2022-08-05 05:14:09 GMT 41.045059 -3.529785 19,575 18 379 2880
2022-08-05 05:14:05 GMT 41.039288 -3.532417 19,425 18 379 2880
2022-08-05 05:13:58 GMT 41.026794 -3.538086 19,075 18 378 2752
2022-08-05 05:13:56 GMT 41.021988 -3.540283 18,925 18 378 2688
2022-08-05 05:13:49 GMT 41.011871 -3.544861 18,650 18 376 2432
2022-08-05 05:13:47 GMT 41.007866 -3.546649 18,575 18 375 2240
2022-08-05 05:13:39 GMT 40.995758 -3.552124 18,300 18 372 2112
2022-08-05 05:13:35 GMT 40.989151 -3.555076 18,150 18 371 2240
2022-08-05 05:13:28 GMT 40.977142 -3.560507 17,850 18 368 2752
2022-08-05 05:13:25 GMT 40.972954 -3.562379 17,725 18 368 2880
2022-08-05 05:13:18 GMT 40.961826 -3.567373 17,375 18 367 3136
2022-08-05 05:13:14 GMT 40.955475 -3.570251 17,150 18 368 3456
2022-08-05 05:13:08 GMT 40.945770 -3.574585 16,775 18 368 3392
2022-08-05 05:13:05 GMT 40.941811 -3.576362 16,500 18 369 3200
2022-08-05 05:12:57 GMT 40.928787 -3.582214 16,275 18 369 3072
2022-08-05 05:12:54 GMT 40.924118 -3.584351 16,150 18 368 2944
2022-08-05 05:12:49 GMT 40.914413 -3.588684 15,850 18 367 2560
2022-08-05 05:12:45 GMT 40.907406 -3.591780 15,650 18 365 2496
2022-08-05 05:12:38 GMT 40.897110 -3.596375 15,400 18 363 2432
2022-08-05 05:12:34 GMT 40.891624 -3.598834 15,250 18 361 2368
2022-08-05 05:12:29 GMT 40.882233 -3.603027 15,000 18 357 2560
2022-08-05 05:12:27 GMT 40.879852 -3.604065 14,950 18 357 2560
2022-08-05 05:12:23 GMT 40.874168 -3.606637 14,775 18 357 2752
2022-08-05 05:12:19 GMT 40.866955 -3.609883 14,550 18 356 3136
2022-08-05 05:12:14 GMT 40.859573 -3.613159 14,275 18 356 3520
2022-08-05 05:12:08 GMT 40.851078 -3.616999 13,925 18 356 3968
2022-08-05 05:12:04 GMT 40.843643 -3.620361 13,625 18 358 3968
2022-08-05 05:12:00 GMT 40.832199 -3.625549 13,275 19 359 3712
2022-08-05 05:11:57 GMT 40.832199 -3.625549 13,175 19 359 3584
2022-08-05 05:11:54 GMT 40.827850 -3.627548 13,000 19 360 3456
2022-08-05 05:11:48 GMT 40.819515 -3.631356 12,725 19 359 3136
2022-08-05 05:11:46 GMT 40.815674 -3.633118 12,600 19 358 3200
2022-08-05 05:11:43 GMT 40.811737 -3.634888 12,450 19 358 3200
2022-08-05 05:11:38 GMT 40.803131 -3.638855 12,150 19 357 3200
2022-08-05 05:11:34 GMT 40.796520 -3.641905 11,925 19 356 3264
2022-08-05 05:11:28 GMT 40.784454 -3.647461 11,625 19 355 3264
2022-08-05 05:11:26 GMT 40.784454 -3.647461 11,525 19 355 3264
2022-08-05 05:11:22 GMT 40.778091 -3.650391 11,300 19 353 3200
2022-08-05 05:11:18 GMT 40.772232 -3.653076 11,100 18 353 2944
2022-08-05 05:11:13 GMT 40.764359 -3.656616 10,900 18 350 2368
2022-08-05 05:11:08 GMT 40.757042 -3.659696 10,700 15 345 1728
2022-08-05 05:11:06 GMT 40.753178 -3.661007 10,675 12 342 1344
2022-08-05 05:11:03 GMT 40.748749 -3.662292 10,600 11 339 1088
2022-08-05 05:10:58 GMT 40.741653 -3.663940 10,500 7 332 1152
2022-08-05 05:10:55 GMT 40.736561 -3.664814 10,450 6 327 1216
2022-08-05 05:10:52 GMT 40.732590 -3.665466 10,400 6 325 1344
2022-08-05 05:10:48 GMT 40.725109 -3.666562 10,250 6 318 1920
2022-08-05 05:10:45 GMT 40.722290 -3.666992 10,175 6 316 2176
2022-08-05 05:10:42 GMT 40.718079 -3.667603 10,075 6 313 2688
2022-08-05 05:10:38 GMT 40.712261 -3.668497 9,875 6 311 2752
2022-08-05 05:10:35 GMT 40.707367 -3.669250 9,725 6 308 2624
2022-08-05 05:10:32 GMT 40.703659 -3.669800 9,625 6 307 2560
2022-08-05 05:10:27 GMT 40.696152 -3.670994 9,425 7 302 2112
2022-08-05 05:10:23 GMT 40.689682 -3.672055 9,275 7 297 1792
2022-08-05 05:10:17 GMT 40.683445 -3.673117 9,150 7 291 1600
2022-08-05 05:10:15 GMT 40.679901 -3.673706 9,075 7 287 1600
2022-08-05 05:10:12 GMT 40.676136 -3.674365 9,000 7 283 1600
2022-08-05 05:10:08 GMT 40.670380 -3.675354 8,850 7 276 1728
2022-08-05 05:10:05 GMT 40.665939 -3.676147 8,775 7 274 1792
2022-08-05 05:10:02 GMT 40.663288 -3.676612 8,700 7 270 1792
2022-08-05 05:09:58 GMT 40.658249 -3.677429 8,575 5 265 1792
2022-08-05 05:09:56 GMT 40.656399 -3.677673 8,525 4 263 1792
2022-08-05 05:09:52 GMT 40.651108 -3.677979 8,400 358 257 1856
2022-08-05 05:09:47 GMT 40.645317 -3.677174 8,250 350 252 2368
2022-08-05 05:09:44 GMT 40.641632 -3.675903 8,050 341 248 2624
2022-08-05 05:09:41 GMT 40.639069 -3.674683 7,950 334 245 2624
2022-08-05 05:09:37 GMT 40.633774 -3.671119 7,725 328 243 2688
2022-08-05 05:09:34 GMT 40.631653 -3.669250 7,625 323 241 2816
2022-08-05 05:09:30 GMT 40.628220 -3.665771 7,425 322 239 2880
2022-08-05 05:09:26 GMT 40.625114 -3.662442 7,250 321 237 3072
2022-08-05 05:09:22 GMT 40.621250 -3.658198 7,000 320 236 3264
2022-08-05 05:09:16 GMT 40.616455 -3.652832 6,700 319 235 3328
2022-08-05 05:09:12 GMT 40.612591 -3.648335 6,450 318 235 3264
2022-08-05 05:09:08 GMT 40.609634 -3.644836 6,250 318 234 3072
2022-08-05 05:09:04 GMT 40.605927 -3.640198 6,050 317 232 2752
2022-08-05 05:09:01 GMT 40.604324 -3.638184 5,950 316 231 2432
2022-08-05 05:08:58 GMT 40.602036 -3.635193 5,850 315 228 1920
2022-08-05 05:08:56 GMT 40.600628 -3.633291 5,775 314 226 1664
2022-08-05 05:08:48 GMT 40.594994 -3.625363 5,625 312 215 1152
2022-08-05 05:08:45 GMT 40.593063 -3.622498 5,550 312 213 1152
2022-08-05 05:08:41 GMT 40.590454 -3.618469 5,475 310 205 1216
2022-08-05 05:08:38 GMT 40.588661 -3.615626 5,425 310 203 1216
2022-08-05 05:08:36 GMT 40.587158 -3.613220 5,375 309 201 1216
2022-08-05 05:08:32 GMT 40.585190 -3.609985 5,250 309 197 1344
2022-08-05 05:08:28 GMT 40.582752 -3.605888 5,200 309 193 1344
2022-08-05 05:08:26 GMT 40.581528 -3.603882 5,100 309 190 1600
2022-08-05 05:08:23 GMT 40.580383 -3.601990 4,925 309 189 2112
2022-08-05 05:08:18 GMT 40.577305 -3.596899 4,875 310 189 2048
2022-08-05 05:08:15 GMT 40.575623 -3.594299 4,775 311 188 2048
2022-08-05 05:08:12 GMT 40.574230 -3.592217 4,675 312 188 1984
2022-08-05 05:08:08 GMT 40.571533 -3.588347 4,525 315 186 1792
2022-08-05 05:08:05 GMT 40.570038 -3.586365 4,450 318 185 1792
2022-08-05 05:08:02 GMT 40.568253 -3.584290 4,375 320 184 1728
2022-08-05 05:07:58 GMT 40.565155 -3.581044 4,225 326 182 2240
2022-08-05 05:07:55 GMT 40.563011 -3.579233 4,100 331 181 2240
2022-08-05 05:07:51 GMT 40.560379 -3.577454 3,975 337 181 2048
2022-08-05 05:07:45 GMT 40.555069 -3.575378 3,750 353 179 2368

Making use of Plane Finder data

You are free to use the raw flight data, aircraft information and images provided in this report for your own purposes provided the data is correctly attributed to Plane Finder. We ask that you please credit Plane Finder and link to planefinder.net in close proximity to the content.

Optionally one of the following logos (no smaller then 150x24px) can be used and must link to planefinder.net

Embedding the Plane Finder map

You are welcome to embed the Plane Finder playback map on your website to offer visitors a more interactive experience. We suggest using the following HTML code:

<iframe src="//planefinder.net/data/report/U28274-G-EZDN-7700-squawk-2022-08-05/map" width="800" height="600" seamless="seamless"></iframe>

Where our data comes from

Plane Finder has a global network of data feeds and antenna radars that receive data broadcast directly from aircraft. The primary technologies used are ADS-B and MLAT. We also show feeds from the FAA and a FLARM glider feed.

Click here to find out more about the Plane Finder network.

How we collect our data